ftp/pub/palmer/observations_modified/2019/June/original_files/AR190616_BASE.txt
Download
Sample DateTime Unit Id WS Avg 2min WD Avg 2min WGS 10min WGD 10min Air Temp Rel Humidity Dew Point Pyranometer Quantum Air Pressure Snow Level Rainfall PW Current Visibility CBase 1 CBase 2 CBase 3 Vert Vis
2019/06/16 00:00:00 BASE 3.00 313 12.86 308 -0.1 100 -0.1 0 0 973.5 NA 0.0000 -SN BR 6000 0 0 0 2490
2019/06/16 00:01:00 BASE 2.51 326 12.86 308 -0.0 100 -0.0 0 0 973.6 NA 0.0000 -SN BR 4900 0 0 0 2430
2019/06/16 00:02:00 BASE 3.72 4 12.86 308 0.1 100 0.1 0 0 973.6 NA 0.0000 -SN BR 5000 300 0 0 0
2019/06/16 00:03:00 BASE 3.02 350 12.86 308 0.2 100 0.2 0 0 973.6 NA 0.0000 -SN BR 5000 300 0 0 0
2019/06/16 00:04:00 BASE 1.58 256 12.86 308 0.2 100 0.2 0 0 973.6 NA 0.0000 -SN BR 5000 360 0 0 0
2019/06/16 00:05:00 BASE 2.07 192 12.86 308 0.2 100 0.2 0 0 973.6 NA 0.0000 -SN BR 5000 330 0 0 0
2019/06/16 00:06:00 BASE 3.73 177 12.86 308 0.1 100 0.1 0 0 973.6 NA 0.0000 -SN BR 4100 0 0 0 2430
2019/06/16 00:07:00 BASE 4.62 170 9.72 328 -0.0 100 -0.0 0 0 973.6 NA 0.0000 -SN BR 3600 0 0 0 2620
2019/06/16 00:08:00 BASE 4.96 167 6.17 311 -0.1 100 -0.1 0 0 973.6 NA 0.0000 -SN BR 3900 360 0 0 0
2019/06/16 00:09:00 BASE 4.59 168 5.81 171 -0.3 100 -0.3 0 0 973.6 NA 0.0000 -SN BR 4500 360 0 0 0
2019/06/16 00:10:00 BASE 3.35 161 5.81 171 -0.4 100 -0.4 0 0 973.6 NA 0.0000 -SN BR 4100 2070 0 0 0
2019/06/16 00:11:00 BASE 2.86 141 5.81 171 -0.5 100 -0.5 0 0 973.6 NA 0.0000 -SN BR 5000 0 0 0 2990
2019/06/16 00:12:00 BASE 3.12 116 5.81 171 -0.5 100 -0.5 0 0 973.6 NA 0.0000 -SN BR 7000 0 0 0 2990
2019/06/16 00:13:00 BASE 3.45 105 5.81 171 -0.5 100 -0.5 0 0 973.6 NA 0.0000 -SN BR 7000 0 0 0 2920
2019/06/16 00:14:00 BASE 4.04 114 5.92 112 -0.4 100 -0.4 0 0 973.6 NA 0.0000 -SN BR 7000 390 0 0 0
2019/06/16 00:15:00 BASE 5.25 119 6.58 116 -0.4 100 -0.4 0 0 973.6 NA 0.0000 -SN BR 5000 300 0 0 0
2019/06/16 00:16:00 BASE 6.63 103 9.21 55 -0.3 100 -0.3 0 0 973.5 NA 0.0000 -SN BR 3700 230 0 0 0
2019/06/16 00:17:00 BASE 5.90 66 9.21 55 -0.2 100 -0.2 0 0 973.6 NA 0.0000 -SN BR 3400 230 0 0 0
2019/06/16 00:18:00 BASE 3.52 46 9.21 55 -0.1 100 -0.1 0 0 973.6 NA 0.0000 -SN BR 4100 0 0 0 2620
2019/06/16 00:19:00 BASE 2.59 44 9.21 55 0.0 100 0.0 0 0 973.7 NA 0.0000 -SN BR 4900 0 0 0 2660
2019/06/16 00:20:00 BASE 2.61 74 9.21 55 0.2 100 0.2 0 0 973.7 NA 0.0000 -SN BR 5000 360 0 0 0
2019/06/16 00:21:00 BASE 4.20 115 9.21 55 0.2 100 0.2 0 0 973.6 NA 0.0000 -SN BR 4700 330 0 0 0
2019/06/16 00:22:00 BASE 6.26 123 9.21 55 0.1 100 0.1 0 0 973.7 NA 0.0000 -SN BR 3600 330 0 0 0
2019/06/16 00:23:00 BASE 6.40 118 9.21 55 0.0 100 0.0 0 0 973.7 NA 0.0000 -SN BR 3600 360 0 0 0
2019/06/16 00:24:00 BASE 5.35 120 9.21 55 -0.0 100 -0.0 0 0 973.7 NA 0.0000 -SN BR 3500 360 0 0 0
2019/06/16 00:25:00 BASE 4.18 119 9.21 55 -0.1 100 -0.1 0 0 973.7 NA 0.0000 -SN BR 3400 0 0 0 2660
2019/06/16 00:26:00 BASE 3.78 125 7.56 126 -0.1 100 -0.1 0 0 973.7 NA 0.0000 -SN BR 3400 0 0 0 2820
2019/06/16 00:27:00 BASE 3.98 145 7.56 126 -0.1 100 -0.1 0 0 973.7 NA 0.0000 -SN BR 3400 0 0 0 2790
2019/06/16 00:28:00 BASE 4.20 153 7.56 126 -0.1 100 -0.1 0 0 973.7 NA 0.0000 -SN BR 3100 0 0 0 2760
2019/06/16 00:29:00 BASE 3.65 145 7.56 126 -0.2 100 -0.2 0 0 973.7 NA 0.0000 -SN BR 3100 0 0 0 2620
2019/06/16 00:30:00 BASE 3.36 141 7.56 126 -0.2 100 -0.2 0 0 973.7 NA 0.0000 -SN BR 3400 0 0 0 2720
2019/06/16 00:31:00 BASE 3.59 142 7.56 126 -0.2 100 -0.2 0 0 973.7 NA 0.0000 -SN BR 3400 0 0 0 2760
2019/06/16 00:32:00 BASE 2.90 126 7.61 9 -0.3 100 -0.3 0 0 973.7 NA 0.0000 -SN BR 3400 0 0 0 2330
2019/06/16 00:33:00 BASE 6.57 34 11.99 346 -0.3 100 -0.3 0 0 973.4 NA 0.0000 -SN BR 5000 0 0 0 2790
2019/06/16 00:34:00 BASE 13.82 355 22.43 8 -0.2 100 -0.2 0 0 973.0 NA 0.0000 -SN BR SQ 9999 0 0 0 2620
2019/06/16 00:35:00 BASE 14.73 351 22.43 8 -0.1 100 -0.1 0 0 973.3 NA 0.0000 -SN BR SQ 9999 0 0 0 2790
2019/06/16 00:36:00 BASE 12.22 350 22.43 8 -0.1 100 -0.1 0 0 973.4 NA 0.0000 -SN BR 9999 0 0 0 2950
2019/06/16 00:37:00 BASE 13.13 3 22.43 8 0.0 100 0.0 0 0 973.3 NA 0.0000 -SN BR 9999 0 0 0 3180
2019/06/16 00:38:00 BASE 14.43 14 22.43 8 0.1 100 0.1 0 0 973.3 NA 0.0000 -SN BR 9999 1610 0 0 0
2019/06/16 00:39:00 BASE 16.27 17 22.43 8 0.2 100 0.2 0 0 973.0 NA 0.0000 -SN BR 9999 2820 0 0 0
2019/06/16 00:40:00 BASE 18.80 10 22.43 8 0.2 100 0.2 0 0 973.0 NA 0.0000 -SN BR 9999 0 0 0 3080
2019/06/16 00:41:00 BASE 19.68 8 22.43 8 0.2 100 0.2 0 0 973.0 NA 0.0000 -SN BR 9999 430 0 0 0
2019/06/16 00:42:00 BASE 19.49 14 22.43 8 0.3 100 0.3 0 0 973.1 NA 0.0000 -SN 9999 0 0 0 2760
2019/06/16 00:43:00 BASE 20.21 17 23.30 17 0.3 100 0.3 0 0 972.9 NA 0.0000 -SN 9999 0 0 0 2920
2019/06/16 00:44:00 BASE 22.12 16 25.83 17 0.3 100 0.3 0 0 972.8 NA 0.0000 -SN 9000 0 0 0 2950
2019/06/16 00:45:00 BASE 21.75 16 25.83 17 0.3 100 0.3 0 0 972.9 NA 0.0000 -SN 9000 0 0 0 3020
2019/06/16 00:46:00 BASE 20.38 15 25.83 17 0.3 100 0.3 0 0 973.0 NA 0.0000 -SN 9999 0 0 0 3180
2019/06/16 00:47:00 BASE 19.24 14 25.83 17 0.3 100 0.3 0 0 973.0 NA 0.0000 -SN 9999 0 0 0 3120
2019/06/16 00:48:00 BASE 19.16 16 25.83 17 0.3 100 0.3 0 0 973.0 NA 0.0000 -SN 9999 0 0 0 3150
2019/06/16 00:49:00 BASE 19.90 18 25.83 17 0.3 100 0.3 0 0 973.1 NA 0.0000 -SN 9999 2590 0 0 0
2019/06/16 00:50:00 BASE 21.20 18 25.83 17 0.3 100 0.3 0 0 972.9 NA 0.0000 -SN 9999 2760 0 0 0
2019/06/16 00:51:00 BASE 21.92 20 25.83 17 0.3 100 0.3 0 0 973.0 NA 0.0000 -SN 9999 0 0 0 3250
2019/06/16 00:52:00 BASE 20.28 18 25.83 17 0.3 100 0.3 0 0 973.1 NA 0.0000 -SN 9999 390 0 0 0
2019/06/16 00:53:00 BASE 18.26 17 25.83 17 0.3 100 0.3 0 0 973.2 NA 0.0000 -SN 9999 0 0 0 3080
2019/06/16 00:54:00 BASE 17.49 21 23.77 17 0.3 100 0.3 0 0 973.3 NA 0.0000 -SN 9999 0 0 0 3280
2019/06/16 00:55:00 BASE 18.35 23 23.77 17 0.3 100 0.3 0 0 973.2 NA 0.0000 -SN 9999 0 0 0 3220
2019/06/16 00:56:00 BASE 17.35 23 23.77 17 0.3 100 0.3 0 0 973.4 NA 0.0000 -SN 9999 0 0 0 3220
2019/06/16 00:57:00 BASE 17.21 20 23.77 17 0.3 100 0.3 0 0 973.3 NA 0.0000 -SN 9999 690 0 0 0
2019/06/16 00:58:00 BASE 20.08 21 23.77 17 0.3 100 0.3 0 0 973.1 NA 0.0000 -SN 9000 430 0 0 0
2019/06/16 00:59:00 BASE 20.11 25 23.77 17 0.4 100 0.4 0 0 973.3 NA 0.0000 -SN 7000 0 0 0 3250
2019/06/16 01:00:00 BASE 18.93 26 23.41 20 0.4 100 0.4 0 0 973.3 NA 0.0000 -SN 8000 0 0 0 3120
2019/06/16 01:01:00 BASE 18.21 23 23.41 20 0.4 100 0.4 0 0 973.4 NA 0.0000 -SN 9999 0 0 0 3050
2019/06/16 01:02:00 BASE 17.43 20 23.41 20 0.5 100 0.5 0 0 973.4 NA 0.0000 -SN 9999 0 0 0 3180
2019/06/16 01:03:00 BASE 17.44 18 23.41 20 0.5 100 0.5 0 0 973.4 NA 0.0000 -SN 9999 0 0 0 3380
2019/06/16 01:04:00 BASE 17.32 14 23.41 20 0.5 100 0.5 0 0 973.4 NA 0.0000 -SN 9999 0 0 0 3180
2019/06/16 01:05:00 BASE 17.08 16 23.41 20 0.5 100 0.5 0 0 973.6 NA 0.0000 -SN 9999 0 0 0 3120
2019/06/16 01:06:00 BASE 16.91 19 23.41 20 0.4 100 0.4 0 0 973.6 NA 0.0000 -SN 9999 0 0 0 3350
2019/06/16 01:07:00 BASE 16.30 16 23.41 20 0.4 100 0.4 0 0 973.6 NA 0.2540 -SN 9999 0 0 0 3710
2019/06/16 01:08:00 BASE 14.89 14 23.41 20 0.4 100 0.4 0 0 973.7 NA 0.0000 -SN 9999 0 0 0 3480
2019/06/16 01:09:00 BASE 14.36 17 23.41 20 0.4 100 0.4 0 0 973.7 NA 0.0000 -SN 9999 2950 0 0 0
2019/06/16 01:10:00 BASE 14.26 19 21.40 18 0.4 100 0.4 0 0 973.7 NA 0.0000 -SN 9999 590 0 0 0
2019/06/16 01:11:00 BASE 14.34 21 21.40 18 0.5 100 0.5 0 0 973.7 NA 0.0000 -SN 9999 390 0 0 0
2019/06/16 01:12:00 BASE 15.37 21 20.17 21 0.5 100 0.5 0 0 973.7 NA 0.0000 -SN 9999 0 0 0 3250
2019/06/16 01:13:00 BASE 16.23 19 19.91 18 0.5 100 0.5 0 0 973.7 NA 0.0000 -SN 9999 0 0 0 3250
2019/06/16 01:14:00 BASE 15.68 17 19.09 17 0.6 100 0.6 0 0 973.8 NA 0.0000 -SN 9999 0 0 0 3450
2019/06/16 01:15:00 BASE 15.27 13 19.09 17 0.6 100 0.6 0 0 973.8 NA 0.0000 -SN 9999 1870 0 0 0
2019/06/16 01:16:00 BASE 16.66 16 19.81 18 0.6 100 0.6 0 0 973.7 NA 0.0000 -SN 9999 0 0 0 3540
2019/06/16 01:17:00 BASE 17.22 19 19.81 18 0.6 100 0.6 0 0 973.8 NA 0.0000 -SN 9999 3510 0 0 0
2019/06/16 01:18:00 BASE 15.87 16 19.81 18 0.6 100 0.6 0 0 973.8 NA 0.0000 -SN 9999 1120 0 0 0
2019/06/16 01:19:00 BASE 15.34 11 19.81 18 0.6 100 0.6 0 0 973.7 NA 0.0000 -SN 9999 3510 0 0 0
2019/06/16 01:20:00 BASE 17.62 13 21.97 21 0.6 100 0.6 0 0 973.6 NA 0.0000 9999 3540 0 0 0
2019/06/16 01:21:00 BASE 17.16 20 21.97 21 0.7 100 0.7 0 0 973.9 NA 0.0000 9999 3350 0 0 0
2019/06/16 01:22:00 BASE 14.88 22 21.97 21 0.7 100 0.7 0 0 973.9 NA 0.0000 9999 3510 0 0 0
2019/06/16 01:23:00 BASE 14.04 21 21.97 21 0.8 100 0.7 0 0 974.0 NA 0.0000 9999 2990 3480 0 0
2019/06/16 01:24:00 BASE 15.11 21 21.97 21 0.8 99 0.7 0 0 973.8 NA 0.0000 9999 2920 3580 0 0
2019/06/16 01:25:00 BASE 18.04 21 21.97 21 0.8 99 0.6 0 0 973.8 NA 0.0000 9999 2790 0 0 0
2019/06/16 01:26:00 BASE 19.10 22 21.97 21 0.7 99 0.5 0 0 973.7 NA 0.0000 9999 2760 0 0 0
2019/06/16 01:27:00 BASE 19.25 20 21.97 21 0.7 98 0.4 0 0 973.8 NA 0.0000 -SN 9999 3740 0 0 0
2019/06/16 01:28:00 BASE 19.60 21 22.02 24 0.6 98 0.4 0 0 973.7 NA 0.0000 -SN 9999 4360 0 0 0
2019/06/16 01:29:00 BASE 20.02 21 22.02 24 0.6 98 0.3 0 0 973.7 NA 0.0000 -SN 9999 3640 0 0 0
2019/06/16 01:30:00 BASE 20.63 20 23.05 18 0.6 98 0.3 0 0 973.7 NA 0.0000 -SN 9999 3580 0 0 0
2019/06/16 01:31:00 BASE 21.21 22 23.82 22 0.5 98 0.3 0 0 973.7 NA 0.0000 -SN 9999 3810 0 0 0
2019/06/16 01:32:00 BASE 22.02 22 25.16 21 0.5 98 0.3 0 0 973.6 NA 0.0000 -SN 9999 0 0 0 4100
2019/06/16 01:33:00 BASE 22.66 22 25.16 21 0.5 98 0.3 0 0 973.6 NA 0.0000 -SN 9999 0 0 0 3970
2019/06/16 01:34:00 BASE 23.20 22 25.72 22 0.5 99 0.3 0 0 973.5 NA 0.0000 -SN 9999 0 0 0 3840
2019/06/16 01:35:00 BASE 23.15 23 25.77 22 0.5 99 0.3 0 0 973.5 NA 0.0000 -SN 9999 0 0 0 3710
2019/06/16 01:36:00 BASE 23.88 23 27.47 27 0.5 99 0.4 0 0 973.4 NA 0.2540 -SN 9999 0 0 0 4860
2019/06/16 01:37:00 BASE 24.90 18 27.47 27 0.5 99 0.3 0 0 973.3 NA 0.0000 -SN 9999 0 0 0 4860
2019/06/16 01:38:00 BASE 23.57 13 27.47 27 0.5 99 0.3 0 0 973.5 NA 0.0000 -SN 9999 0 0 0 4560
2019/06/16 01:39:00 BASE 22.65 14 27.47 27 0.4 99 0.3 0 0 973.5 NA 0.0000 -SN 9999 0 0 0 4130
2019/06/16 01:40:00 BASE 22.05 13 27.47 27 0.4 99 0.3 0 0 973.6 NA 0.0000 -SN 9999 0 0 0 4100
2019/06/16 01:41:00 BASE 22.18 11 27.47 27 0.4 100 0.3 0 0 973.5 NA 0.0000 -SN 9999 0 0 0 3740
2019/06/16 01:42:00 BASE 23.95 12 27.47 27 0.3 100 0.3 0 0 973.4 NA 0.0000 -SN 9999 0 0 0 3710
2019/06/16 01:43:00 BASE 25.52 14 27.47 27 0.3 100 0.3 0 0 973.2 NA 0.0000 -SN 9999 0 0 0 3510
2019/06/16 01:44:00 BASE 25.59 15 27.47 27 0.3 100 0.3 0 0 973.4 NA 0.0000 -SN 9999 0 0 0 3740
2019/06/16 01:45:00 BASE 24.76 13 27.47 27 0.3 100 0.3 0 0 973.4 NA 0.0000 -SN 9999 0 0 0 3410
2019/06/16 01:46:00 BASE 24.60 12 27.27 11 0.3 100 0.3 0 0 973.4 NA 0.0000 -SN 9999 0 0 0 3250
2019/06/16 01:47:00 BASE 25.10 14 27.27 11 0.3 100 0.3 0 0 973.3 NA 0.0000 -SN 9999 0 0 0 3080
2019/06/16 01:48:00 BASE 25.13 14 27.27 11 0.2 100 0.2 0 0 973.4 NA 0.0000 -SN 9999 0 0 0 3020
2019/06/16 01:49:00 BASE 25.31 14 28.50 16 0.2 100 0.2 0 0 973.4 NA 0.0000 -SN 9999 0 0 0 2820
2019/06/16 01:50:00 BASE 26.54 15 28.50 16 0.2 100 0.2 0 0 973.1 NA 0.0000 -SN 9999 0 0 0 2790
2019/06/16 01:51:00 BASE 27.31 16 29.63 17 0.2 100 0.2 0 0 973.2 NA 0.0000 -SN 9999 0 0 0 3250
2019/06/16 01:52:00 BASE 26.98 16 29.63 17 0.2 100 0.2 0 0 973.3 NA 0.0000 -SN 9999 0 0 0 3150
2019/06/16 01:53:00 BASE 26.26 17 29.63 17 0.1 100 0.1 0 0 973.3 NA 0.0000 -SN 9999 0 0 0 3020
2019/06/16 01:54:00 BASE 26.80 17 29.63 17 0.1 100 0.1 0 0 973.3 NA 0.0000 -SN 9999 0 0 0 3510
2019/06/16 01:55:00 BASE 27.66 15 29.63 17 0.1 100 0.1 0 0 973.2 NA 0.0000 -SN 9999 0 0 0 4040
2019/06/16 01:56:00 BASE 25.77 13 29.63 17 0.1 100 0.1 0 0 973.4 NA 0.0000 -SN 9999 0 0 0 4490
2019/06/16 01:57:00 BASE 25.30 14 29.63 17 0.1 100 0.1 0 0 973.2 NA 0.0000 -SN 9999 0 0 0 4230
2019/06/16 01:58:00 BASE 27.05 17 29.63 17 0.1 100 0.1 0 0 973.1 NA 0.0000 -SN 9999 0 0 0 3970
2019/06/16 01:59:00 BASE 28.03 19 30.46 19 0.0 100 0.0 0 0 973.2 NA 0.0000 -SN 9999 0 0 0 3710
2019/06/16 02:00:00 BASE 27.59 18 30.46 19 0.0 100 0.0 0 0 973.4 NA 0.0000 -SN 9000 0 0 0 3250
2019/06/16 02:01:00 BASE 26.79 15 30.46 19 0.0 100 0.0 0 0 973.4 NA 0.0000 -SN 9999 0 0 0 2950
2019/06/16 02:02:00 BASE 27.19 15 30.46 19 0.0 100 0.0 0 0 973.4 NA 0.0000 -SN 9999 0 0 0 3020
2019/06/16 02:03:00 BASE 27.47 15 30.46 19 0.0 100 0.0 0 0 973.4 NA 0.0000 -SN 9999 0 0 0 2920
2019/06/16 02:04:00 BASE 27.40 15 30.46 19 0.0 100 0.0 0 0 973.4 NA 0.0000 -SN 9999 0 0 0 2790
2019/06/16 02:05:00 BASE 27.70 15 30.82 16 0.0 100 0.0 0 0 973.4 NA 0.0000 -SN 9999 0 0 0 2920
2019/06/16 02:06:00 BASE 28.75 16 32.67 16 0.0 100 0.0 0 0 973.4 NA 0.0000 -SN 7000 0 0 0 3080
2019/06/16 02:07:00 BASE 29.21 16 32.67 16 -0.0 100 -0.0 0 0 973.4 NA 0.0000 -SN BR 5000 0 0 0 2990
2019/06/16 02:08:00 BASE 28.34 15 32.67 16 -0.0 100 -0.0 0 0 973.6 NA 0.0000 -SN BR 5000 0 0 0 2990
2019/06/16 02:09:00 BASE 27.33 15 32.67 16 -0.0 100 -0.0 0 0 973.7 NA 0.0000 -SN BR 6000 0 0 0 3050
2019/06/16 02:10:00 BASE 27.10 14 32.67 16 -0.0 100 -0.0 0 0 973.7 NA 0.0000 -SN BR 8000 0 0 0 3120
2019/06/16 02:11:00 BASE 27.50 15 32.67 16 -0.0 100 -0.0 0 0 973.7 NA 0.0000 -SN BR 8000 0 0 0 3050
2019/06/16 02:12:00 BASE 27.36 14 32.67 16 -0.0 100 -0.0 0 0 973.7 NA 0.0000 -SN BR 7000 0 0 0 2990
2019/06/16 02:13:00 BASE 27.06 14 32.67 16 -0.0 100 -0.0 0 0 973.8 NA 0.0000 -SN BR 8000 0 0 0 3540
2019/06/16 02:14:00 BASE 27.10 15 32.67 16 -0.0 100 -0.0 0 0 973.8 NA 0.0000 -SN BR 9999 0 0 0 3840
2019/06/16 02:15:00 BASE 26.69 14 32.67 16 0.0 100 0.0 0 0 974.0 NA 0.0000 -SN BR 9999 0 0 0 4760
2019/06/16 02:16:00 BASE 25.95 15 31.23 9 0.0 100 0.0 0 0 973.9 NA 0.0000 -SN BR 9999 0 0 0 4790
2019/06/16 02:17:00 BASE 25.41 12 30.30 15 0.0 100 0.0 0 0 973.9 NA 0.0000 -SN BR 9999 0 0 0 4720
2019/06/16 02:18:00 BASE 25.85 10 30.30 15 0.0 100 0.0 0 0 974.1 NA 0.0000 -SN BR 9999 0 0 0 3770
2019/06/16 02:19:00 BASE 26.49 9 30.30 15 0.1 100 0.1 0 0 974.0 NA 0.0000 -SN 9999 0 0 0 3380
2019/06/16 02:20:00 BASE 26.20 6 30.15 12 0.1 100 0.1 0 0 973.9 NA 0.0000 -SN 9999 0 0 0 3250
2019/06/16 02:21:00 BASE 25.62 6 30.15 12 0.1 100 0.1 0 0 974.1 NA 0.0000 -SN 9999 0 0 0 2720
2019/06/16 02:22:00 BASE 24.88 5 30.15 12 0.1 100 0.1 0 0 974.1 NA 0.0000 -SN 9999 0 0 0 2890
2019/06/16 02:23:00 BASE 23.51 358 29.63 8 0.1 100 0.1 0 0 974.3 NA 0.0000 -SN 9999 0 0 0 3080
2019/06/16 02:24:00 BASE 23.43 358 29.32 1 0.1 100 0.1 0 0 974.2 NA 0.0000 -SN 9999 0 0 0 2820
2019/06/16 02:25:00 BASE 23.97 2 29.32 1 0.1 100 0.1 0 0 974.3 NA 0.0000 -SN 9999 0 0 0 2590
2019/06/16 02:26:00 BASE 23.74 1 29.32 1 0.1 100 0.1 0 0 974.3 NA 0.0000 9999 0 0 0 3020
2019/06/16 02:27:00 BASE 23.66 0 29.32 1 0.1 100 0.1 0 0 974.3 NA 0.0000 9999 0 0 0 2950
2019/06/16 02:28:00 BASE 24.38 1 29.32 1 0.1 100 0.1 0 0 974.2 NA 0.0000 9999 0 0 0 2620
2019/06/16 02:29:00 BASE 23.92 3 29.32 1 0.0 100 0.0 0 0 974.5 NA 0.0000 9999 0 0 0 2490
2019/06/16 02:30:00 BASE 23.45 1 27.57 4 0.0 100 0.0 0 0 974.6 NA 0.0000 9999 0 0 0 2400
2019/06/16 02:31:00 BASE 24.33 360 26.70 3 0.0 100 0.0 0 0 974.6 NA 0.0000 9999 0 0 0 2660
2019/06/16 02:32:00 BASE 23.60 6 26.70 3 -0.0 100 -0.0 0 0 974.7 NA 0.0000 9999 0 0 0 2820
2019/06/16 02:33:00 BASE 22.21 3 26.70 3 -0.0 100 -0.0 0 0 974.9 NA 0.0000 9999 0 0 0 3020
2019/06/16 02:34:00 BASE 20.96 351 26.70 3 -0.1 100 -0.1 0 0 975.1 NA 0.0000 9999 0 0 0 2400
2019/06/16 02:35:00 BASE 20.23 348 26.70 3 -0.1 100 -0.1 0 0 975.1 NA 0.0000 9999 0 0 0 2430
2019/06/16 02:36:00 BASE 20.09 355 26.70 3 -0.0 100 -0.0 0 0 975.2 NA 0.0000 9999 0 0 0 2950
2019/06/16 02:37:00 BASE 19.39 357 26.70 3 -0.0 100 -0.0 0 0 975.3 NA 0.0000 9999 0 0 0 2950
2019/06/16 02:38:00 BASE 18.80 356 26.70 3 -0.0 100 -0.0 0 0 975.3 NA 0.0000 9999 0 0 0 2400
2019/06/16 02:39:00 BASE 19.43 356 26.70 3 -0.1 100 -0.1 0 0 975.2 NA 0.0000 9999 0 0 0 3020
2019/06/16 02:40:00 BASE 19.78 354 26.70 3 -0.1 100 -0.1 0 0 975.3 NA 0.0000 9999 360 0 0 0
2019/06/16 02:41:00 BASE 19.47 352 23.82 348 -0.1 100 -0.1 0 0 975.3 NA 0.0000 9999 0 0 0 2330
2019/06/16 02:42:00 BASE 19.62 351 23.82 348 -0.1 100 -0.1 0 0 975.2 NA 0.0000 9999 0 0 0 3220
2019/06/16 02:43:00 BASE 20.76 357 23.82 348 -0.1 100 -0.1 0 0 975.2 NA 0.0000 9999 0 0 0 3180
2019/06/16 02:44:00 BASE 21.18 0 24.13 354 -0.2 100 -0.2 0 0 975.3 NA 0.0000 9999 390 0 0 0
2019/06/16 02:45:00 BASE 20.67 357 24.13 354 -0.2 100 -0.2 0 0 975.3 NA 0.0000 9999 2030 0 0 0
2019/06/16 02:46:00 BASE 19.74 356 24.13 354 -0.3 100 -0.3 0 0 975.4 NA 0.0000 9999 0 0 0 2990
2019/06/16 02:47:00 BASE 19.18 353 24.13 354 -0.3 100 -0.3 0 0 975.5 NA 0.0000 9999 0 0 0 3080
2019/06/16 02:48:00 BASE 18.90 347 24.13 354 -0.3 100 -0.3 0 0 975.6 NA 0.0000 9999 0 0 0 2400
2019/06/16 02:49:00 BASE 17.98 349 24.13 354 -0.3 100 -0.3 0 0 975.6 NA 0.0000 9999 0 0 0 2330
2019/06/16 02:50:00 BASE 19.09 349 24.13 354 -0.2 100 -0.2 0 0 975.5 NA 0.0000 9999 0 0 0 2230
2019/06/16 02:51:00 BASE 19.95 350 24.13 354 -0.2 100 -0.2 0 0 975.6 NA 0.0000 9999 0 0 0 2000
2019/06/16 02:52:00 BASE 20.76 349 26.03 339 -0.2 100 -0.2 0 0 975.4 NA 0.0000 9999 260 0 0 0
2019/06/16 02:53:00 BASE 20.76 344 26.03 339 -0.2 100 -0.2 0 0 975.6 NA 0.0000 9999 0 0 0 1310
2019/06/16 02:54:00 BASE 19.73 347 26.03 344 -0.2 100 -0.2 0 0 975.7 NA 0.0000 9999 0 0 0 1410
2019/06/16 02:55:00 BASE 21.58 344 26.03 344 -0.3 100 -0.3 0 0 975.4 NA 0.0000 9999 0 0 0 1380
2019/06/16 02:56:00 BASE 23.47 337 26.03 344 -0.3 100 -0.3 0 0 975.5 NA 0.0000 UP 9999 0 0 0 1020
2019/06/16 02:57:00 BASE 23.38 335 26.03 344 -0.3 100 -0.3 0 0 975.6 NA 0.0000 UP 9999 0 0 0 1050
2019/06/16 02:58:00 BASE 22.73 332 26.03 344 -0.4 100 -0.4 0 0 975.8 NA 0.0000 UP 9999 0 0 0 1050
2019/06/16 02:59:00 BASE 23.05 329 26.03 344 -0.4 100 -0.4 0 0 975.8 NA 0.0000 UP 9999 0 0 0 1540
2019/06/16 03:00:00 BASE 22.56 330 26.03 344 -0.4 100 -0.4 0 0 975.9 NA 0.0000 UP 9999 0 0 0 1250
2019/06/16 03:01:00 BASE 21.19 331 26.03 344 -0.5 100 -0.5 0 0 976.0 NA 0.0000 UP 9999 0 0 0 980
2019/06/16 03:02:00 BASE 21.11 331 26.03 344 -0.5 100 -0.5 0 0 976.0 NA 0.0000 UP 9999 0 0 0 1350
2019/06/16 03:03:00 BASE 21.43 329 26.03 344 -0.5 100 -0.5 0 0 976.1 NA 0.0000 UP 9999 0 0 0 3220
2019/06/16 03:04:00 BASE 19.95 327 25.93 340 -0.5 100 -0.5 0 0 976.5 NA 0.0000 UP 9999 0 0 0 2430
2019/06/16 03:05:00 BASE 18.39 327 25.93 340 -0.6 100 -0.6 0 0 976.4 NA 0.0000 UP 8000 0 0 0 1350
2019/06/16 03:06:00 BASE 18.39 325 25.46 331 -0.6 100 -0.6 0 0 976.6 NA 0.0000 UP BR 6000 0 0 0 1180
2019/06/16 03:07:00 BASE 17.26 325 25.46 331 -0.6 100 -0.6 0 0 976.7 NA 0.0000 UP BR 6000 0 0 0 1250
2019/06/16 03:08:00 BASE 16.76 328 25.46 331 -0.6 100 -0.6 0 0 976.6 NA 0.0000 UP BR 6000 0 0 0 1080
2019/06/16 03:09:00 BASE 17.82 327 23.41 323 -0.6 100 -0.6 0 0 976.6 NA 0.0000 UP BR 7000 0 0 0 950
2019/06/16 03:10:00 BASE 17.61 327 23.41 323 -0.6 100 -0.6 0 0 976.7 NA 0.0000 UP BR 7000 0 0 0 1180
2019/06/16 03:11:00 BASE 16.68 327 23.41 323 -0.6 100 -0.6 0 0 976.7 NA 0.0000 UP BR 7000 0 0 0 1570
2019/06/16 03:12:00 BASE 16.51 326 23.41 323 -0.6 100 -0.6 0 0 976.7 NA 0.0000 UP BR 7000 230 0 0 0
2019/06/16 03:13:00 BASE 17.12 326 21.09 323 -0.6 100 -0.6 0 0 976.7 NA 0.0000 UP BR 7000 260 0 0 0
2019/06/16 03:14:00 BASE 17.07 327 21.09 323 -0.6 100 -0.6 0 0 976.9 NA 0.0000 UP BR 9999 260 0 0 0
2019/06/16 03:15:00 BASE 15.94 326 21.09 323 -0.6 100 -0.6 0 0 976.9 NA 0.0000 UP BR 9999 230 0 0 0
2019/06/16 03:16:00 BASE 15.21 325 21.09 323 -0.6 100 -0.6 0 0 977.0 NA 0.0000 UP BR 9999 0 0 0 1310
2019/06/16 03:17:00 BASE 14.80 325 21.09 323 -0.6 100 -0.6 0 0 977.0 NA 0.0000 UP BR 9999 230 0 0 0
2019/06/16 03:18:00 BASE 13.94 327 21.09 323 -0.6 100 -0.6 0 0 977.1 NA 0.0000 UP BR 9999 230 0 0 0
2019/06/16 03:19:00 BASE 13.47 328 19.29 326 -0.6 100 -0.6 0 0 977.1 NA 0.0000 9999 260 0 0 0
2019/06/16 03:20:00 BASE 13.79 329 19.29 326 -0.7 100 -0.7 0 0 977.1 NA 0.0000 9999 230 0 0 0
2019/06/16 03:21:00 BASE 13.86 330 19.29 326 -0.7 100 -0.7 0 0 977.1 NA 0.0000 9999 230 0 0 0
2019/06/16 03:22:00 BASE 13.12 332 19.29 326 -0.7 100 -0.7 0 0 977.2 NA 0.0000 9999 200 0 0 0
2019/06/16 03:23:00 BASE 12.05 331 18.11 331 -0.7 100 -0.7 0 0 977.2 NA 0.0000 9999 0 0 0 1380
2019/06/16 03:24:00 BASE 11.15 327 16.51 329 -0.7 100 -0.7 0 0 977.3 NA 0.0000 9999 200 0 0 0
2019/06/16 03:25:00 BASE 10.56 330 16.41 324 -0.7 100 -0.7 0 0 977.3 NA 0.0000 9999 200 0 0 0
2019/06/16 03:26:00 BASE 9.97 334 15.84 340 -0.7 100 -0.7 0 0 977.3 NA 0.0000 9999 0 0 0 1570
2019/06/16 03:27:00 BASE 9.85 332 15.84 340 -0.7 100 -0.7 0 0 977.3 NA 0.0000 9999 0 0 0 1380
2019/06/16 03:28:00 BASE 10.38 332 15.84 340 -0.7 100 -0.7 0 0 977.3 NA 0.0000 9999 0 0 0 1020
2019/06/16 03:29:00 BASE 10.40 337 15.84 340 -0.7 100 -0.7 0 0 977.3 NA 0.0000 UP 7000 0 0 0 1050
2019/06/16 03:30:00 BASE 10.17 339 15.23 329 -0.7 100 -0.7 0 0 977.3 NA 0.0000 UP 7000 0 0 0 1120
2019/06/16 03:31:00 BASE 10.45 339 14.76 331 -0.7 100 -0.7 0 0 977.3 NA 0.0000 UP 9000 0 0 0 1210
2019/06/16 03:32:00 BASE 10.80 340 12.81 328 -0.8 100 -0.8 0 0 977.3 NA 0.0000 UP 9999 0 0 0 1350
2019/06/16 03:33:00 BASE 10.78 341 12.09 339 -0.8 100 -0.8 0 0 977.3 NA 0.0000 UP 9999 0 0 0 1210
2019/06/16 03:34:00 BASE 10.73 340 12.09 339 -0.8 100 -0.8 0 0 977.4 NA 0.0000 UP 9999 0 0 0 1410
2019/06/16 03:35:00 BASE 10.32 337 12.09 339 -0.8 100 -0.8 0 0 977.4 NA 0.0000 UP 9999 0 0 0 1440
2019/06/16 03:36:00 BASE 10.19 338 12.09 339 -0.8 100 -0.8 0 0 977.4 NA 0.0000 UP 9999 260 0 0 0
2019/06/16 03:37:00 BASE 11.12 334 14.35 334 -0.8 100 -0.8 0 0 977.3 NA 0.0000 UP BR 9999 300 0 0 0
2019/06/16 03:38:00 BASE 12.06 332 14.35 334 -0.8 100 -0.8 0 0 977.3 NA 0.0000 UP 9999 430 0 0 0
2019/06/16 03:39:00 BASE 12.35 331 14.35 334 -0.8 100 -0.8 0 0 977.4 NA 0.0000 UP 9999 390 0 0 0
2019/06/16 03:40:00 BASE 12.39 330 14.35 334 -0.8 100 -0.8 0 0 977.4 NA 0.0000 UP 9999 260 0 0 0
2019/06/16 03:41:00 BASE 12.33 329 14.35 334 -0.8 100 -0.8 0 0 977.4 NA 0.0000 UP 9999 430 0 0 0
2019/06/16 03:42:00 BASE 12.36 328 14.35 334 -0.8 100 -0.8 0 0 977.5 NA 0.0000 UP 9999 820 0 0 0
2019/06/16 03:43:00 BASE 12.14 329 14.35 334 -0.9 100 -0.9 0 0 977.5 NA 0.0000 UP 9999 490 0 0 0
2019/06/16 03:44:00 BASE 11.42 328 14.35 334 -0.9 100 -0.9 0 0 977.6 NA 0.0000 UP 9999 360 0 0 0
2019/06/16 03:45:00 BASE 11.07 328 14.35 334 -0.9 100 -0.9 0 0 977.6 NA 0.0000 UP 6000 0 0 0 1610
2019/06/16 03:46:00 BASE 11.06 330 14.35 334 -0.9 100 -0.9 0 0 977.5 NA 0.0000 6000 0 0 0 1380
2019/06/16 03:47:00 BASE 10.80 333 14.04 328 -0.9 100 -0.9 0 0 977.6 NA 0.0000 UP 8000 300 1150 0 0
2019/06/16 03:48:00 BASE 11.05 334 13.68 327 -0.9 100 -0.9 0 0 977.5 NA 0.0000 UP 9999 300 0 0 0
2019/06/16 03:49:00 BASE 11.49 333 13.17 325 -0.9 100 -0.9 0 0 977.5 NA 0.0000 UP BR 8000 0 0 0 1610
2019/06/16 03:50:00 BASE 10.69 334 13.17 325 -0.9 100 -0.9 0 0 977.6 NA 0.0000 UP BR 8000 360 0 0 0
2019/06/16 03:51:00 BASE 10.18 337 13.17 325 -0.9 100 -0.9 0 0 977.6 NA 0.0000 UP BR 9999 390 0 0 0
2019/06/16 03:52:00 BASE 10.35 337 12.71 337 -0.9 100 -0.9 0 0 977.6 NA 0.2540 UP BR 9999 360 0 0 0
2019/06/16 03:53:00 BASE 10.23 338 12.71 337 -0.9 100 -0.9 0 0 977.7 NA 0.0000 UP BR 9999 300 0 0 0
2019/06/16 03:54:00 BASE 10.64 339 12.71 337 -0.9 100 -0.9 0 0 977.6 NA 0.0000 UP BR 9999 300 0 0 0
2019/06/16 03:55:00 BASE 11.24 338 12.71 337 -0.9 100 -0.9 0 0 977.6 NA 0.0000 UP 9999 300 0 0 0
2019/06/16 03:56:00 BASE 11.07 334 12.71 337 -0.9 100 -0.9 0 0 977.7 NA 0.0000 UP 9999 0 0 0 1150
2019/06/16 03:57:00 BASE 10.56 331 12.71 337 -0.9 100 -0.9 0 0 977.7 NA 0.0000 UP BR 5000 0 0 0 1440
2019/06/16 03:58:00 BASE 10.64 330 12.45 333 -0.9 100 -0.9 0 0 977.7 NA 0.0000 UP BR 3900 0 0 0 1210
2019/06/16 03:59:00 BASE 10.75 329 12.04 337 -0.9 100 -0.9 0 0 977.7 NA 0.0000 UP BR 4100 0 0 0 1250
2019/06/16 04:00:00 BASE 11.26 330 13.12 332 -0.9 100 -0.9 0 0 977.6 NA 0.0000 UP BR 4600 0 0 0 1180
2019/06/16 04:01:00 BASE 12.01 332 13.27 336 -0.9 100 -0.9 0 0 977.6 NA 0.0000 UP BR 5000 0 0 0 1280
2019/06/16 04:02:00 BASE 12.50 333 13.94 335 -0.9 100 -0.9 0 0 977.5 NA 0.0000 UP BR 5000 230 0 0 0
2019/06/16 04:03:00 BASE 12.86 335 13.94 335 -0.9 100 -0.9 0 0 977.6 NA 0.0000 UP BR 5000 0 0 0 1120
2019/06/16 04:04:00 BASE 13.38 333 14.46 334 -0.9 100 -0.9 0 0 977.5 NA 0.0000 UP BR 5000 0 0 0 1250
2019/06/16 04:05:00 BASE 13.50 332 14.46 334 -0.9 100 -0.9 0 0 977.6 NA 0.0000 UP BR 5000 330 0 0 0
2019/06/16 04:06:00 BASE 13.32 330 14.76 323 -0.9 100 -0.9 0 0 977.7 NA 0.0000 UP BR 5000 300 0 0 0
2019/06/16 04:07:00 BASE 13.64 328 14.82 327 -0.9 100 -0.9 0 0 977.7 NA 0.0000 UP BR 5000 0 0 0 1050
2019/06/16 04:08:00 BASE 13.19 328 14.82 327 -0.9 100 -0.9 0 0 977.8 NA 0.0000 UP BR 4400 0 0 0 1280
2019/06/16 04:09:00 BASE 12.43 324 14.82 327 -0.9 100 -0.9 0 0 977.9 NA 0.0000 UP BR 4000 0 0 0 1150
2019/06/16 04:10:00 BASE 11.99 318 14.82 327 -0.9 100 -0.9 0 0 978.0 NA 0.0000 UP BR 7000 300 0 0 0
2019/06/16 04:11:00 BASE 12.07 315 14.82 327 -0.9 100 -0.9 0 0 978.0 NA 0.0000 UP BR 9999 360 0 0 0
2019/06/16 04:12:00 BASE 11.98 314 14.82 327 -0.9 100 -0.9 0 0 978.1 NA 0.0000 UP BR 9999 360 0 0 0
2019/06/16 04:13:00 BASE 11.13 314 14.82 327 -0.9 100 -0.9 0 0 978.2 NA 0.0000 UP BR 9999 300 0 0 0
2019/06/16 04:14:00 BASE 11.08 311 14.82 327 -0.9 100 -0.9 0 0 978.2 NA 0.0000 UP BR 9999 260 0 0 0
2019/06/16 04:15:00 BASE 11.61 310 14.82 327 -0.9 100 -0.9 0 0 978.2 NA 0.0000 UP BR 9999 300 0 0 0
2019/06/16 04:16:00 BASE 11.44 314 14.82 327 -0.9 100 -0.9 0 0 978.2 NA 0.0000 UP BR 9999 300 0 0 0
2019/06/16 04:17:00 BASE 10.87 315 13.79 316 -0.9 100 -0.9 0 0 978.2 NA 0.0000 UP BR 9999 300 0 0 0
2019/06/16 04:18:00 BASE 10.26 317 13.79 316 -0.9 100 -0.9 0 0 978.3 NA 0.0000 UP 9999 260 0 0 0
2019/06/16 04:19:00 BASE 10.36 323 13.79 316 -0.9 100 -0.9 0 0 978.1 NA 0.0000 9999 300 0 0 0
2019/06/16 04:20:00 BASE 10.49 326 13.79 316 -0.9 100 -0.9 0 0 978.2 NA 0.0000 9999 260 0 0 0
2019/06/16 04:21:00 BASE 9.70 325 13.58 306 -0.9 100 -0.9 0 0 978.3 NA 0.0000 9999 330 1150 0 0
2019/06/16 04:22:00 BASE 9.67 323 13.58 306 -0.9 100 -0.9 0 0 978.3 NA 0.0000 9999 560 0 0 0
2019/06/16 04:23:00 BASE 9.72 322 13.58 306 -0.9 100 -0.9 0 0 978.3 NA 0.0000 9999 430 0 0 0
2019/06/16 04:24:00 BASE 9.09 320 12.45 316 -0.9 100 -0.9 0 0 978.4 NA 0.0000 9999 390 0 0 0
2019/06/16 04:25:00 BASE 8.85 321 12.14 311 -0.9 100 -0.9 0 0 978.4 NA 0.0000 9999 300 0 0 0
2019/06/16 04:26:00 BASE 9.10 320 11.73 318 -0.9 100 -0.9 0 0 978.4 NA 0.0000 9999 300 0 0 0
2019/06/16 04:27:00 BASE 9.66 319 11.57 324 -0.9 100 -0.9 0 0 978.3 NA 0.0000 9999 300 0 0 0
2019/06/16 04:28:00 BASE 9.46 320 11.57 324 -0.9 100 -0.9 0 0 978.4 NA 0.0000 9999 260 0 0 0
2019/06/16 04:29:00 BASE 9.27 322 11.57 324 -0.8 100 -0.8 0 0 978.3 NA 0.0000 9999 230 0 0 0
2019/06/16 04:30:00 BASE 9.94 324 11.57 324 -0.8 100 -0.8 0 0 978.2 NA 0.0000 9999 230 0 0 0
2019/06/16 04:31:00 BASE 10.13 320 11.57 324 -0.8 100 -0.8 0 0 978.3 NA 0.0000 9999 260 0 0 0
2019/06/16 04:32:00 BASE 9.35 317 11.11 315 -0.8 100 -0.8 0 0 978.4 NA 0.0000 9999 260 0 0 0
2019/06/16 04:33:00 BASE 8.33 318 11.11 315 -0.8 100 -0.8 0 0 978.5 NA 0.0000 9999 300 0 0 0
2019/06/16 04:34:00 BASE 8.17 320 11.11 315 -0.8 100 -0.8 0 0 978.4 NA 0.0000 9999 300 0 0 0
2019/06/16 04:35:00 BASE 8.12 320 11.11 315 -0.8 100 -0.8 0 0 978.5 NA 0.0000 9999 330 0 0 0
2019/06/16 04:36:00 BASE 8.27 319 11.11 315 -0.8 100 -0.8 0 0 978.4 NA 0.0000 9999 330 0 0 0
2019/06/16 04:37:00 BASE 8.53 317 11.11 315 -0.9 100 -0.9 0 0 978.4 NA 0.0000 9999 330 0 0 0
2019/06/16 04:38:00 BASE 7.89 317 11.11 315 -0.9 100 -0.9 0 0 978.5 NA 0.0000 9999 330 0 0 0
2019/06/16 04:39:00 BASE 7.58 316 11.11 315 -0.9 100 -0.9 0 0 978.5 NA 0.0000 9999 430 0 0 0
2019/06/16 04:40:00 BASE 7.70 312 11.11 315 -0.9 100 -0.9 0 0 978.5 NA 0.0000 9999 560 1510 0 0
2019/06/16 04:41:00 BASE 7.70 309 10.08 315 -0.9 100 -0.9 0 0 978.5 NA 0.0000 9999 430 0 0 0
2019/06/16 04:42:00 BASE 7.65 308 9.67 307 -0.9 100 -0.9 0 0 978.4 NA 0.0000 9999 430 0 0 0
2019/06/16 04:43:00 BASE 7.77 309 9.47 313 -0.9 100 -0.9 0 0 978.4 NA 0.0000 9999 430 0 0 0
2019/06/16 04:44:00 BASE 7.47 310 9.47 313 -0.9 100 -0.9 0 0 978.5 NA 0.0000 9999 460 0 0 0
2019/06/16 04:45:00 BASE 7.11 313 9.47 313 -0.9 100 -0.9 0 0 978.4 NA 0.0000 9999 430 0 0 0
2019/06/16 04:46:00 BASE 7.03 316 8.80 307 -0.9 100 -0.9 0 0 978.4 NA 0.0000 9999 430 0 0 0
2019/06/16 04:47:00 BASE 7.03 320 8.80 307 -0.9 100 -0.9 0 0 978.3 NA 0.0000 9999 620 0 0 0
2019/06/16 04:48:00 BASE 7.58 324 8.80 307 -0.9 100 -0.9 0 0 978.2 NA 0.0000 9999 430 0 0 0
2019/06/16 04:49:00 BASE 7.85 328 8.80 307 -0.9 100 -0.9 0 0 978.2 NA 0.0000 9999 850 0 0 0
2019/06/16 04:50:00 BASE 7.85 331 8.80 307 -0.9 100 -0.9 0 0 978.2 NA 0.0000 9999 720 0 0 0
2019/06/16 04:51:00 BASE 8.18 333 8.90 330 -0.9 100 -0.9 0 0 978.1 NA 0.0000 9999 430 0 0 0
2019/06/16 04:52:00 BASE 8.31 333 8.90 330 -0.9 100 -0.9 0 0 978.1 NA 0.0000 9999 460 0 0 0
2019/06/16 04:53:00 BASE 8.33 330 9.05 324 -0.9 100 -0.9 0 0 978.1 NA 0.0000 9999 720 1710 0 0
2019/06/16 04:54:00 BASE 8.25 328 9.05 324 -0.9 100 -0.9 0 0 978.3 NA 0.0000 9999 720 0 0 0
2019/06/16 04:55:00 BASE 7.77 323 9.05 324 -0.9 100 -0.9 0 0 978.4 NA 0.0000 9999 390 0 0 0
2019/06/16 04:56:00 BASE 7.40 319 9.05 324 -0.9 100 -0.9 0 0 978.5 NA 0.0000 9999 430 0 0 0
2019/06/16 04:57:00 BASE 7.19 318 9.05 324 -0.9 100 -0.9 0 0 978.4 NA 0.0000 9999 460 0 0 0
2019/06/16 04:58:00 BASE 7.06 318 9.05 324 -0.9 100 -0.9 0 0 978.4 NA 0.0000 9999 390 0 0 0
2019/06/16 04:59:00 BASE 7.08 315 9.05 324 -0.9 100 -0.9 0 0 978.5 NA 0.0000 9999 390 0 0 0
2019/06/16 05:00:00 BASE 6.91 314 9.05 324 -0.9 100 -0.9 0 0 978.5 NA 0.0000 9999 750 0 0 0
2019/06/16 05:01:00 BASE 6.84 315 9.05 324 -0.9 100 -0.9 0 0 978.4 NA 0.0000 9999 1050 0 0 0
2019/06/16 05:02:00 BASE 6.90 315 9.05 324 -1.0 100 -1.0 0 0 978.5 NA 0.0000 9999 430 0 0 0
2019/06/16 05:03:00 BASE 6.63 314 8.64 332 -1.0 100 -1.0 0 0 978.5 NA 0.0000 9999 390 1480 0 0
2019/06/16 05:04:00 BASE 6.21 313 8.39 322 -1.0 100 -1.0 0 0 978.5 NA 0.0000 9999 360 1710 0 0
2019/06/16 05:05:00 BASE 5.67 319 8.28 314 -1.0 100 -1.0 0 0 978.5 NA 0.0000 9999 390 1570 0 0
2019/06/16 05:06:00 BASE 5.65 328 7.82 314 -0.9 100 -0.9 0 0 978.5 NA 0.0000 9999 660 0 0 0
2019/06/16 05:07:00 BASE 6.10 328 7.82 314 -0.9 100 -0.9 0 0 978.5 NA 0.0000 9999 460 1180 0 0
2019/06/16 05:08:00 BASE 6.17 328 7.82 314 -0.9 100 -0.9 0 0 978.5 NA 0.0000 9999 390 0 0 0
2019/06/16 05:09:00 BASE 6.50 329 7.56 315 -0.9 100 -0.9 0 0 978.4 NA 0.0000 9999 360 0 0 0
2019/06/16 05:10:00 BASE 6.76 327 7.56 315 -0.9 100 -0.9 0 0 978.5 NA 0.0000 9999 360 0 0 0
2019/06/16 05:11:00 BASE 6.09 327 7.46 330 -0.9 100 -0.9 0 0 978.6 NA 0.0000 9999 360 0 0 0
2019/06/16 05:12:00 BASE 6.08 331 7.46 333 -0.9 100 -0.9 0 0 978.5 NA 0.0000 9999 430 0 0 0
2019/06/16 05:13:00 BASE 6.76 332 7.46 333 -0.9 100 -0.9 0 0 978.5 NA 0.0000 9999 460 1510 0 0
2019/06/16 05:14:00 BASE 6.60 328 7.51 329 -0.9 100 -0.9 0 0 978.5 NA 0.0000 9999 430 0 0 0
2019/06/16 05:15:00 BASE 6.86 324 7.87 318 -1.0 100 -1.0 0 0 978.4 NA 0.0000 9999 430 0 0 0
2019/06/16 05:16:00 BASE 7.24 318 7.87 318 -1.0 100 -1.0 0 0 978.6 NA 0.0000 9999 360 0 0 0
2019/06/16 05:17:00 BASE 6.84 318 7.87 318 -1.0 100 -1.0 0 0 978.6 NA 0.0000 9999 360 1210 0 0
2019/06/16 05:18:00 BASE 6.27 317 7.87 318 -1.0 100 -1.0 0 0 978.8 NA 0.0000 9999 360 0 0 0
2019/06/16 05:19:00 BASE 6.06 315 7.87 318 -1.0 100 -1.0 0 0 978.8 NA 0.0000 9999 390 0 0 0
2019/06/16 05:20:00 BASE 5.99 317 7.87 318 -1.0 100 -1.0 0 0 978.8 NA 0.0000 9999 390 0 0 0
2019/06/16 05:21:00 BASE 5.90 318 7.87 318 -1.0 100 -1.0 0 0 978.8 NA 0.0000 9999 460 0 0 0
2019/06/16 05:22:00 BASE 6.50 319 7.87 318 -1.0 100 -1.0 0 0 978.6 NA 0.0000 9999 660 0 0 0
2019/06/16 05:23:00 BASE 6.91 319 7.87 318 -1.0 100 -1.0 0 0 978.6 NA 0.0000 9999 1080 1610 0 0
2019/06/16 05:24:00 BASE 6.67 318 7.87 318 -1.0 100 -1.0 0 0 978.8 NA 0.0000 9999 850 0 0 0
2019/06/16 05:25:00 BASE 6.61 317 7.82 321 -1.0 100 -1.0 0 0 978.8 NA 0.0000 9999 1180 0 0 0
2019/06/16 05:26:00 BASE 6.76 317 7.82 321 -1.0 100 -1.0 0 0 978.9 NA 0.0000 9999 1210 0 0 0
2019/06/16 05:27:00 BASE 6.66 317 7.82 321 -1.0 100 -1.0 0 0 979.0 NA 0.0000 9999 1180 0 0 0
2019/06/16 05:28:00 BASE 6.30 318 7.82 321 -1.0 100 -1.0 0 0 979.0 NA 0.0000 9999 1020 0 0 0
2019/06/16 05:29:00 BASE 6.26 320 7.82 321 -1.0 100 -1.0 0 0 979.0 NA 0.0000 9999 430 0 0 0
2019/06/16 05:30:00 BASE 6.10 316 7.82 321 -1.0 100 -1.0 0 0 979.1 NA 0.0000 9999 330 0 0 0
2019/06/16 05:31:00 BASE 5.69 309 7.82 321 -1.0 100 -1.0 0 0 979.1 NA 0.0000 9999 260 0 0 0
2019/06/16 05:32:00 BASE 5.25 306 7.25 315 -1.0 100 -1.0 0 0 979.2 NA 0.0000 9999 260 0 0 0
2019/06/16 05:33:00 BASE 4.85 307 7.05 316 -0.9 100 -0.9 0 0 979.2 NA 0.0000 UP 9999 260 0 0 0
2019/06/16 05:34:00 BASE 4.79 310 7.05 316 -0.9 100 -0.9 0 0 979.2 NA 0.0000 UP 9999 260 0 0 0
2019/06/16 05:35:00 BASE 4.75 314 7.05 316 -0.9 100 -0.9 0 0 979.2 NA 0.0000 UP 9999 330 0 0 0
2019/06/16 05:36:00 BASE 4.67 318 6.84 315 -0.9 100 -0.9 0 0 979.2 NA 0.0000 UP 9999 300 0 0 0
2019/06/16 05:37:00 BASE 4.98 322 6.79 318 -0.9 100 -0.9 0 0 979.1 NA 0.0000 UP 9999 360 0 0 0
2019/06/16 05:38:00 BASE 5.08 323 6.79 318 -0.9 100 -0.9 0 0 979.2 NA 0.0000 UP 9999 390 0 0 0
2019/06/16 05:39:00 BASE 4.97 323 6.12 316 -0.9 100 -0.9 0 0 979.2 NA 0.0000 UP 9999 660 0 0 0
2019/06/16 05:40:00 BASE 5.02 324 5.76 305 -0.9 100 -0.9 0 0 979.2 NA 0.0000 UP 9999 750 0 0 0
2019/06/16 05:41:00 BASE 4.94 325 5.66 316 -0.9 100 -0.9 0 0 979.1 NA 0.0000 UP 9999 850 0 0 0
2019/06/16 05:42:00 BASE 5.12 328 5.81 328 -0.9 100 -0.9 0 0 979.1 NA 0.0000 UP 9999 490 0 0 0
2019/06/16 05:43:00 BASE 5.92 329 7.05 328 -0.9 100 -0.9 0 0 978.8 NA 0.0000 UP 9999 390 0 0 0
2019/06/16 05:44:00 BASE 6.17 330 7.05 328 -0.9 100 -0.9 0 0 979.0 NA 0.0000 9999 330 0 0 0
2019/06/16 05:45:00 BASE 5.62 332 7.05 328 -0.9 100 -0.9 0 0 979.0 NA 0.0000 9999 330 0 0 0
2019/06/16 05:46:00 BASE 5.24 331 7.05 328 -0.9 100 -0.9 0 0 979.1 NA 0.0000 9999 330 0 0 0
2019/06/16 05:47:00 BASE 5.01 328 7.05 328 -0.9 100 -0.9 0 0 979.1 NA 0.0000 9999 330 0 0 0
2019/06/16 05:48:00 BASE 4.89 327 7.05 328 -0.9 100 -0.9 0 0 979.1 NA 0.0000 9999 300 0 0 0
2019/06/16 05:49:00 BASE 4.73 327 7.05 328 -0.9 100 -0.9 0 0 979.1 NA 0.0000 9999 300 0 0 0
2019/06/16 05:50:00 BASE 4.46 328 7.05 328 -0.9 100 -0.9 0 0 979.2 NA 0.0000 9999 260 0 0 0
2019/06/16 05:51:00 BASE 4.22 325 7.05 328 -0.9 100 -0.9 0 0 979.2 NA 0.0000 9999 330 1280 0 0
2019/06/16 05:52:00 BASE 4.21 320 7.05 328 -0.9 100 -0.9 0 0 979.2 NA 0.0000 9999 330 0 0 0
2019/06/16 05:53:00 BASE 4.21 316 6.22 327 -0.9 100 -0.9 0 0 979.2 NA 0.0000 9999 300 0 0 0
2019/06/16 05:54:00 BASE 3.86 315 5.76 329 -0.9 100 -0.9 0 0 979.3 NA 0.0000 9999 300 0 0 0
2019/06/16 05:55:00 BASE 3.53 316 5.61 327 -0.9 100 -0.9 0 0 979.3 NA 0.0000 9999 300 0 0 0
2019/06/16 05:56:00 BASE 3.47 315 5.14 326 -0.9 100 -0.9 0 0 979.3 NA 0.0000 9999 300 0 0 0
2019/06/16 05:57:00 BASE 3.27 315 5.14 326 -0.9 100 -0.9 0 0 979.3 NA 0.0000 9999 330 0 0 0
2019/06/16 05:58:00 BASE 2.94 318 5.04 318 -1.0 100 -1.0 0 0 979.4 NA 0.0000 9999 330 0 0 0
2019/06/16 05:59:00 BASE 2.84 323 5.04 318 -1.0 100 -1.0 0 0 979.3 NA 0.0000 9999 360 0 0 0
2019/06/16 06:00:00 BASE 2.90 326 4.73 322 -1.0 100 -1.0 0 0 979.2 NA 0.0000 9999 330 0 0 0
2019/06/16 06:01:00 BASE 2.98 327 4.68 320 -1.0 100 -1.0 0 0 979.2 NA 0.0000 9999 300 0 0 0
2019/06/16 06:02:00 BASE 3.13 326 4.37 316 -1.0 100 -1.0 0 0 979.1 NA 0.0000 UP 9999 330 0 0 0
2019/06/16 06:03:00 BASE 3.11 325 3.76 315 -1.0 100 -1.0 0 0 979.2 NA 0.0000 UP 9999 330 0 0 0
2019/06/16 06:04:00 BASE 2.97 325 3.76 315 -1.0 100 -1.0 0 0 979.2 NA 0.0000 UP 9999 330 1350 0 0
2019/06/16 06:05:00 BASE 2.86 326 3.70 318 -1.0 100 -1.0 0 0 979.2 NA 0.0000 UP 9999 360 0 0 0
2019/06/16 06:06:00 BASE 2.78 326 3.45 325 -1.0 100 -1.0 0 0 979.2 NA 0.0000 UP 9999 360 0 0 0
2019/06/16 06:07:00 BASE 2.83 325 3.45 325 -1.0 100 -1.0 0 0 979.2 NA 0.0000 UP 9999 360 0 0 0
2019/06/16 06:08:00 BASE 2.91 326 3.45 325 -1.0 100 -1.0 0 0 979.2 NA 0.0000 UP 9999 430 1710 0 0
2019/06/16 06:09:00 BASE 2.79 328 3.45 325 -1.0 100 -1.0 0 0 979.2 NA 0.0000 UP 9999 390 0 0 0
2019/06/16 06:10:00 BASE 2.67 327 3.45 325 -1.1 100 -1.1 0 0 979.2 NA 0.0000 UP 9999 390 0 0 0
2019/06/16 06:11:00 BASE 2.70 326 3.45 325 -1.1 100 -1.1 0 0 979.2 NA 0.0000 9999 430 0 0 0
2019/06/16 06:12:00 BASE 2.71 327 3.34 327 -1.1 100 -1.1 0 0 979.1 NA 0.0000 9999 430 0 0 0
2019/06/16 06:13:00 BASE 2.73 328 3.24 326 -1.1 100 -1.1 0 0 979.1 NA 0.0000 9999 390 0 0 0
2019/06/16 06:14:00 BASE 2.79 327 3.24 326 -1.1 100 -1.1 0 0 979.1 NA 0.0000 9999 390 0 0 0
2019/06/16 06:15:00 BASE 2.78 326 3.24 326 -1.1 100 -1.1 0 0 979.1 NA 0.0000 9999 330 0 0 0
2019/06/16 06:16:00 BASE 2.80 324 3.24 326 -1.1 100 -1.1 0 0 979.1 NA 0.0000 9999 330 0 0 0
2019/06/16 06:17:00 BASE 2.87 320 3.24 326 -1.1 100 -1.1 0 0 979.2 NA 0.0000 9999 360 2100 0 0
2019/06/16 06:18:00 BASE 2.83 318 3.04 315 -1.1 100 -1.1 0 0 979.2 NA 0.0000 9999 360 2170 0 0
2019/06/16 06:19:00 BASE 2.58 318 3.04 315 -1.1 100 -1.1 0 0 979.2 NA 0.0000 9999 360 2030 0 0
2019/06/16 06:20:00 BASE 2.40 320 3.04 315 -1.1 100 -1.1 0 0 979.3 NA 0.0000 9999 360 2170 0 0
2019/06/16 06:21:00 BASE 2.55 322 3.04 315 -1.1 100 -1.1 0 0 979.2 NA 0.0000 9000 330 0 0 0
2019/06/16 06:22:00 BASE 2.71 324 3.09 327 -1.2 100 -1.2 0 0 979.2 NA 0.0000 8000 300 0 0 0
2019/06/16 06:23:00 BASE 2.75 322 3.09 327 -1.2 100 -1.2 0 0 979.2 NA 0.0000 7000 260 0 0 0
2019/06/16 06:24:00 BASE 2.76 324 3.09 327 -1.2 100 -1.2 0 0 979.1 NA 0.0000 BR 9000 360 1310 0 0
2019/06/16 06:25:00 BASE 3.04 332 3.81 324 -1.2 100 -1.2 0 0 978.8 NA 0.0000 BR 9999 360 0 0 0
2019/06/16 06:26:00 BASE 3.21 331 3.81 324 -1.2 100 -1.2 0 0 978.9 NA 0.0000 BR 9999 620 2030 0 0
2019/06/16 06:27:00 BASE 3.10 328 3.81 324 -1.2 100 -1.2 0 0 978.9 NA 0.0000 9999 1570 2300 0 0
2019/06/16 06:28:00 BASE 3.00 331 3.81 324 -1.2 100 -1.2 0 0 979.0 NA 0.0000 9999 1210 0 0 0
2019/06/16 06:29:00 BASE 2.89 330 3.81 324 -1.2 100 -1.2 0 0 979.0 NA 0.0000 9999 820 1710 0 0
2019/06/16 06:30:00 BASE 2.77 328 3.81 324 -1.2 100 -1.2 0 0 979.0 NA 0.0000 9999 620 1870 0 0
2019/06/16 06:31:00 BASE 2.80 328 3.81 324 -1.2 100 -1.2 0 0 979.0 NA 0.0000 9999 950 1770 0 0
2019/06/16 06:32:00 BASE 2.90 330 3.81 324 -1.2 100 -1.2 0 0 978.9 NA 0.0000 9999 950 1900 0 0
2019/06/16 06:33:00 BASE 2.87 329 3.81 324 -1.2 100 -1.2 0 0 979.0 NA 0.0000 9999 890 0 0 0
2019/06/16 06:34:00 BASE 2.82 329 3.81 324 -1.2 100 -1.2 0 0 978.9 NA 0.0000 9999 920 0 0 0
2019/06/16 06:35:00 BASE 2.84 331 3.45 329 -1.2 100 -1.2 0 0 978.8 NA 0.0000 9999 950 1940 0 0
2019/06/16 06:36:00 BASE 2.86 330 3.45 329 -1.2 100 -1.2 0 0 978.9 NA 0.0000 9999 1150 1770 0 0
2019/06/16 06:37:00 BASE 2.78 329 3.29 332 -1.2 100 -1.2 0 0 978.9 NA 0.0000 9999 1080 1940 0 0
2019/06/16 06:38:00 BASE 2.70 328 3.29 332 -1.2 100 -1.2 0 0 979.0 NA 0.0000 9999 1050 0 0 0
2019/06/16 06:39:00 BASE 2.74 329 3.29 332 -1.2 100 -1.2 0 0 978.9 NA 0.0000 9999 1180 1840 0 0
2019/06/16 06:40:00 BASE 2.81 331 3.29 332 -1.2 100 -1.2 0 0 979.0 NA 0.0000 9999 1050 1870 0 0
2019/06/16 06:41:00 BASE 2.78 330 3.29 332 -1.2 100 -1.2 0 0 979.0 NA 0.0000 9999 1640 0 0 0
2019/06/16 06:42:00 BASE 2.71 329 3.29 332 -1.2 100 -1.2 0 0 979.0 NA 0.0000 9999 1740 0 0 0
2019/06/16 06:43:00 BASE 2.69 327 3.29 332 -1.2 100 -1.2 0 0 979.0 NA 0.0000 9999 1800 0 0 0
2019/06/16 06:44:00 BASE 2.72 327 3.29 332 -1.2 100 -1.2 0 0 979.0 NA 0.0000 9999 1710 0 0 0
2019/06/16 06:45:00 BASE 2.76 329 2.98 335 -1.2 100 -1.2 0 0 979.1 NA 0.0000 9999 1610 0 0 0
2019/06/16 06:46:00 BASE 2.82 330 2.98 332 -1.2 100 -1.2 0 0 979.0 NA 0.0000 9999 1120 1570 0 0
2019/06/16 06:47:00 BASE 2.84 331 2.98 331 -1.2 100 -1.2 0 0 979.0 NA 0.0000 9999 1510 0 0 0
2019/06/16 06:48:00 BASE 2.79 330 2.98 331 -1.2 100 -1.2 0 0 979.0 NA 0.0000 9999 980 1510 0 0
2019/06/16 06:49:00 BASE 2.69 332 2.98 331 -1.2 100 -1.2 0 0 979.1 NA 0.0000 9999 950 1870 0 0
2019/06/16 06:50:00 BASE 2.58 333 2.98 331 -1.2 100 -1.2 0 0 979.1 NA 0.0000 9999 890 0 0 0
2019/06/16 06:51:00 BASE 2.57 331 2.98 331 -1.2 100 -1.2 0 0 979.0 NA 0.0000 9999 980 1640 0 0
2019/06/16 06:52:00 BASE 2.66 332 2.98 331 -1.2 100 -1.2 0 0 979.0 NA 0.0000 9999 1180 0 0 0
2019/06/16 06:53:00 BASE 2.71 333 2.98 331 -1.2 100 -1.2 0 0 979.0 NA 0.0000 9999 1120 0 0 0
2019/06/16 06:54:00 BASE 2.66 333 2.98 331 -1.2 100 -1.2 0 0 979.0 NA 0.0000 9999 1120 0 0 0
2019/06/16 06:55:00 BASE 2.64 330 2.98 331 -1.2 100 -1.2 0 0 979.0 NA 0.0000 9999 1120 0 0 0
2019/06/16 06:56:00 BASE 2.64 327 2.98 331 -1.2 100 -1.2 0 0 979.0 NA 0.0000 9999 1180 0 0 0
2019/06/16 06:57:00 BASE 2.50 327 2.98 331 -1.2 100 -1.2 0 0 979.1 NA 0.0000 9999 360 0 0 0
2019/06/16 06:58:00 BASE 2.31 329 2.88 326 -1.2 100 -1.2 0 0 979.1 NA 0.0000 9999 330 1440 0 0
2019/06/16 06:59:00 BASE 2.18 330 2.88 326 -1.2 100 -1.2 0 0 979.1 NA 0.0000 9999 390 0 0 0
2019/06/16 07:00:00 BASE 2.07 329 2.88 326 -1.2 100 -1.2 0 0 979.1 NA 0.0000 9999 660 0 0 0
2019/06/16 07:01:00 BASE 2.03 331 2.88 326 -1.2 100 -1.2 0 0 979.0 NA 0.0000 9999 460 0 0 0
2019/06/16 07:02:00 BASE 2.01 333 2.88 326 -1.2 100 -1.2 0 0 979.0 NA 0.0000 9999 430 0 0 0
2019/06/16 07:03:00 BASE 2.06 335 2.88 326 -1.2 100 -1.2 0 0 979.0 NA 0.0000 9999 390 0 0 0
2019/06/16 07:04:00 BASE 2.33 337 2.88 326 -1.2 100 -1.2 0 0 979.0 NA 0.0000 9999 360 0 0 0
2019/06/16 07:05:00 BASE 2.52 338 2.88 326 -1.2 100 -1.2 0 0 978.9 NA 0.0000 9999 360 0 0 0
2019/06/16 07:06:00 BASE 2.65 338 2.93 340 -1.1 100 -1.1 0 0 978.9 NA 0.0000 9999 360 1410 0 0
2019/06/16 07:07:00 BASE 2.75 338 2.93 340 -1.1 100 -1.1 0 0 978.9 NA 0.0000 9999 330 0 0 0
2019/06/16 07:08:00 BASE 2.59 338 2.93 340 -1.1 100 -1.1 0 0 979.0 NA 0.0000 9999 300 0 0 0
2019/06/16 07:09:00 BASE 2.45 339 2.93 340 -1.1 100 -1.1 0 0 979.0 NA 0.0000 9999 330 0 0 0
2019/06/16 07:10:00 BASE 2.35 340 2.93 340 -1.2 100 -1.2 0 0 979.0 NA 0.0000 9999 360 0 0 0
2019/06/16 07:11:00 BASE 2.21 342 2.93 340 -1.2 100 -1.2 0 0 978.9 NA 0.0000 9999 360 0 0 0
2019/06/16 07:12:00 BASE 2.23 342 2.93 340 -1.2 100 -1.2 0 0 978.9 NA 0.0000 9999 330 0 0 0
2019/06/16 07:13:00 BASE 2.43 342 2.93 340 -1.2 100 -1.2 0 0 978.8 NA 0.0000 9999 360 0 0 0
2019/06/16 07:14:00 BASE 2.63 340 2.98 334 -1.2 100 -1.2 0 0 978.7 NA 0.0000 9999 390 0 0 0
2019/06/16 07:15:00 BASE 2.78 336 3.04 333 -1.2 100 -1.2 0 0 978.6 NA 0.0000 9999 360 0 0 0
2019/06/16 07:16:00 BASE 2.81 334 3.04 333 -1.2 100 -1.2 0 0 978.7 NA 0.0000 9999 360 0 0 0
2019/06/16 07:17:00 BASE 2.78 330 3.04 333 -1.2 100 -1.2 0 0 978.7 NA 0.0000 9999 390 0 0 0
2019/06/16 07:18:00 BASE 2.78 333 3.04 333 -1.1 100 -1.1 0 0 978.6 NA 0.0000 9999 430 0 0 0
2019/06/16 07:19:00 BASE 2.71 339 3.04 333 -1.1 100 -1.1 0 0 978.6 NA 0.0000 9999 360 0 0 0
2019/06/16 07:20:00 BASE 2.58 340 3.04 333 -1.1 100 -1.1 0 0 978.6 NA 0.0000 9999 330 0 0 0
2019/06/16 07:21:00 BASE 2.56 338 3.04 333 -1.1 100 -1.1 0 0 978.6 NA 0.0000 9999 300 0 0 0
2019/06/16 07:22:00 BASE 2.44 339 3.04 333 -1.1 100 -1.1 0 0 978.6 NA 0.0000 9999 330 0 0 0
2019/06/16 07:23:00 BASE 2.24 340 3.04 333 -1.1 100 -1.1 0 0 978.6 NA 0.0000 9999 330 0 0 0
2019/06/16 07:24:00 BASE 2.20 339 3.04 333 -1.1 100 -1.1 0 0 978.6 NA 0.0000 9999 330 0 0 0
2019/06/16 07:25:01 BASE 2.27 339 2.98 330 -1.1 100 -1.1 0 0 978.5 NA 0.0000 UP 9999 300 0 0 0
2019/06/16 07:26:00 BASE 2.32 338 2.93 338 -1.1 100 -1.1 0 0 978.5 NA 0.0000 UP 9999 260 0 0 0
2019/06/16 07:27:00 BASE 2.31 339 2.93 338 -1.1 100 -1.1 0 0 978.4 NA 0.0000 UP 9999 300 0 0 0
2019/06/16 07:28:00 BASE 2.25 342 2.78 348 -1.1 100 -1.1 0 0 978.4 NA 0.0000 UP 9999 230 0 0 0
2019/06/16 07:29:00 BASE 2.19 348 2.68 339 -1.1 100 -1.1 0 0 978.4 NA 0.0000 UP 9999 0 0 0 2400
2019/06/16 07:30:00 BASE 2.19 343 2.68 339 -1.1 100 -1.1 0 0 978.3 NA 0.0000 UP 9999 0 0 0 2400
2019/06/16 07:31:00 BASE 2.07 346 2.57 339 -1.1 100 -1.1 0 0 978.3 NA 0.0000 UP 9999 0 0 0 2030
2019/06/16 07:32:00 BASE 1.77 357 2.57 339 -1.1 100 -1.1 0 0 978.4 NA 0.0000 UP 9999 0 0 0 2990
2019/06/16 07:33:00 BASE 1.69 356 2.57 339 -1.2 100 -1.2 0 0 978.3 NA 0.0000 UP 9999 0 0 0 2230
2019/06/16 07:34:00 BASE 1.75 353 2.57 339 -1.2 100 -1.2 0 0 978.3 NA 0.0000 UP 9999 300 0 0 0
2019/06/16 07:35:00 BASE 1.73 354 2.52 335 -1.2 100 -1.2 0 0 978.3 NA 0.0000 -SN 9999 300 0 0 0
2019/06/16 07:36:00 BASE 1.68 358 2.42 335 -1.2 100 -1.2 0 0 978.3 NA 0.0000 -SN 9999 300 0 0 0
2019/06/16 07:37:00 BASE 1.79 354 2.42 335 -1.2 100 -1.2 0 0 978.2 NA 0.0000 -SN 9999 0 0 0 3050
2019/06/16 07:38:00 BASE 1.95 349 2.42 335 -1.2 100 -1.2 0 0 978.2 NA 0.0000 -SN 9999 360 0 0 0
2019/06/16 07:39:00 BASE 2.05 347 2.42 335 -1.2 100 -1.2 0 0 978.2 NA 0.0000 -SN 9999 300 0 0 0
2019/06/16 07:40:00 BASE 2.13 347 2.21 347 -1.2 100 -1.2 0 0 978.3 NA 0.0000 -SN 9999 0 0 0 2430
2019/06/16 07:41:00 BASE 2.24 347 2.52 352 -1.2 100 -1.2 0 0 978.2 NA 0.0000 -SN 9999 0 0 0 2230
2019/06/16 07:42:00 BASE 2.26 346 2.52 352 -1.2 100 -1.2 0 0 978.2 NA 0.0000 -SN 9999 0 0 0 1900
2019/06/16 07:43:00 BASE 2.15 345 2.52 352 -1.2 100 -1.2 0 0 978.2 NA 0.0000 -SN 9999 0 0 0 1770
2019/06/16 07:44:00 BASE 2.12 347 2.52 352 -1.2 100 -1.2 0 0 978.2 NA 0.0000 -SN 9999 0 0 0 1900
2019/06/16 07:45:00 BASE 2.09 350 2.52 352 -1.2 100 -1.2 0 0 978.2 NA 0.0000 -SN 9999 0 0 0 1970
2019/06/16 07:46:00 BASE 2.07 353 2.52 352 -1.2 100 -1.2 0 0 978.2 NA 0.0000 -SN 9999 0 0 0 2130
2019/06/16 07:47:00 BASE 2.18 353 2.62 353 -1.2 100 -1.2 0 0 978.1 NA 0.0000 -SN 9999 260 0 0 0
2019/06/16 07:48:00 BASE 2.33 352 2.62 350 -1.1 100 -1.1 0 0 978.0 NA 0.0000 -SN 9999 330 0 0 0
2019/06/16 07:49:00 BASE 2.37 355 2.68 2 -1.1 100 -1.1 0 0 978.0 NA 0.0000 -SN 9999 230 0 0 0
2019/06/16 07:50:00 BASE 2.45 360 2.88 12 -1.1 100 -1.1 0 0 977.9 NA 0.0000 -SN 9999 0 0 0 2130
2019/06/16 07:51:00 BASE 2.51 358 2.88 12 -1.1 100 -1.1 0 0 977.9 NA 0.0000 -SN 9999 0 0 0 1940
2019/06/16 07:52:00 BASE 2.46 355 2.88 12 -1.1 100 -1.1 0 0 977.8 NA 0.0000 -SN 9999 0 0 0 2130
2019/06/16 07:53:00 BASE 2.53 352 2.88 349 -1.1 100 -1.1 0 0 977.7 NA 0.0000 -SN 9999 0 0 0 2100
2019/06/16 07:54:00 BASE 2.60 352 2.88 352 -1.0 100 -1.0 0 0 977.8 NA 0.0000 -SN 9999 0 0 0 2260
2019/06/16 07:55:00 BASE 2.65 353 2.98 3 -1.0 100 -1.0 0 0 977.7 NA 0.0000 -SN 9999 0 0 0 2560
2019/06/16 07:56:00 BASE 2.84 355 3.34 351 -1.0 100 -1.0 0 0 977.6 NA 0.0000 -SN 9999 0 0 0 2400
2019/06/16 07:57:00 BASE 3.00 353 3.55 345 -1.0 100 -1.0 0 0 977.5 NA 0.0000 -SN 9999 0 0 0 2170
2019/06/16 07:58:00 BASE 2.95 351 3.55 345 -1.0 100 -1.0 0 0 977.6 NA 0.0000 -SN 9999 0 0 0 2130
2019/06/16 07:59:00 BASE 2.91 352 3.55 345 -1.0 100 -1.0 0 0 977.6 NA 0.0000 -SN 9999 0 0 0 2070
2019/06/16 08:00:00 BASE 2.92 358 3.55 345 -1.0 100 -1.0 0 0 977.6 NA 0.0000 -SN 9999 230 0 0 0
2019/06/16 08:01:00 BASE 3.16 2 3.65 4 -1.0 100 -1.0 0 0 977.4 NA 0.0000 -SN 9999 330 0 0 0
2019/06/16 08:02:00 BASE 3.46 357 3.76 2 -0.9 100 -0.9 0 0 977.3 NA 0.0000 -SN 9999 390 0 0 0
2019/06/16 08:03:00 BASE 3.65 360 4.01 360 -0.9 100 -0.9 0 0 977.1 NA 0.0000 -SN 9999 430 0 0 0
2019/06/16 08:04:00 BASE 3.68 359 4.01 360 -0.9 100 -0.9 0 0 977.2 NA 0.0000 -SN 9999 330 0 0 0
2019/06/16 08:05:00 BASE 3.65 359 4.01 353 -0.9 100 -0.9 0 0 977.1 NA 0.0000 -SN 9999 390 0 0 0
2019/06/16 08:06:00 BASE 3.68 1 4.01 353 -0.9 100 -0.9 0 0 977.2 NA 0.0000 -SN 9999 560 0 0 0
2019/06/16 08:07:00 BASE 3.55 356 4.01 353 -0.8 100 -0.8 0 0 977.1 NA 0.0000 -SN 9999 430 0 0 0
2019/06/16 08:08:00 BASE 3.32 353 4.01 353 -0.8 100 -0.8 0 0 977.2 NA 0.0000 -SN 9999 750 0 0 0
2019/06/16 08:09:00 BASE 3.44 352 4.01 353 -0.8 100 -0.8 0 0 977.0 NA 0.0000 -SN 9999 720 0 0 0
2019/06/16 08:10:00 BASE 3.54 355 4.01 353 -0.8 100 -0.8 0 0 977.1 NA 0.0000 -SN 9999 750 0 0 0
2019/06/16 08:11:00 BASE 3.40 352 4.01 353 -0.7 100 -0.7 0 0 977.1 NA 0.0000 -SN 9999 490 0 0 0
2019/06/16 08:12:00 BASE 3.60 346 4.06 1 -0.7 100 -0.7 0 0 977.0 NA 0.0000 -SN 9999 0 0 0 3050
2019/06/16 08:13:00 BASE 3.77 355 4.27 5 -0.7 100 -0.7 0 0 976.9 NA 0.0000 -SN 9999 0 0 0 3080
2019/06/16 08:14:00 BASE 3.81 1 4.27 5 -0.7 100 -0.7 0 0 976.9 NA 0.0000 -SN 9999 330 0 0 0
2019/06/16 08:15:00 BASE 4.03 2 4.37 4 -0.7 100 -0.7 0 0 976.7 NA 0.0000 9999 0 0 0 3150
2019/06/16 08:16:00 BASE 4.09 5 4.37 4 -0.7 100 -0.7 0 0 976.8 NA 0.0000 9999 0 0 0 3080
2019/06/16 08:17:00 BASE 3.90 8 4.37 4 -0.7 100 -0.7 0 0 976.8 NA 0.0000 9999 0 0 0 2890
2019/06/16 08:18:00 BASE 3.93 7 4.37 4 -0.7 100 -0.7 0 0 976.6 NA 0.0000 9999 0 0 0 2920
2019/06/16 08:19:00 BASE 3.99 9 4.42 15 -0.7 100 -0.7 0 0 976.6 NA 0.0000 -SN 9999 0 0 0 3080
2019/06/16 08:20:00 BASE 4.09 10 4.68 12 -0.7 100 -0.7 0 0 976.5 NA 0.0000 -SN 9999 0 0 0 3510
2019/06/16 08:21:00 BASE 4.16 8 4.68 12 -0.7 100 -0.7 0 0 976.5 NA 0.0000 -SN 9999 0 0 0 3510
2019/06/16 08:22:00 BASE 4.20 8 4.68 12 -0.7 100 -0.7 0 0 976.4 NA 0.0000 -SN 9999 0 0 0 2920
2019/06/16 08:23:00 BASE 4.18 7 4.68 12 -0.7 100 -0.7 0 0 976.4 NA 0.0000 -SN 9999 260 0 0 0
2019/06/16 08:24:00 BASE 4.13 6 4.68 12 -0.6 100 -0.6 0 0 976.4 NA 0.0000 -SN 9999 0 0 0 2820
2019/06/16 08:25:00 BASE 4.16 8 4.68 12 -0.6 100 -0.6 0 0 976.4 NA 0.0000 -SN 9999 0 0 0 2660
2019/06/16 08:26:00 BASE 4.07 8 4.68 12 -0.6 100 -0.6 0 0 976.4 NA 0.0000 -SN 9999 0 0 0 2460
2019/06/16 08:27:00 BASE 3.94 10 4.68 12 -0.6 100 -0.6 0 0 976.4 NA 0.0000 -SN 9999 300 0 0 0
2019/06/16 08:28:00 BASE 3.82 11 4.68 12 -0.6 100 -0.6 0 0 976.3 NA 0.0000 -SN 9999 330 0 0 0
2019/06/16 08:29:00 BASE 3.83 13 4.68 12 -0.6 100 -0.6 0 0 976.2 NA 0.0000 -SN 9999 0 0 0 3120
2019/06/16 08:30:00 BASE 3.98 13 4.53 9 -0.6 100 -0.6 0 0 976.1 NA 0.0000 -SN 7000 230 0 0 0
2019/06/16 08:31:00 BASE 4.03 13 4.53 9 -0.6 100 -0.6 0 0 976.1 NA 0.0000 -SN 5000 0 0 0 3220
2019/06/16 08:32:00 BASE 4.11 14 4.53 17 -0.6 100 -0.6 0 0 976.0 NA 0.0000 -SN BR 5000 330 0 0 0
2019/06/16 08:33:00 BASE 4.21 10 4.84 3 -0.5 100 -0.5 0 0 975.9 NA 0.0000 -SN BR 7000 330 0 0 0
2019/06/16 08:34:00 BASE 4.31 1 4.84 3 -0.5 100 -0.5 0 0 975.7 NA 0.0000 -SN BR 9999 330 0 0 0
2019/06/16 08:35:00 BASE 4.50 2 4.84 3 -0.5 100 -0.5 0 0 975.8 NA 0.0000 -SN BR 9999 0 0 0 2000
2019/06/16 08:36:00 BASE 4.39 10 4.84 3 -0.4 100 -0.4 0 0 975.8 NA 0.0000 -SN BR 8000 0 0 0 1840
2019/06/16 08:37:00 BASE 4.68 15 6.22 16 -0.4 100 -0.4 0 0 975.6 NA 0.0000 -SN BR 6000 0 0 0 1510
2019/06/16 08:38:00 BASE 4.88 12 6.22 16 -0.4 100 -0.4 0 0 975.6 NA 0.0000 -SN BR 4200 0 0 0 850
2019/06/16 08:39:00 BASE 4.57 7 6.22 16 -0.4 100 -0.4 0 0 975.6 NA 0.0000 -SN BR 4800 0 0 0 980
2019/06/16 08:40:00 BASE 4.52 4 6.22 16 -0.3 100 -0.3 0 0 975.5 NA 0.0000 -SN BR 6000 0 0 0 1540
2019/06/16 08:41:00 BASE 4.44 360 6.22 16 -0.2 100 -0.2 0 0 975.5 NA 0.0000 -SN BR 9999 0 0 0 1640
2019/06/16 08:42:01 BASE 4.50 3 6.22 16 -0.2 100 -0.2 0 0 975.4 NA 0.0000 -SN BR 5000 0 0 0 1710
2019/06/16 08:43:01 BASE 4.36 10 6.22 16 -0.1 100 -0.1 0 0 975.7 NA 0.0000 -SN BR 2600 0 0 0 1540
2019/06/16 08:44:01 BASE 4.17 15 6.22 16 -0.1 100 -0.1 0 0 975.6 NA 0.0000 -SN BR 2100 0 0 0 1800
2019/06/16 08:45:01 BASE 4.45 16 6.22 16 -0.1 100 -0.1 0 0 975.4 NA 0.0000 -SN BR 1400 0 0 0 1670
2019/06/16 08:46:00 BASE 4.68 15 6.22 16 -0.3 100 -0.3 0 0 975.4 NA 0.0000 -SN BR 1400 0 0 0 1410
2019/06/16 08:47:00 BASE 4.53 15 5.35 21 -0.4 100 -0.4 0 0 975.5 NA 0.0000 -SN BR 2000 0 0 0 1350
2019/06/16 08:48:01 BASE 4.40 17 5.25 8 -0.5 100 -0.5 0 0 975.5 NA 0.0000 -SN BR 1900 0 0 0 1310
2019/06/16 08:49:01 BASE 4.42 15 5.25 8 -0.5 100 -0.5 0 0 975.4 NA 0.0000 -SN BR 1900 0 0 0 1210
2019/06/16 08:50:01 BASE 4.54 16 5.25 8 -0.5 100 -0.5 0 0 975.2 NA 0.0000 -SN BR 1900 0 0 0 1080
2019/06/16 08:51:01 BASE 4.81 19 5.35 15 -0.5 100 -0.5 0 0 975.2 NA 0.0000 -SN BR 1600 0 0 0 1020
2019/06/16 08:52:01 BASE 4.91 20 5.35 15 -0.5 100 -0.5 0 0 975.1 NA 0.0000 -SN BR 1400 0 0 0 1020
2019/06/16 08:53:01 BASE 4.86 18 5.35 15 -0.5 100 -0.5 0 0 975.1 NA 0.0000 -SN BR 1700 0 0 0 1180
2019/06/16 08:54:01 BASE 4.82 16 5.35 15 -0.5 100 -0.5 0 0 975.1 NA 0.0000 -SN BR 2500 0 0 0 1250
2019/06/16 08:55:01 BASE 4.77 16 5.35 15 -0.5 100 -0.5 0 0 975.1 NA 0.0000 -SN BR 2700 0 0 0 1120
2019/06/16 08:56:01 BASE 4.95 17 5.56 20 -0.5 100 -0.5 0 0 974.9 NA 0.0000 -SN BR 2300 0 0 0 1250
2019/06/16 08:57:01 BASE 5.15 15 5.56 15 -0.5 100 -0.5 0 0 974.8 NA 0.0000 -SN BR 1800 0 0 0 1120
2019/06/16 08:58:01 BASE 5.12 13 5.66 11 -0.4 100 -0.4 0 0 974.8 NA 0.0000 -SN BR 1600 0 0 0 1250
2019/06/16 08:59:01 BASE 5.05 14 5.66 11 -0.4 100 -0.4 0 0 974.9 NA 0.0000 -SN BR 2300 0 0 0 1440
2019/06/16 09:00:01 BASE 5.21 14 5.92 8 -0.4 100 -0.4 0 0 974.7 NA 0.0000 -SN BR 3200 0 0 0 1480
2019/06/16 09:01:01 BASE 5.45 14 5.92 8 -0.3 100 -0.3 0 0 974.6 NA 0.0000 -SN BR 3100 0 0 0 1610
2019/06/16 09:02:01 BASE 5.29 14 5.92 8 -0.3 100 -0.3 0 0 974.8 NA 0.0000 -SN BR 2900 0 0 0 1610
2019/06/16 09:03:01 BASE 5.20 14 5.92 8 -0.2 100 -0.2 0 0 974.6 NA 0.0000 -SN BR 3400 0 0 0 1410
2019/06/16 09:04:01 BASE 5.29 12 5.92 8 -0.2 100 -0.2 0 0 974.5 NA 0.0000 -SN BR 3000 0 0 0 1640
2019/06/16 09:05:01 BASE 5.30 13 5.92 8 -0.2 100 -0.2 0 0 974.6 NA 0.0000 -SN BR 2900 0 0 0 1800
2019/06/16 09:06:01 BASE 5.24 15 6.07 15 -0.2 100 -0.2 0 0 974.5 NA 0.0000 -SN BR 3200 0 0 0 2170
2019/06/16 09:07:01 BASE 5.24 11 6.07 15 -0.2 100 -0.2 0 0 974.5 NA 0.0000 -SN BR 3500 0 0 0 2030
2019/06/16 09:08:01 BASE 4.98 7 6.07 15 -0.2 100 -0.2 0 0 974.6 NA 0.0000 -SN BR 9000 0 0 0 1970
2019/06/16 09:09:01 BASE 4.81 4 6.07 15 -0.1 100 -0.1 0 0 974.4 NA 0.0000 -SN BR 9999 0 0 0 1940
2019/06/16 09:10:01 BASE 4.84 4 6.07 15 -0.1 100 -0.1 0 0 974.5 NA 0.0000 -SN BR 9999 0 0 0 2070
2019/06/16 09:11:01 BASE 5.21 9 6.69 9 -0.1 100 -0.1 0 0 974.2 NA 0.0000 -SN BR 9999 230 0 0 0
2019/06/16 09:12:01 BASE 5.41 11 6.69 9 -0.0 100 -0.0 0 0 974.4 NA 0.0000 -SN BR 9999 0 0 0 1940
2019/06/16 09:13:01 BASE 4.97 10 6.69 9 -0.1 100 -0.1 0 0 974.5 NA 0.0000 -SN BR 9999 0 0 0 2200
2019/06/16 09:14:01 BASE 4.91 357 6.69 9 -0.0 100 -0.0 0 0 974.3 NA 0.0000 -SN BR 9999 300 0 0 0
2019/06/16 09:15:01 BASE 4.80 354 6.69 9 -0.0 100 -0.0 0 0 974.5 NA 0.0000 -SN BR 9999 360 0 0 0
2019/06/16 09:16:01 BASE 4.48 356 6.69 9 0.0 100 0.0 0 0 974.5 NA 0.0000 -SN BR 9999 360 0 0 0
2019/06/16 09:17:01 BASE 4.41 354 6.69 9 0.1 100 0.1 0 0 974.6 NA 0.0000 -SN 9999 0 0 0 2720
2019/06/16 09:18:01 BASE 4.54 1 6.69 9 0.1 100 0.1 0 0 974.6 NA 0.0000 -SN 9999 260 0 0 0
2019/06/16 09:19:01 BASE 4.78 359 6.69 9 0.1 100 0.1 0 0 974.4 NA 0.0000 -SN 9999 0 0 0 2460
2019/06/16 09:20:01 BASE 5.09 359 6.69 9 0.1 100 0.1 0 0 974.4 NA 0.0000 -SN 9999 0 0 0 2170
2019/06/16 09:21:01 BASE 4.96 358 5.86 3 0.1 100 0.1 0 0 974.4 NA 0.0000 -SN 9999 0 0 0 2430
2019/06/16 09:22:01 BASE 4.46 350 5.86 3 0.1 100 0.1 0 0 974.6 NA 0.0000 -SN 9999 0 0 0 2430
2019/06/16 09:23:01 BASE 4.24 352 5.86 3 0.1 100 0.1 0 0 974.5 NA 0.0000 -SN 9999 0 0 0 2690
2019/06/16 09:24:01 BASE 4.42 360 5.86 3 0.1 100 0.1 0 0 974.3 NA 0.0000 -SN 9999 0 0 0 2170
2019/06/16 09:25:01 BASE 4.76 356 5.86 3 0.1 100 0.1 0 0 974.2 NA 0.0000 -SN 9999 0 0 0 2200
2019/06/16 09:26:01 BASE 4.61 352 5.86 3 0.1 100 0.1 0 0 974.4 NA 0.0000 -SN 9999 0 0 0 1840
2019/06/16 09:27:01 BASE 3.98 351 5.86 3 0.2 100 0.2 0 0 974.6 NA 0.0000 -SN 9999 0 0 0 2330
2019/06/16 09:28:01 BASE 3.68 347 5.86 3 0.2 100 0.2 0 0 974.6 NA 0.0000 -SN 9999 0 0 0 3940
2019/06/16 09:29:01 BASE 4.20 346 5.86 3 0.2 100 0.2 0 0 974.2 NA 0.0000 -SN 9999 300 0 0 0
2019/06/16 09:30:01 BASE 4.61 348 5.61 1 0.2 100 0.2 0 0 974.3 NA 0.0000 -SN 9999 0 0 0 4070
2019/06/16 09:31:01 BASE 4.57 350 5.61 1 0.3 100 0.3 0 0 974.2 NA 0.0000 9999 0 0 0 3970
2019/06/16 09:32:01 BASE 4.83 349 5.61 349 0.3 100 0.3 0 0 974.1 NA 0.0000 9999 330 0 0 0
2019/06/16 09:33:01 BASE 4.85 349 5.61 349 0.4 100 0.4 0 0 974.3 NA 0.0000 9999 330 0 0 0
2019/06/16 09:34:01 BASE 4.86 348 5.71 350 0.4 100 0.4 0 0 974.2 NA 0.0000 9999 330 0 0 0
2019/06/16 09:35:01 BASE 4.96 349 5.81 347 0.5 100 0.5 0 0 974.2 NA 0.0000 9999 390 0 0 0
2019/06/16 09:36:01 BASE 4.91 356 5.81 347 0.5 100 0.5 0 0 974.2 NA 0.0000 9999 390 0 0 0
2019/06/16 09:37:01 BASE 5.15 1 6.17 349 0.5 100 0.5 0 0 974.1 NA 0.0000 9999 0 0 0 3580
2019/06/16 09:38:01 BASE 5.18 359 6.17 349 0.5 100 0.5 0 0 974.1 NA 0.0000 9999 390 0 0 0
2019/06/16 09:39:01 BASE 5.09 358 6.17 349 0.5 100 0.5 0 0 974.0 NA 0.0000 9999 390 0 0 0
2019/06/16 09:40:01 BASE 5.32 355 6.17 349 0.5 100 0.5 0 0 973.9 NA 0.0000 9999 0 0 0 2690
2019/06/16 09:41:01 BASE 5.62 356 6.43 4 0.5 100 0.5 0 0 973.9 NA 0.0000 9999 0 0 0 2660
2019/06/16 09:42:01 BASE 5.55 356 6.43 4 0.5 100 0.5 0 0 973.9 NA 0.0000 9999 0 0 0 2300
2019/06/16 09:43:01 BASE 5.30 358 6.43 4 0.5 100 0.5 0 0 974.0 NA 0.0000 9999 0 0 0 2460
2019/06/16 09:44:01 BASE 5.51 2 6.43 4 0.4 100 0.4 0 0 973.8 NA 0.0000 -SN 9999 0 0 0 2430
2019/06/16 09:45:01 BASE 5.53 357 6.43 4 0.4 100 0.4 0 0 973.9 NA 0.0000 -SN 9999 0 0 0 2400
2019/06/16 09:46:01 BASE 5.43 356 6.43 4 0.4 100 0.4 0 0 973.8 NA 0.0000 -SN 9999 0 0 0 2360
2019/06/16 09:47:01 BASE 5.62 356 6.43 4 0.4 100 0.4 0 0 973.7 NA 0.0000 -SN 9999 0 0 0 2330
2019/06/16 09:48:01 BASE 5.69 355 6.43 4 0.4 100 0.4 0 0 973.8 NA 0.0000 -SN 9999 0 0 0 2360
2019/06/16 09:49:01 BASE 5.79 356 6.43 4 0.4 100 0.4 0 0 973.7 NA 0.0000 -SN 9999 0 0 0 2560
2019/06/16 09:50:01 BASE 5.98 358 6.43 4 0.4 100 0.4 0 0 973.7 NA 0.0000 -SN 9999 0 0 0 2560
2019/06/16 09:51:01 BASE 6.08 1 6.48 3 0.4 100 0.4 0 0 973.6 NA 0.0000 -SN 9999 0 0 0 2790
2019/06/16 09:52:01 BASE 5.91 360 6.48 3 0.4 100 0.4 0 0 973.7 NA 0.0000 -SN 9999 330 0 0 0
2019/06/16 09:53:01 BASE 5.58 356 6.48 2 0.4 100 0.4 0 0 973.8 NA 0.0000 -SN 9999 330 0 0 0
2019/06/16 09:54:01 BASE 5.26 356 6.48 2 0.4 100 0.4 0 0 973.9 NA 0.0000 -SN 9999 0 0 0 2720
2019/06/16 09:55:01 BASE 5.20 0 6.48 2 0.4 100 0.4 0 0 973.9 NA 0.0000 -SN 9999 0 0 0 2460
2019/06/16 09:56:01 BASE 5.51 359 6.53 354 0.4 100 0.4 0 0 973.6 NA 0.0000 -SN 9999 360 0 0 0
2019/06/16 09:57:01 BASE 5.74 356 6.53 354 0.5 100 0.5 0 0 973.7 NA 0.0000 -SN 9999 300 0 0 0
2019/06/16 09:58:01 BASE 5.84 353 6.53 354 0.5 100 0.5 0 0 973.6 NA 0.0000 -SN 9999 260 0 0 0
2019/06/16 09:59:01 BASE 5.96 351 6.53 354 0.5 100 0.5 0 0 973.6 NA 0.0000 -SN 9999 0 0 0 2100
2019/06/16 10:00:01 BASE 6.02 351 6.69 346 0.5 100 0.5 0 0 973.6 NA 0.0000 -SN 9999 0 0 0 2100
2019/06/16 10:01:01 BASE 5.93 351 6.69 346 0.6 100 0.6 0 0 973.8 NA 0.0000 -SN 9999 0 0 0 2070
2019/06/16 10:02:01 BASE 5.94 359 7.15 354 0.6 100 0.6 0 0 973.7 NA 0.0000 -SN 9999 0 0 0 2170
2019/06/16 10:03:01 BASE 6.00 359 7.15 354 0.5 100 0.5 0 0 973.7 NA 0.0000 -SN 9999 0 0 0 2170
2019/06/16 10:04:01 BASE 5.63 353 7.15 354 0.5 100 0.5 0 0 973.9 NA 0.0000 -SN 9999 0 0 0 2200
2019/06/16 10:05:01 BASE 5.53 357 7.15 354 0.5 100 0.5 0 0 973.8 NA 0.0000 -SN 9999 0 0 0 2100
2019/06/16 10:06:01 BASE 5.92 2 7.15 50 0.5 100 0.5 0 0 973.7 NA 0.0000 -SN 9999 0 0 0 2000
2019/06/16 10:07:01 BASE 6.07 3 7.15 50 0.5 100 0.5 0 0 973.7 NA 0.0000 -SN 9999 0 0 0 2070
2019/06/16 10:08:01 BASE 6.33 352 7.46 344 0.5 100 0.5 0 0 973.5 NA 0.0000 -SN 9999 0 0 0 2000
2019/06/16 10:09:01 BASE 6.45 346 7.46 344 0.5 100 0.5 0 0 973.7 NA 0.0000 -SN 9999 0 0 0 1940
2019/06/16 10:10:01 BASE 5.92 346 7.46 344 0.5 100 0.5 0 0 973.9 NA 0.0000 -SN 9999 0 0 0 1840
2019/06/16 10:11:01 BASE 5.85 349 7.46 344 0.5 100 0.5 0 0 973.7 NA 0.0000 -SN 9999 0 0 0 1800
2019/06/16 10:12:01 BASE 5.78 357 7.46 344 0.5 100 0.5 0 0 973.9 NA 0.0000 -SN 9999 0 0 0 1800
2019/06/16 10:13:01 BASE 5.77 358 7.46 344 0.5 100 0.5 0 0 973.8 NA 0.0000 -SN 9999 0 0 0 1640
2019/06/16 10:14:01 BASE 6.21 356 7.51 354 0.5 100 0.5 0 0 973.7 NA 0.0000 -SN 9999 0 0 0 1770
2019/06/16 10:15:01 BASE 6.32 355 7.51 354 0.5 100 0.5 0 0 973.7 NA 0.0000 -SN 9999 0 0 0 1800
2019/06/16 10:16:01 BASE 6.18 353 7.51 354 0.5 100 0.5 0 0 973.9 NA 0.0000 -SN 9999 0 0 0 1740
2019/06/16 10:17:01 BASE 5.99 349 7.51 354 0.4 100 0.4 0 0 973.9 NA 0.0000 -SN 9999 0 0 0 1740
2019/06/16 10:18:01 BASE 6.14 348 7.61 354 0.4 100 0.4 0 0 973.8 NA 0.0000 -SN 9999 0 0 0 1670
2019/06/16 10:19:01 BASE 6.28 350 7.61 354 0.4 100 0.4 0 0 973.8 NA 0.0000 -SN 9999 0 0 0 1770
2019/06/16 10:20:00 BASE 6.20 346 7.61 354 0.4 100 0.4 0 0 973.8 NA 0.0000 -SN 9999 0 0 0 1800
2019/06/16 10:21:01 BASE 5.73 345 7.61 354 0.4 100 0.4 0 0 974.1 NA 0.0000 -SN 9999 0 0 0 1770
2019/06/16 10:22:01 BASE 5.68 348 7.61 354 0.4 100 0.4 0 0 973.8 NA 0.0000 -SN 9999 0 0 0 1710
2019/06/16 10:23:01 BASE 5.84 349 7.61 354 0.4 100 0.4 0 0 974.0 NA 0.0000 -SN 9999 0 0 0 1670
2019/06/16 10:24:01 BASE 5.95 347 7.61 354 0.4 100 0.4 0 0 973.8 NA 0.0000 -SN 9999 0 0 0 1710
2019/06/16 10:25:01 BASE 5.95 345 7.61 354 0.3 100 0.3 0 0 974.0 NA 0.0000 -SN 9999 0 0 0 1710
2019/06/16 10:26:01 BASE 5.90 338 7.61 354 0.3 100 0.3 0 0 974.0 NA 0.0000 -SN 9999 0 0 0 1610
2019/06/16 10:27:00 BASE 6.06 334 7.61 354 0.3 100 0.3 0 0 974.0 NA 0.0000 -SN 9999 0 0 0 1740
2019/06/16 10:28:00 BASE 5.92 337 7.31 331 0.3 100 0.3 0 0 973.9 NA 0.0000 -SN 8000 0 0 0 1610
2019/06/16 10:29:01 BASE 5.99 338 7.31 331 0.2 100 0.2 0 0 974.0 NA 0.0000 -SN 9000 0 0 0 1480
2019/06/16 10:30:01 BASE 6.04 340 7.31 331 0.2 100 0.2 0 0 974.0 NA 0.0000 -SN 9000 0 0 0 1540
2019/06/16 10:31:00 BASE 5.72 340 7.31 331 0.2 100 0.2 0 0 974.1 NA 0.0000 -SN 8000 0 0 0 1410
2019/06/16 10:32:01 BASE 5.27 337 7.31 331 0.2 100 0.2 0 0 974.2 NA 0.0000 -SN BR 7000 0 0 0 1350
2019/06/16 10:33:00 BASE 5.45 338 7.31 331 0.2 100 0.2 0 0 974.0 NA 0.0000 -SN BR 7000 0 0 0 1250
2019/06/16 10:34:00 BASE 6.11 340 7.31 331 0.1 100 0.1 0 0 973.8 NA 0.0000 -SN BR 8000 0 0 0 1310
2019/06/16 10:35:01 BASE 6.39 338 7.31 331 0.1 100 0.1 0 0 973.8 NA 0.0000 -SN BR 7000 0 0 0 1250
2019/06/16 10:36:00 BASE 6.00 336 7.05 338 0.1 100 0.1 0 0 974.1 NA 0.0000 -SN BR 6000 0 0 0 1250
2019/06/16 10:37:00 BASE 6.00 331 7.05 338 0.1 100 0.1 0 0 974.1 NA 0.0000 -SN BR 5000 0 0 0 1210
2019/06/16 10:38:01 BASE 6.18 328 7.05 338 0.1 100 0.1 0 0 974.2 NA 0.0000 -SN BR 3900 0 0 0 1120
2019/06/16 10:39:00 BASE 6.14 327 7.05 338 0.1 100 0.1 0 0 974.2 NA 0.0000 -SN BR 3000 0 0 0 1020
2019/06/16 10:40:01 BASE 6.21 328 7.05 338 0.1 100 0.1 0 0 974.2 NA 0.0000 -SN BR 3200 0 0 0 980
2019/06/16 10:41:00 BASE 6.25 327 7.10 329 0.1 100 0.1 0 0 974.3 NA 0.0000 -SN BR 3200 0 0 0 950
2019/06/16 10:42:01 BASE 5.73 326 7.10 329 0.1 100 0.1 0 0 974.5 NA 0.0000 -SN BR 3200 0 0 0 1120
2019/06/16 10:43:00 BASE 5.46 327 7.10 329 0.1 100 0.1 0 0 974.4 NA 0.0000 -SN BR 3600 0 0 0 980
2019/06/16 10:44:00 BASE 5.83 326 7.10 329 0.0 100 0.0 0 0 974.4 NA 0.0000 -SN BR 3600 0 0 0 890
2019/06/16 10:45:01 BASE 6.04 327 7.10 329 0.0 100 0.0 0 0 974.3 NA 0.0000 -SN BR 3700 0 0 0 1210
2019/06/16 10:46:00 BASE 6.04 328 7.10 329 0.0 100 0.0 0 0 974.4 NA 0.0000 -SN BR 3600 0 0 0 1180
2019/06/16 10:47:00 BASE 6.26 325 8.85 323 0.0 100 0.0 0 0 974.4 NA 0.0000 -SN BR 3500 0 0 0 1080
2019/06/16 10:48:00 BASE 7.06 323 8.85 323 0.0 100 0.0 0 0 974.5 NA 0.0000 -SN BR 3400 360 0 0 0
2019/06/16 10:49:00 BASE 7.34 325 8.85 323 0.0 100 0.0 0 0 974.5 NA 0.0000 -SN BR 3400 430 0 0 0
2019/06/16 10:50:01 BASE 7.26 325 8.85 323 0.0 100 0.0 0 0 974.5 NA 0.0000 -SN BR 4600 330 0 0 0
2019/06/16 10:51:00 BASE 7.01 323 8.85 323 0.0 100 0.0 0 0 974.6 NA 0.0000 -SN BR 9999 360 0 0 0
2019/06/16 10:52:00 BASE 6.99 323 8.85 323 0.0 100 0.0 0 0 974.6 NA 0.0000 -SN BR 9000 330 0 0 0
2019/06/16 10:53:00 BASE 7.14 324 8.85 323 -0.0 100 -0.0 0 0 974.7 NA 0.0000 -SN BR 8000 330 0 0 0
2019/06/16 10:54:00 BASE 7.01 325 8.85 323 -0.0 100 -0.0 0 0 974.6 NA 0.0000 -SN BR 8000 0 0 0 950
2019/06/16 10:55:01 BASE 6.74 325 8.85 323 -0.1 100 -0.1 0 0 974.8 NA 0.0000 -SN BR 7000 260 0 0 0
2019/06/16 10:56:01 BASE 6.20 324 8.85 323 -0.1 100 -0.1 0 0 974.8 NA 0.0000 -SN BR 8000 360 0 0 0
2019/06/16 10:57:00 BASE 6.36 323 8.49 327 -0.1 100 -0.1 0 0 974.8 NA 0.0000 -SN BR 9999 430 0 0 0
2019/06/16 10:58:00 BASE 6.83 320 8.08 320 -0.1 100 -0.1 0 0 974.8 NA 0.0000 -SN BR 9999 430 0 0 0
2019/06/16 10:59:00 BASE 6.62 316 8.08 320 -0.1 100 -0.1 0 0 975.0 NA 0.0000 -SN BR 9999 390 0 0 0
2019/06/16 11:00:01 BASE 6.42 311 8.03 327 -0.1 100 -0.1 0 0 975.0 NA 0.0000 -SN BR 9999 360 0 0 0
2019/06/16 11:01:01 BASE 6.61 309 8.03 327 -0.1 100 -0.1 0 0 975.0 NA 0.0000 -SN BR 9999 300 0 0 0
2019/06/16 11:02:00 BASE 6.69 311 7.97 323 -0.1 100 -0.1 0 0 975.0 NA 0.0000 -SN BR 6000 0 0 0 1180
2019/06/16 11:03:00 BASE 6.54 312 7.97 323 -0.2 100 -0.2 0 0 975.1 NA 0.0000 -SN BR 4800 0 0 0 1050
2019/06/16 11:04:00 BASE 6.43 309 7.97 323 -0.2 100 -0.2 0 0 975.1 NA 0.0000 -SN BR 5000 300 0 0 0
2019/06/16 11:05:01 BASE 6.44 308 7.97 323 -0.2 100 -0.2 0 0 975.1 NA 0.0000 -SN BR 5000 300 0 0 0
2019/06/16 11:06:00 BASE 6.22 308 7.97 323 -0.2 100 -0.2 0 0 975.2 NA 0.0000 -SN BR 5000 360 0 0 0
2019/06/16 11:07:00 BASE 6.19 306 7.97 323 -0.2 100 -0.2 0 0 975.2 NA 0.0000 -SN BR 5000 330 0 0 0
2019/06/16 11:08:00 BASE 6.19 305 7.36 310 -0.2 100 -0.2 0 0 975.3 NA 0.0000 -SN BR 5000 360 0 0 0
2019/06/16 11:09:00 BASE 5.88 305 7.36 310 -0.2 100 -0.2 0 0 975.3 NA 0.0000 -SN BR 5000 520 0 0 0
2019/06/16 11:10:01 BASE 6.14 304 7.36 310 -0.2 100 -0.2 0 0 975.3 NA 0.0000 -SN BR 7000 620 0 0 0
2019/06/16 11:11:00 BASE 6.18 303 7.36 310 -0.2 100 -0.2 0 0 975.4 NA 0.0000 -SN BR 9999 560 0 0 0
2019/06/16 11:12:00 BASE 5.76 302 7.36 310 -0.2 100 -0.2 0 0 975.4 NA 0.0000 -SN BR 9999 690 0 0 0
2019/06/16 11:13:00 BASE 5.89 300 7.36 310 -0.2 100 -0.2 0 0 975.4 NA 0.0000 -SN BR 9999 620 0 0 0
2019/06/16 11:14:00 BASE 5.99 300 7.36 310 -0.2 100 -0.2 0 0 975.5 NA 0.0000 BR 9999 590 0 0 0
2019/06/16 11:15:00 BASE 5.85 301 7.25 308 -0.2 100 -0.2 0 0 975.5 NA 0.0000 BR 9999 790 0 0 0
2019/06/16 11:16:01 BASE 5.78 302 7.25 308 -0.2 100 -0.2 0 0 975.5 NA 0.0000 BR 9999 850 0 0 0
2019/06/16 11:17:00 BASE 5.89 303 7.15 302 -0.2 100 -0.2 0 0 975.5 NA 0.0000 BR 9999 850 0 0 0
2019/06/16 11:18:00 BASE 6.23 304 7.15 302 -0.2 100 -0.2 0 0 975.5 NA 0.0000 9999 820 0 0 0
2019/06/16 11:19:00 BASE 6.29 306 7.15 302 -0.2 100 -0.2 0 0 975.6 NA 0.0000 9999 720 0 0 0
2019/06/16 11:20:01 BASE 5.99 305 6.94 302 -0.2 100 -0.2 0 0 975.6 NA 0.0000 9999 620 0 0 0
2019/06/16 11:21:00 BASE 5.93 303 6.94 302 -0.2 100 -0.2 0 0 975.7 NA 0.0000 9999 890 0 0 0
2019/06/16 11:22:00 BASE 5.66 303 6.94 302 -0.2 100 -0.2 0 0 975.7 NA 0.0000 9999 820 0 0 0
2019/06/16 11:23:00 BASE 5.47 301 6.94 302 -0.2 100 -0.2 0 0 975.7 NA 0.0000 9999 690 0 0 0
2019/06/16 11:24:00 BASE 5.67 301 6.94 302 -0.3 100 -0.3 0 0 975.7 NA 0.0000 9999 750 0 0 0
2019/06/16 11:25:00 BASE 5.56 302 6.94 302 -0.3 100 -0.3 0 0 975.8 NA 0.0000 9999 850 0 0 0
2019/06/16 11:26:00 BASE 5.61 301 6.94 302 -0.3 100 -0.3 0 0 975.8 NA 0.0000 9999 850 0 0 0
2019/06/16 11:27:00 BASE 6.01 301 7.20 304 -0.3 100 -0.3 0 0 975.8 NA 0.0000 9999 920 0 0 0
2019/06/16 11:28:00 BASE 6.39 300 7.46 302 -0.3 100 -0.3 0 0 975.8 NA 0.0000 9999 1050 0 0 0
2019/06/16 11:29:00 BASE 6.16 301 7.46 302 -0.4 100 -0.4 0 0 975.9 NA 0.0000 9999 1150 0 0 0
2019/06/16 11:30:00 BASE 5.98 302 7.46 302 -0.4 100 -0.4 0 0 975.8 NA 0.0000 9999 1080 0 0 0
2019/06/16 11:31:00 BASE 6.11 302 7.46 302 -0.4 100 -0.4 0 0 975.9 NA 0.0000 9999 1180 0 0 0
2019/06/16 11:32:00 BASE 5.94 305 7.46 302 -0.4 100 -0.4 0 0 975.9 NA 0.0000 9999 1050 0 0 0
2019/06/16 11:33:00 BASE 5.87 305 7.46 302 -0.4 100 -0.4 0 0 975.9 NA 0.0000 9999 1280 0 0 0
2019/06/16 11:34:00 BASE 5.66 305 7.46 302 -0.4 100 -0.4 0 0 976.0 NA 0.0000 9999 1280 0 0 0
2019/06/16 11:35:00 BASE 5.44 308 7.46 302 -0.4 100 -0.4 0 0 976.0 NA 0.0000 9999 1180 0 0 0
2019/06/16 11:36:00 BASE 5.13 307 7.46 302 -0.4 100 -0.4 0 0 976.0 NA 0.0000 9999 1350 0 0 0
2019/06/16 11:37:00 BASE 5.09 305 7.46 302 -0.5 100 -0.5 0 0 976.0 NA 0.0000 9999 1350 0 0 0
2019/06/16 11:38:00 BASE 5.33 305 6.69 311 -0.5 100 -0.5 0 0 976.0 NA 0.0000 9999 1280 0 0 0
2019/06/16 11:39:00 BASE 5.12 305 6.69 311 -0.5 100 -0.5 0 0 976.0 NA 0.0000 9999 1410 0 0 0
2019/06/16 11:40:00 BASE 5.36 308 6.69 311 -0.5 100 -0.5 0 0 976.0 NA 0.0000 9999 1250 0 0 0
2019/06/16 11:41:00 BASE 5.69 310 6.69 311 -0.5 100 -0.5 0 0 976.0 NA 0.0000 9999 1350 0 0 0
2019/06/16 11:42:00 BASE 5.65 307 6.58 306 -0.6 100 -0.6 0 0 976.0 NA 0.0000 9999 1380 0 0 0
2019/06/16 11:43:00 BASE 5.54 306 6.58 306 -0.6 100 -0.6 0 0 976.1 NA 0.0000 9999 1440 0 0 0
2019/06/16 11:44:01 BASE 5.54 308 6.28 309 -0.6 100 -0.6 0 0 976.1 NA 0.0000 9999 1440 0 0 0
2019/06/16 11:45:01 BASE 5.52 309 6.28 309 -0.6 100 -0.6 0 0 976.2 NA 0.0000 9999 1480 0 0 0
2019/06/16 11:46:01 BASE 5.31 303 6.48 299 -0.6 100 -0.6 0 0 976.2 NA 0.0000 9999 1570 0 0 0
2019/06/16 11:47:01 BASE 5.11 301 6.48 299 -0.6 100 -0.6 0 0 976.2 NA 0.0000 9999 1610 0 0 0
2019/06/16 11:48:01 BASE 5.05 302 6.48 299 -0.6 100 -0.6 0 0 976.2 NA 0.0000 9999 1570 0 0 0
2019/06/16 11:49:01 BASE 5.25 299 6.48 294 -0.6 100 -0.6 0 0 976.2 NA 0.0000 9999 1640 0 0 0
2019/06/16 11:50:01 BASE 5.25 299 6.48 294 -0.6 100 -0.6 0 0 976.3 NA 0.0000 9999 1540 0 0 0
2019/06/16 11:51:01 BASE 5.04 296 6.48 294 -0.6 100 -0.6 0 0 976.3 NA 0.0000 9999 1510 0 0 0
2019/06/16 11:52:01 BASE 4.95 292 6.48 294 -0.6 100 -0.6 0 0 976.3 NA 0.0000 9999 1510 0 0 0
2019/06/16 11:53:01 BASE 4.78 293 6.48 294 -0.6 100 -0.6 0 0 976.4 NA 0.0000 9999 1610 0 0 0
2019/06/16 11:54:01 BASE 4.50 293 6.48 294 -0.6 100 -0.6 0 0 976.4 NA 0.0000 9999 1510 0 0 0
2019/06/16 11:55:01 BASE 4.74 295 6.48 294 -0.6 100 -0.6 0 0 976.4 NA 0.0000 9999 1480 0 0 0
2019/06/16 11:56:01 BASE 5.57 293 6.74 293 -0.6 100 -0.6 0 0 976.3 NA 0.0000 9999 1380 0 0 0
2019/06/16 11:57:01 BASE 5.94 289 6.74 293 -0.6 100 -0.6 0 0 976.3 NA 0.0000 9999 1350 0 0 0
2019/06/16 11:58:01 BASE 5.38 290 6.74 293 -0.5 100 -0.5 0 0 976.4 NA 0.0000 9999 1350 0 0 0
2019/06/16 11:59:01 BASE 4.74 294 6.74 293 -0.5 100 -0.5 0 0 976.4 NA 0.0000 9999 1350 0 0 0
2019/06/16 12:00:01 BASE 4.82 294 6.74 293 -0.5 100 -0.5 0 0 976.4 NA 0.0000 9999 1310 0 0 0
2019/06/16 12:01:01 BASE 5.25 291 6.74 293 -0.5 100 -0.5 0 0 976.4 NA 0.0000 9999 1310 0 0 0
2019/06/16 12:02:01 BASE 4.84 292 6.74 293 -0.5 100 -0.5 0 0 976.5 NA 0.0000 9999 1280 0 0 0
2019/06/16 12:03:01 BASE 4.78 292 6.74 293 -0.5 100 -0.5 0 0 976.5 NA 0.0000 9999 1280 0 0 0
2019/06/16 12:04:01 BASE 5.08 291 6.74 293 -0.5 100 -0.5 0 0 976.5 NA 0.0000 9999 1210 0 0 0
2019/06/16 12:05:01 BASE 5.30 292 6.74 293 -0.5 100 -0.5 0 0 976.5 NA 0.0000 9999 1250 0 0 0
2019/06/16 12:06:01 BASE 5.30 294 6.22 296 -0.5 100 -0.5 0 0 976.5 NA 0.0000 9999 1210 0 0 0
2019/06/16 12:07:01 BASE 5.11 293 6.22 296 -0.5 100 -0.5 0 0 976.5 NA 0.0000 9999 1180 0 0 0
2019/06/16 12:08:01 BASE 5.25 291 6.22 296 -0.5 100 -0.5 0 0 976.6 NA 0.0000 9999 1250 0 0 0
2019/06/16 12:09:01 BASE 5.13 293 6.22 296 -0.5 100 -0.5 0 0 976.6 NA 0.0000 9999 1210 0 0 0
2019/06/16 12:10:01 BASE 5.07 295 6.22 296 -0.5 100 -0.5 0 0 976.6 NA 0.0000 9999 1210 0 0 0
2019/06/16 12:11:01 BASE 4.83 295 6.22 296 -0.5 100 -0.5 0 0 976.7 NA 0.0000 9999 1210 0 0 0
2019/06/16 12:12:01 BASE 4.28 293 6.22 296 -0.5 100 -0.5 0 0 976.7 NA 0.0000 9999 1210 0 0 0
2019/06/16 12:13:01 BASE 4.77 291 6.79 283 -0.5 100 -0.5 0 0 976.6 NA 0.0000 9999 1180 0 0 0
2019/06/16 12:14:01 BASE 5.59 293 6.79 283 -0.5 100 -0.5 0 0 976.6 NA 0.0000 9999 1250 0 0 0
2019/06/16 12:15:01 BASE 5.31 297 6.79 283 -0.5 100 -0.5 0 0 976.6 NA 0.0000 9999 1250 0 0 0
2019/06/16 12:16:01 BASE 4.95 295 6.79 283 -0.5 100 -0.5 0 0 976.7 NA 0.0000 9999 1210 0 0 0
2019/06/16 12:17:01 BASE 4.97 293 6.79 283 -0.5 100 -0.5 0 0 976.7 NA 0.0000 9999 1180 0 0 0
2019/06/16 12:18:01 BASE 5.03 293 6.79 283 -0.5 100 -0.5 0 0 976.7 NA 0.0000 9999 1180 0 0 0
2019/06/16 12:19:01 BASE 5.07 292 6.79 283 -0.5 100 -0.5 0 0 976.7 NA 0.0000 9999 1120 0 0 0
2019/06/16 12:20:01 BASE 4.95 290 6.79 283 -0.5 100 -0.5 0 0 976.8 NA 0.0000 9999 1180 0 0 0
2019/06/16 12:21:01 BASE 4.69 289 6.79 283 -0.5 100 -0.5 0 0 976.8 NA 0.0000 9999 1180 0 0 0
2019/06/16 12:22:01 BASE 4.69 290 6.79 283 -0.5 100 -0.5 0 0 976.8 NA 0.0000 9999 1120 0 0 0
2019/06/16 12:23:01 BASE 5.12 291 6.58 294 -0.5 100 -0.5 0 0 976.7 NA 0.0000 9999 1120 0 0 0
2019/06/16 12:24:01 BASE 5.57 291 6.69 293 -0.5 100 -0.5 0 0 976.8 NA 0.0000 9999 1120 0 0 0
2019/06/16 12:25:01 BASE 5.14 295 6.69 293 -0.5 100 -0.5 0 0 976.8 NA 0.0000 9999 1180 0 0 0
2019/06/16 12:26:01 BASE 4.55 297 6.69 293 -0.5 100 -0.5 0 0 976.8 NA 0.0000 9999 1120 0 0 0
2019/06/16 12:27:01 BASE 4.48 295 6.69 293 -0.5 100 -0.5 0 0 976.8 NA 0.0000 9999 1150 0 0 0
2019/06/16 12:28:01 BASE 4.67 295 6.69 293 -0.5 100 -0.5 0 0 976.8 NA 0.0000 9999 1120 0 0 0
2019/06/16 12:29:01 BASE 4.80 295 6.69 293 -0.5 100 -0.5 0 0 976.8 NA 0.0000 9999 1210 0 0 0
2019/06/16 12:30:01 BASE 4.94 293 6.69 293 -0.5 100 -0.5 0 0 976.8 NA 0.0000 9999 1120 0 0 0
2019/06/16 12:31:01 BASE 4.95 290 6.69 293 -0.5 100 -0.5 0 0 976.8 NA 0.0000 9999 1080 0 0 0
2019/06/16 12:32:01 BASE 4.86 292 6.69 293 -0.5 100 -0.5 0 0 976.8 NA 0.0000 9999 1150 0 0 0
2019/06/16 12:33:01 BASE 4.76 294 6.69 293 -0.5 100 -0.5 0 0 976.8 NA 0.0000 9999 1210 0 0 0
2019/06/16 12:34:01 BASE 4.60 290 6.17 288 -0.5 100 -0.5 0 0 976.8 NA 0.0000 9999 1050 0 0 0
2019/06/16 12:35:01 BASE 4.93 289 6.17 288 -0.5 100 -0.5 0 0 976.8 NA 0.0000 9999 1080 0 0 0
2019/06/16 12:36:01 BASE 5.43 292 6.17 288 -0.5 100 -0.5 0 0 976.7 NA 0.0000 9999 1080 0 0 0
2019/06/16 12:37:01 BASE 5.59 294 6.58 290 -0.5 100 -0.5 0 0 976.8 NA 0.0000 9999 1180 0 0 0
2019/06/16 12:38:01 BASE 5.69 292 6.69 288 -0.5 100 -0.5 0 0 976.8 NA 0.0000 9999 1180 0 0 0
2019/06/16 12:39:01 BASE 5.50 291 6.69 288 -0.5 100 -0.5 0 0 976.8 NA 0.0000 9999 1120 0 0 0
2019/06/16 12:40:01 BASE 5.65 293 7.05 292 -0.5 100 -0.5 0 0 976.8 NA 0.0000 9999 1120 0 0 0
2019/06/16 12:41:01 BASE 5.65 292 7.05 292 -0.5 100 -0.5 0 0 976.9 NA 0.0000 9999 1180 0 0 0
2019/06/16 12:42:01 BASE 4.95 293 7.05 292 -0.5 100 -0.5 0 0 976.9 NA 0.0000 9999 1180 0 0 0
2019/06/16 12:43:01 BASE 4.90 296 7.05 292 -0.5 100 -0.5 0 0 976.9 NA 0.0000 9999 1380 2170 0 0
2019/06/16 12:44:01 BASE 4.94 296 7.05 292 -0.5 100 -0.5 0 0 976.9 NA 0.0000 9999 1350 1970 0 0
2019/06/16 12:45:01 BASE 4.90 294 7.05 292 -0.5 100 -0.5 0 0 976.9 NA 0.0000 9999 1210 0 0 0
2019/06/16 12:46:01 BASE 5.04 292 7.05 292 -0.5 100 -0.5 0 0 977.0 NA 0.0000 9999 1250 0 0 0
2019/06/16 12:47:01 BASE 5.15 290 7.05 292 -0.5 100 -0.5 0 0 976.9 NA 0.0000 9999 1280 0 0 0
2019/06/16 12:48:01 BASE 4.90 291 7.05 292 -0.5 100 -0.5 0 0 977.0 NA 0.0000 9999 1210 0 0 0
2019/06/16 12:49:01 BASE 4.70 292 7.05 292 -0.5 100 -0.5 0 0 977.0 NA 0.0000 9999 1250 0 0 0
2019/06/16 12:50:01 BASE 4.97 292 6.28 282 -0.5 100 -0.5 0 0 976.9 NA 0.0000 9999 1180 0 0 0
2019/06/16 12:51:01 BASE 5.07 292 6.28 282 -0.5 100 -0.5 0 0 976.9 NA 0.0000 9999 1180 0 0 0
2019/06/16 12:52:01 BASE 5.30 291 6.28 290 -0.5 100 -0.5 0 0 977.0 NA 0.0000 9999 1080 0 0 0
2019/06/16 12:53:01 BASE 5.51 291 6.53 296 -0.5 100 -0.5 0 0 976.9 NA 0.0000 9999 1080 0 0 0
2019/06/16 12:54:01 BASE 5.14 293 6.53 296 -0.5 100 -0.5 0 0 977.0 NA 0.0000 9999 1080 0 0 0
2019/06/16 12:55:01 BASE 4.87 294 6.53 296 -0.5 100 -0.5 0 0 977.0 NA 0.0000 9999 1080 0 0 0
2019/06/16 12:56:01 BASE 5.09 296 6.53 296 -0.5 100 -0.5 0 0 977.0 NA 0.0000 9999 1050 0 0 0
2019/06/16 12:57:01 BASE 5.31 296 6.53 296 -0.5 100 -0.5 0 0 977.0 NA 0.0000 9999 1080 0 0 0
2019/06/16 12:58:01 BASE 5.22 295 6.53 296 -0.5 100 -0.5 0 0 977.0 NA 0.0000 9999 1280 0 0 0
2019/06/16 12:59:01 BASE 5.21 294 6.53 296 -0.5 100 -0.5 0 0 977.0 NA 0.0000 9999 1120 0 0 0
2019/06/16 13:00:01 BASE 5.67 293 6.74 279 -0.5 100 -0.5 0 0 977.0 NA 0.0000 9999 1120 0 0 0
2019/06/16 13:01:01 BASE 5.77 292 6.74 279 -0.5 100 -0.5 0 0 977.1 NA 0.0000 9999 1020 0 0 0
2019/06/16 13:02:01 BASE 5.62 291 6.74 279 -0.5 100 -0.5 0 0 977.0 NA 0.0000 9999 1020 0 0 0
2019/06/16 13:03:01 BASE 5.64 292 6.74 279 -0.5 100 -0.5 0 0 977.1 NA 0.0000 9999 980 0 0 0
2019/06/16 13:04:01 BASE 5.43 293 6.74 279 -0.5 100 -0.5 0 0 977.1 NA 0.0000 9999 1020 0 0 0
2019/06/16 13:05:01 BASE 5.61 292 6.74 279 -0.5 100 -0.5 0 0 977.0 NA 0.0000 9999 1080 0 0 0
2019/06/16 13:06:01 BASE 5.91 291 6.74 279 -0.5 100 -0.5 0 0 977.0 NA 0.0000 9999 1020 0 0 0
2019/06/16 13:07:01 BASE 5.98 292 6.74 279 -0.5 100 -0.5 0 0 977.0 NA 0.0000 9999 1020 0 0 0
2019/06/16 13:08:01 BASE 5.65 293 6.74 279 -0.5 100 -0.5 0 0 977.1 NA 0.0000 9999 920 0 0 0
2019/06/16 13:09:01 BASE 5.41 292 6.74 279 -0.5 100 -0.5 0 0 977.0 NA 0.0000 9999 920 0 0 0
2019/06/16 13:10:01 BASE 5.71 292 6.58 290 -0.5 100 -0.5 0 0 977.0 NA 0.0000 9999 850 0 0 0
2019/06/16 13:11:01 BASE 6.02 292 6.74 299 -0.5 100 -0.5 0 0 977.1 NA 0.0000 9999 950 0 0 0
2019/06/16 13:12:01 BASE 6.05 292 6.74 299 -0.5 100 -0.5 0 0 977.1 NA 0.0000 9999 890 0 0 0
2019/06/16 13:13:01 BASE 5.74 291 6.74 299 -0.5 100 -0.5 0 0 977.1 NA 0.0000 9999 980 0 0 0
2019/06/16 13:14:01 BASE 5.57 289 6.74 299 -0.5 100 -0.5 0 0 977.1 NA 0.0000 9999 950 0 0 0
2019/06/16 13:15:01 BASE 5.58 286 6.74 299 -0.5 100 -0.5 0 0 977.1 NA 0.0000 9999 950 0 0 0
2019/06/16 13:16:01 BASE 5.45 286 6.74 299 -0.5 100 -0.5 0 0 977.2 NA 0.0000 9999 920 0 0 0
2019/06/16 13:17:01 BASE 5.57 287 6.74 299 -0.5 100 -0.5 0 0 977.1 NA 0.0000 9999 920 0 0 0
2019/06/16 13:18:01 BASE 5.85 287 6.94 287 -0.5 100 -0.5 0 0 977.1 NA 0.0000 9999 950 0 0 0
2019/06/16 13:19:01 BASE 5.93 288 6.94 287 -0.5 100 -0.5 0 0 977.2 NA 0.0000 9999 920 0 0 0
2019/06/16 13:20:01 BASE 5.74 290 6.94 287 -0.5 100 -0.5 0 0 977.2 NA 0.0000 9999 950 0 0 0
2019/06/16 13:21:01 BASE 5.57 290 6.94 287 -0.5 100 -0.5 0 0 977.2 NA 0.0000 9999 850 0 0 0
2019/06/16 13:22:01 BASE 5.28 290 6.94 287 -0.5 100 -0.5 0 0 977.3 NA 0.0000 9999 890 0 0 0
2019/06/16 13:23:01 BASE 5.39 293 7.25 303 -0.5 100 -0.5 0 0 977.1 NA 0.0000 9999 950 0 0 0
2019/06/16 13:24:01 BASE 5.77 292 7.25 303 -0.5 100 -0.5 0 0 977.2 NA 0.0000 9999 920 0 0 0
2019/06/16 13:25:01 BASE 5.13 286 7.25 303 -0.5 100 -0.5 0 0 977.2 NA 0.0000 9999 1020 0 0 0
2019/06/16 13:26:01 BASE 4.79 287 7.25 303 -0.5 100 -0.5 0 0 977.2 NA 0.0000 9999 1020 0 0 0
2019/06/16 13:27:00 BASE 5.57 289 7.25 303 -0.5 100 -0.5 0 0 977.2 NA 0.0000 9999 1020 0 0 0
2019/06/16 13:28:01 BASE 6.08 286 7.25 303 -0.5 100 -0.5 0 0 977.2 NA 0.0000 9999 890 0 0 0
2019/06/16 13:29:00 BASE 5.78 286 7.25 303 -0.5 100 -0.5 0 0 977.2 NA 0.0000 9999 330 0 0 0
2019/06/16 13:30:01 BASE 5.46 286 7.25 303 -0.5 100 -0.5 0 0 977.2 NA 0.0000 9999 260 1080 0 0
2019/06/16 13:31:00 BASE 5.11 285 7.25 303 -0.4 100 -0.4 0 0 977.2 NA 0.0000 UP 9999 300 0 0 0
2019/06/16 13:32:00 BASE 5.43 284 7.51 278 -0.4 100 -0.4 0 0 977.1 NA 0.0000 UP 9999 300 0 0 0
2019/06/16 13:33:00 BASE 5.37 285 7.51 278 -0.4 100 -0.4 0 0 977.2 NA 0.0000 UP 9999 1480 3510 0 0
2019/06/16 13:34:00 BASE 5.24 286 7.51 278 -0.4 100 -0.4 0 0 977.1 NA 0.0000 UP 9999 1350 4170 0 0
2019/06/16 13:35:01 BASE 5.48 286 7.51 278 -0.4 100 -0.4 0 0 977.2 NA 0.0000 UP 9999 1210 4200 0 0
2019/06/16 13:36:00 BASE 5.26 290 7.51 278 -0.4 100 -0.4 0 0 977.1 NA 0.0000 UP 9999 1350 5120 0 0
2019/06/16 13:37:00 BASE 5.09 291 7.51 278 -0.4 100 -0.4 0 0 977.2 NA 0.0000 UP 9999 4950 0 0 0
2019/06/16 13:38:00 BASE 5.02 289 7.51 278 -0.5 100 -0.5 0 0 977.2 NA 0.0000 UP 9999 3580 4990 0 0
2019/06/16 13:39:01 BASE 5.12 289 7.51 278 -0.5 100 -0.5 0 0 977.2 NA 0.0000 UP 9999 3580 4760 0 0
2019/06/16 13:40:01 BASE 5.11 289 7.51 278 -0.5 100 -0.5 0 0 977.2 NA 0.0000 UP 9999 1350 0 0 0
2019/06/16 13:41:00 BASE 4.91 285 7.51 278 -0.5 100 -0.5 0 0 977.2 NA 0.0000 9999 1020 0 0 0
2019/06/16 13:42:01 BASE 4.87 285 7.00 292 -0.5 100 -0.5 0 0 977.2 NA 0.0000 9999 1210 0 0 0
2019/06/16 13:43:00 BASE 4.87 287 7.00 292 -0.5 100 -0.5 0 0 977.2 NA 0.0000 9999 920 3380 0 0
2019/06/16 13:44:00 BASE 4.57 288 6.17 293 -0.5 100 -0.5 0 0 977.2 NA 0.0000 9999 1050 0 0 0
2019/06/16 13:45:01 BASE 4.60 287 6.17 293 -0.5 100 -0.5 0 0 977.1 NA 0.0000 9999 1020 0 0 0
2019/06/16 13:46:00 BASE 4.76 289 5.92 284 -0.5 100 -0.5 0 0 977.2 NA 0.0000 9999 1380 0 0 0
2019/06/16 13:47:00 BASE 4.80 292 5.86 284 -0.5 100 -0.5 0 0 977.2 NA 0.0000 9999 1280 0 0 0
2019/06/16 13:48:01 BASE 4.95 291 6.07 289 -0.5 100 -0.5 0 0 977.2 NA 0.0000 9999 1510 0 0 0
2019/06/16 13:49:00 BASE 5.01 291 6.07 289 -0.5 100 -0.5 0 0 977.2 NA 0.0000 9999 1280 0 0 0
2019/06/16 13:50:01 BASE 4.93 292 6.07 289 -0.5 100 -0.5 0 0 977.2 NA 0.0000 9999 980 0 0 0
2019/06/16 13:51:00 BASE 4.96 292 6.07 289 -0.5 100 -0.5 0 0 977.2 NA 0.0000 9999 1180 0 0 0
2019/06/16 13:52:01 BASE 5.03 294 6.07 289 -0.5 100 -0.5 0 0 977.2 NA 0.0000 9999 1120 0 0 0
2019/06/16 13:53:00 BASE 4.96 297 6.07 289 -0.5 100 -0.5 0 0 977.3 NA 0.0000 9999 1210 0 0 0
2019/06/16 13:54:01 BASE 4.78 298 6.07 289 -0.5 100 -0.5 0 0 977.3 NA 0.0000 9999 1080 0 0 0
2019/06/16 13:55:01 BASE 4.86 297 6.07 289 -0.5 100 -0.5 0 0 977.3 NA 0.0000 9999 950 0 0 0
2019/06/16 13:56:00 BASE 4.96 296 6.07 289 -0.5 100 -0.5 0 0 977.3 NA 0.0000 9999 920 0 0 0
2019/06/16 13:57:00 BASE 4.84 296 6.07 289 -0.5 100 -0.5 0 0 977.3 NA 0.0000 9999 950 0 0 0
2019/06/16 13:58:00 BASE 4.87 296 5.97 287 -0.5 100 -0.5 0 0 977.3 NA 0.0000 9999 850 0 0 0
2019/06/16 13:59:01 BASE 5.06 293 5.97 287 -0.5 100 -0.5 1 0 977.3 NA 0.0000 9999 890 0 0 0
2019/06/16 14:00:01 BASE 5.10 294 6.17 290 -0.5 100 -0.5 1 0 977.3 NA 0.0000 9999 890 0 0 0
2019/06/16 14:01:00 BASE 4.91 295 6.17 290 -0.5 100 -0.5 1 0 977.3 NA 0.0000 9999 850 0 0 0
2019/06/16 14:02:00 BASE 4.82 294 6.17 290 -0.5 100 -0.5 1 0 977.3 NA 0.0000 9999 890 0 0 0
2019/06/16 14:03:00 BASE 5.02 295 6.17 290 -0.5 100 -0.5 1 0 977.3 NA 0.0000 9999 890 0 0 0
2019/06/16 14:04:00 BASE 5.42 296 6.38 294 -0.5 100 -0.5 1 0 977.3 NA 0.0000 9999 950 0 0 0
2019/06/16 14:05:01 BASE 5.44 295 6.38 294 -0.5 100 -0.5 1 0 977.3 NA 0.0000 9999 1020 0 0 0
2019/06/16 14:06:00 BASE 5.36 293 6.38 294 -0.5 100 -0.5 1 0 977.3 NA 0.0000 9999 1020 0 0 0
2019/06/16 14:07:00 BASE 5.21 291 6.38 294 -0.5 100 -0.5 1 0 977.4 NA 0.0000 9999 1080 0 0 0
2019/06/16 14:08:00 BASE 5.17 294 6.38 294 -0.5 100 -0.5 1 0 977.3 NA 0.0000 9999 1050 0 0 0
2019/06/16 14:09:00 BASE 5.92 296 7.31 296 -0.5 100 -0.5 1 0 977.3 NA 0.0000 9999 1050 0 0 0
2019/06/16 14:10:00 BASE 6.44 297 7.31 296 -0.5 100 -0.5 1 0 977.3 NA 0.0000 9999 1210 0 0 0
2019/06/16 14:11:00 BASE 6.47 296 7.31 296 -0.5 100 -0.5 1 0 977.3 NA 0.0000 9999 980 0 0 0
2019/06/16 14:12:00 BASE 6.23 296 7.31 296 -0.5 100 -0.5 1 0 977.3 NA 0.0000 9999 1050 0 0 0
2019/06/16 14:13:00 BASE 6.08 299 7.31 296 -0.5 100 -0.5 1 0 977.3 NA 0.0000 9999 950 0 0 0
2019/06/16 14:14:00 BASE 5.89 298 7.31 296 -0.5 100 -0.5 1 0 977.3 NA 0.0000 9999 1020 0 0 0
2019/06/16 14:15:01 BASE 5.79 298 7.31 296 -0.5 100 -0.5 1 0 977.3 NA 0.0000 9999 980 0 0 0
2019/06/16 14:16:00 BASE 6.16 299 8.18 296 -0.5 100 -0.5 1 0 977.3 NA 0.0000 9999 1120 2300 0 0
2019/06/16 14:17:00 BASE 7.61 299 13.48 301 -0.5 100 -0.5 1 0 977.2 NA 0.0000 9999 1050 2400 0 0
2019/06/16 14:18:00 BASE 12.59 297 18.06 299 -0.5 100 -0.5 1 0 977.2 NA 0.0000 9999 2760 0 0 0
2019/06/16 14:19:00 BASE 15.83 294 18.06 299 -0.5 100 -0.5 1 0 977.2 NA 0.0000 SQ 9999 1640 2790 0 0
2019/06/16 14:20:00 BASE 15.61 291 18.06 299 -0.5 100 -0.5 1 0 977.3 NA 0.0000 9999 620 0 0 0
2019/06/16 14:21:00 BASE 16.12 289 18.06 299 -0.5 100 -0.5 1 0 977.2 NA 0.0000 8000 0 0 0 1670
2019/06/16 14:22:00 BASE 16.49 290 18.06 299 -0.5 100 -0.5 1 0 977.2 NA 0.0000 -SN 8000 1020 0 0 0
2019/06/16 14:23:00 BASE 16.49 290 18.67 285 -0.5 100 -0.5 1 0 977.2 NA 0.0000 -SN 9999 1080 0 0 0
2019/06/16 14:24:00 BASE 16.30 292 18.83 293 -0.5 100 -0.5 1 0 977.2 NA 0.0000 -SN 9999 1150 0 0 0
2019/06/16 14:25:00 BASE 15.30 299 18.83 293 -0.5 100 -0.5 1 0 977.2 NA 0.0000 -SN 9999 1150 0 0 0
2019/06/16 14:26:00 BASE 14.38 300 18.83 293 -0.5 100 -0.5 1 0 977.2 NA 0.0000 -SN 9999 950 0 0 0
2019/06/16 14:27:00 BASE 14.84 300 18.83 293 -0.5 100 -0.5 1 0 977.2 NA 0.0000 -SN 9999 1020 0 0 0
2019/06/16 14:28:00 BASE 15.48 301 18.83 293 -0.5 100 -0.5 1 0 977.2 NA 0.0000 -SN 9999 1050 0 0 0
2019/06/16 14:29:00 BASE 15.57 301 18.83 293 -0.5 100 -0.5 1 0 977.2 NA 0.0000 -SN 9999 950 0 0 0
2019/06/16 14:30:00 BASE 16.13 301 18.83 293 -0.5 100 -0.5 1 0 977.2 NA 0.0000 -SN 9999 920 0 0 0
2019/06/16 14:31:00 BASE 16.49 299 18.83 293 -0.5 100 -0.5 1 0 977.2 NA 0.0000 9999 920 0 0 0
2019/06/16 14:32:00 BASE 16.07 296 18.83 293 -0.5 100 -0.5 1 0 977.3 NA 0.0000 9999 850 0 0 0
2019/06/16 14:33:00 BASE 16.05 299 18.83 293 -0.5 100 -0.5 2 0 977.3 NA 0.0000 9999 950 0 0 0
2019/06/16 14:34:00 BASE 16.31 303 18.01 299 -0.5 100 -0.5 1 0 977.3 NA 0.0000 9999 950 0 0 0
2019/06/16 14:35:00 BASE 15.36 302 18.01 299 -0.5 100 -0.5 2 0 977.4 NA 0.0000 9999 980 0 0 0
2019/06/16 14:36:00 BASE 14.53 300 18.01 299 -0.5 100 -0.5 2 0 977.4 NA 0.0000 9999 920 0 0 0
2019/06/16 14:37:00 BASE 15.19 297 18.01 299 -0.5 100 -0.5 2 0 977.4 NA 0.0000 9999 890 0 0 0
2019/06/16 14:38:00 BASE 14.89 298 18.01 299 -0.5 100 -0.5 1 0 977.4 NA 0.0000 9999 950 0 0 0
2019/06/16 14:39:00 BASE 15.19 298 18.01 299 -0.5 100 -0.5 2 0 977.4 NA 0.0000 9999 950 0 0 0
2019/06/16 14:40:00 BASE 15.54 295 18.01 299 -0.5 100 -0.5 2 0 977.4 NA 0.0000 9999 980 0 0 0
2019/06/16 14:41:00 BASE 16.47 293 20.58 291 -0.5 100 -0.5 1 0 977.3 NA 0.0000 9999 1020 0 0 0
2019/06/16 14:42:00 BASE 17.28 291 20.58 291 -0.5 100 -0.5 1 0 977.4 NA 0.0000 9999 920 0 0 0
2019/06/16 14:43:00 BASE 16.73 293 20.58 291 -0.5 100 -0.5 1 0 977.4 NA 0.0000 9999 980 0 0 0
2019/06/16 14:44:00 BASE 17.60 292 20.94 290 -0.5 100 -0.5 1 0 977.4 NA 0.0000 9999 850 0 0 0
2019/06/16 14:45:00 BASE 17.20 291 20.94 290 -0.5 100 -0.5 1 0 977.6 NA 0.0000 9000 750 0 0 0
2019/06/16 14:46:00 BASE 15.93 292 20.94 290 -0.6 100 -0.6 2 0 977.6 NA 0.0000 8000 390 0 0 0
2019/06/16 14:47:00 BASE 15.22 295 20.94 290 -0.6 100 -0.6 2 0 977.6 NA 0.0000 -SN 8000 390 0 0 0
2019/06/16 14:48:00 BASE 15.80 293 21.14 287 -0.6 100 -0.6 2 0 977.6 NA 0.0000 -SN 6000 360 0 0 0
2019/06/16 14:49:00 BASE 17.87 292 21.14 287 -0.6 100 -0.6 2 0 977.5 NA 0.0000 -SN BR 4800 360 0 0 0
2019/06/16 14:50:00 BASE 17.26 293 21.14 287 -0.6 100 -0.6 2 0 977.6 NA 0.0000 -SN BR 4100 260 0 0 0
2019/06/16 14:51:00 BASE 14.98 290 21.14 287 -0.6 100 -0.6 2 0 977.6 NA 0.0000 -SN BR 3900 0 0 0 1900
2019/06/16 14:52:00 BASE 15.21 291 21.14 287 -0.6 100 -0.6 2 0 977.6 NA 0.0000 -SN BR 4000 300 0 0 0
2019/06/16 14:53:00 BASE 15.50 290 21.14 287 -0.7 100 -0.7 2 0 977.6 NA 0.0000 -SN BR 3000 0 0 0 1350
2019/06/16 14:54:00 BASE 15.42 289 21.14 287 -0.7 100 -0.7 2 0 977.6 NA 0.0000 -SN BR 2600 0 0 0 1250
2019/06/16 14:55:00 BASE 14.70 292 21.14 287 -0.7 100 -0.7 2 0 977.7 NA 0.0000 -SN BR 3200 0 0 0 1280
2019/06/16 14:56:00 BASE 14.13 294 21.14 287 -0.7 100 -0.7 2 0 977.6 NA 0.0000 -SN BR 4200 0 0 0 1350
2019/06/16 14:57:00 BASE 15.14 294 21.14 287 -0.7 100 -0.7 2 0 977.6 NA 0.0000 -SN BR 4700 260 0 0 0
2019/06/16 14:58:00 BASE 16.19 293 20.32 290 -0.7 100 -0.7 2 0 977.6 NA 0.0000 -SN BR 5000 0 0 0 1510
2019/06/16 14:59:00 BASE 16.16 293 19.50 285 -0.7 100 -0.7 2 0 977.6 NA 0.0000 -SN BR 6000 330 0 0 0
2019/06/16 15:00:00 BASE 15.48 290 19.50 285 -0.7 100 -0.7 2 0 977.7 NA 0.0000 -SN BR 8000 360 0 0 0
2019/06/16 15:01:00 BASE 15.43 289 19.50 285 -0.8 100 -0.8 3 0 977.7 NA 0.0000 -SN BR 9000 750 1350 0 0
2019/06/16 15:02:00 BASE 15.15 291 19.50 285 -0.8 100 -0.8 3 0 977.7 NA 0.0000 -SN BR 9000 1250 2360 0 0
2019/06/16 15:03:00 BASE 15.59 292 19.50 285 -0.8 100 -0.8 2 0 977.7 NA 0.0000 -SN BR 9000 1610 0 0 0
2019/06/16 15:04:00 BASE 16.13 290 19.60 289 -0.8 100 -0.8 3 0 977.7 NA 0.0000 -SN BR 9999 1250 2660 0 0
2019/06/16 15:05:00 BASE 15.91 288 19.60 289 -0.8 100 -0.8 3 0 977.7 NA 0.0000 -SN BR 9999 1280 0 0 0
2019/06/16 15:06:00 BASE 16.12 290 19.60 289 -0.8 100 -0.8 3 0 977.7 NA 0.0000 -SN BR 9999 1280 2820 0 0
2019/06/16 15:07:00 BASE 17.89 288 24.18 279 -0.8 100 -0.8 3 0 977.6 NA 0.0000 -SN BR 9999 1250 0 0 0
2019/06/16 15:08:00 BASE 17.95 285 24.18 279 -0.8 100 -0.8 2 0 977.7 NA 0.0000 -SN BR 9999 0 0 0 4230
2019/06/16 15:09:00 BASE 17.04 283 24.18 273 -0.8 100 -0.8 2 0 977.7 NA 0.0000 -SN 9999 1380 0 0 0
2019/06/16 15:10:00 BASE 18.02 283 24.18 273 -0.8 100 -0.8 2 0 977.7 NA 0.0000 9999 820 3450 0 0
2019/06/16 15:11:00 BASE 18.78 282 24.18 273 -0.8 100 -0.8 3 0 977.7 NA 0.0000 9999 1310 0 0 0
2019/06/16 15:12:00 BASE 19.46 283 24.18 273 -0.8 100 -0.8 3 0 977.7 NA 0.0000 9999 1440 0 0 0
2019/06/16 15:13:00 BASE 20.18 282 24.18 273 -0.8 100 -0.8 3 0 977.7 NA 0.0000 9999 4170 0 0 0
2019/06/16 15:14:00 BASE 20.37 280 24.18 273 -0.8 100 -0.8 3 0 977.7 NA 0.0000 9999 2720 0 0 0
2019/06/16 15:15:00 BASE 20.36 282 24.18 273 -0.8 100 -0.8 4 0 977.7 NA 0.0000 9999 2790 4360 0 0
2019/06/16 15:16:00 BASE 20.17 281 24.18 273 -0.8 100 -0.8 4 0 977.7 NA 0.0000 9999 2690 0 0 0
2019/06/16 15:17:00 BASE 19.12 279 24.18 273 -0.8 100 -0.8 4 0 977.8 NA 0.0000 9999 2720 4630 0 0
2019/06/16 15:18:00 BASE 17.26 279 24.18 273 -0.8 100 -0.8 4 0 977.8 NA 0.0000 9999 2690 0 0 0
2019/06/16 15:19:00 BASE 15.82 280 23.56 282 -0.8 100 -0.8 4 0 977.8 NA 0.0000 9999 4560 0 0 0
2019/06/16 15:20:00 BASE 15.74 283 23.56 282 -0.8 100 -0.8 4 0 977.9 NA 0.0000 9999 3080 4230 0 0
2019/06/16 15:21:00 BASE 16.59 284 23.56 282 -0.8 100 -0.8 4 0 977.8 NA 0.0000 9999 2690 4170 0 0
2019/06/16 15:22:00 BASE 17.54 283 23.56 282 -0.8 100 -0.8 4 0 977.9 NA 0.0000 9999 2690 4300 0 0
2019/06/16 15:23:00 BASE 17.42 281 23.56 282 -0.8 100 -0.8 4 0 977.9 NA 0.0000 9999 2820 4300 0 0
2019/06/16 15:24:00 BASE 16.18 280 23.56 282 -0.8 100 -0.8 4 0 977.9 NA 0.0000 9999 4300 0 0 0
2019/06/16 15:25:00 BASE 16.36 279 22.17 269 -0.8 100 -0.8 4 0 977.9 NA 0.0000 9999 4270 0 0 0
2019/06/16 15:26:00 BASE 17.33 281 21.30 272 -0.8 100 -0.8 4 0 978.0 NA 0.0000 9999 4300 0 0 0
2019/06/16 15:27:00 BASE 18.52 285 22.07 279 -0.8 100 -0.8 4 0 977.9 NA 0.0000 9999 4360 0 0 0
2019/06/16 15:28:00 BASE 18.42 286 22.07 279 -0.8 100 -0.8 5 0 977.9 NA 0.0000 9999 4300 0 0 0
2019/06/16 15:29:00 BASE 16.04 288 22.07 279 -0.8 100 -0.8 5 0 978.1 NA 0.0000 9999 4330 0 0 0
2019/06/16 15:30:00 BASE 14.92 287 22.07 279 -0.8 100 -0.8 5 0 978.1 NA 0.0000 9999 4360 0 0 0
2019/06/16 15:31:00 BASE 16.00 285 22.07 279 -0.8 100 -0.8 5 0 978.1 NA 0.0000 9999 4360 0 0 0
2019/06/16 15:32:00 BASE 18.26 285 22.22 280 -0.8 100 -0.8 5 0 978.0 NA 0.0000 9999 4100 0 0 0
2019/06/16 15:33:00 BASE 16.91 284 22.22 280 -0.8 100 -0.8 5 0 978.1 NA 0.0000 9999 4230 0 0 0
2019/06/16 15:34:00 BASE 14.88 284 22.22 280 -0.8 100 -0.8 5 0 978.1 NA 0.0000 9999 4200 0 0 0
2019/06/16 15:35:00 BASE 16.50 286 22.22 280 -0.8 100 -0.8 5 0 978.1 NA 0.0000 9999 4200 0 0 0
2019/06/16 15:36:00 BASE 17.02 287 22.22 280 -0.8 100 -0.8 5 0 978.2 NA 0.0000 9999 3580 0 0 0
2019/06/16 15:37:00 BASE 16.23 288 22.22 280 -0.8 100 -0.8 5 0 978.2 NA 0.0000 9999 3970 0 0 0
2019/06/16 15:38:00 BASE 16.39 288 22.22 280 -0.8 100 -0.8 5 0 978.2 NA 0.0000 9999 3870 0 0 0
2019/06/16 15:39:00 BASE 17.09 288 22.22 280 -0.8 100 -0.8 5 0 978.2 NA 0.0000 9999 3670 0 0 0
2019/06/16 15:40:00 BASE 17.59 290 22.22 280 -0.8 100 -0.8 5 0 978.2 NA 0.0000 9999 3810 0 0 0
2019/06/16 15:41:00 BASE 17.62 292 22.22 280 -0.8 100 -0.8 4 0 978.3 NA 0.0000 9999 3770 0 0 0
2019/06/16 15:42:00 BASE 17.76 292 20.78 290 -0.7 100 -0.7 5 0 978.2 NA 0.0000 9999 3840 0 0 0
2019/06/16 15:43:00 BASE 17.36 293 20.78 290 -0.7 100 -0.7 5 0 978.3 NA 0.0000 9999 3970 0 0 0
2019/06/16 15:44:00 BASE 16.47 295 20.78 290 -0.7 100 -0.7 5 0 978.4 NA 0.0000 9999 4000 0 0 0
2019/06/16 15:45:00 BASE 15.84 296 20.73 280 -0.7 100 -0.7 5 0 978.4 NA 0.0000 9999 3970 0 0 0
2019/06/16 15:46:00 BASE 15.35 295 20.73 280 -0.7 100 -0.7 5 0 978.4 NA 0.0000 9999 3970 0 0 0
2019/06/16 15:47:00 BASE 15.45 296 20.73 280 -0.7 100 -0.7 5 0 978.4 NA 0.0000 9999 4000 0 0 0
2019/06/16 15:48:00 BASE 16.08 298 20.42 292 -0.7 100 -0.7 5 0 978.4 NA 0.0000 9999 3970 0 0 0
2019/06/16 15:49:00 BASE 17.08 299 20.42 292 -0.7 100 -0.7 5 0 978.4 NA 0.0000 9999 4040 0 0 0
2019/06/16 15:50:00 BASE 16.89 298 20.42 292 -0.7 100 -0.7 5 0 978.4 NA 0.0000 9999 2560 0 0 0
2019/06/16 15:51:00 BASE 15.52 297 20.42 292 -0.7 100 -0.7 5 0 978.5 NA 0.0000 9999 2820 4100 0 0
2019/06/16 15:52:00 BASE 14.25 296 20.42 292 -0.7 100 -0.7 5 0 978.6 NA 0.0000 9999 2850 3770 0 0
2019/06/16 15:53:00 BASE 13.80 296 20.42 292 -0.7 100 -0.7 5 0 978.6 NA 0.0000 9999 2760 0 0 0
2019/06/16 15:54:00 BASE 13.93 296 18.88 297 -0.7 100 -0.7 5 0 978.6 NA 0.0000 9999 2690 4230 0 0
2019/06/16 15:55:00 BASE 13.95 294 18.88 297 -0.7 100 -0.7 5 0 978.6 NA 0.0000 9999 2300 2790 0 0
2019/06/16 15:56:00 BASE 14.82 293 18.88 297 -0.7 100 -0.7 5 0 978.6 NA 0.0000 9999 2690 0 0 0
2019/06/16 15:57:00 BASE 15.34 296 18.88 297 -0.7 100 -0.7 5 0 978.7 NA 0.0000 9999 4100 0 0 0
2019/06/16 15:58:00 BASE 15.74 299 18.88 297 -0.7 100 -0.7 5 0 978.7 NA 0.0000 9999 2690 4270 0 0
2019/06/16 15:59:00 BASE 15.62 298 18.47 299 -0.7 100 -0.7 6 0 978.7 NA 0.0000 9999 2560 0 0 0
2019/06/16 16:00:00 BASE 15.06 296 18.16 289 -0.6 100 -0.6 6 0 978.8 NA 0.0000 9999 2560 4100 0 0
2019/06/16 16:01:00 BASE 16.21 295 18.78 290 -0.6 100 -0.6 6 0 978.7 NA 0.0000 9999 2560 4070 0 0
2019/06/16 16:02:00 BASE 15.64 297 18.78 290 -0.6 100 -0.6 7 0 978.8 NA 0.0000 9999 4300 0 0 0
2019/06/16 16:03:00 BASE 14.31 298 18.78 290 -0.6 100 -0.6 7 0 978.8 NA 0.0000 9999 4130 0 0 0
2019/06/16 16:04:00 BASE 14.53 296 18.78 290 -0.6 100 -0.6 8 0 978.7 NA 0.0000 9999 4400 0 0 0
2019/06/16 16:05:00 BASE 14.70 296 18.78 290 -0.6 100 -0.6 8 0 978.8 NA 0.0000 9999 4130 0 0 0
2019/06/16 16:06:00 BASE 14.34 297 18.78 290 -0.6 100 -0.6 8 0 978.8 NA 0.0000 9999 3640 4560 0 0
2019/06/16 16:07:00 BASE 14.59 298 18.78 290 -0.6 100 -0.6 8 0 978.7 NA 0.0000 9999 4130 0 0 0
2019/06/16 16:08:00 BASE 15.60 297 18.78 290 -0.6 100 -0.6 8 0 978.8 NA 0.0000 9999 4000 0 0 0
2019/06/16 16:09:00 BASE 15.33 296 18.78 290 -0.6 100 -0.6 8 0 978.8 NA 0.0000 9999 4300 0 0 0
2019/06/16 16:10:00 BASE 14.58 296 18.78 290 -0.6 100 -0.6 7 0 978.9 NA 0.0000 9999 4400 0 0 0
2019/06/16 16:11:00 BASE 14.41 296 17.65 295 -0.6 100 -0.6 7 0 978.9 NA 0.0000 9999 4630 0 0 0
2019/06/16 16:12:00 BASE 15.42 295 18.52 291 -0.6 100 -0.6 7 0 978.8 NA 0.0000 9999 4170 0 0 0
2019/06/16 16:13:00 BASE 15.54 296 18.52 291 -0.6 100 -0.6 6 0 978.9 NA 0.0000 9999 4270 0 0 0
2019/06/16 16:14:00 BASE 14.44 298 18.52 291 -0.6 100 -0.6 6 0 978.9 NA 0.0000 9999 4170 0 0 0
2019/06/16 16:15:00 BASE 14.30 299 18.52 291 -0.6 100 -0.6 7 0 978.9 NA 0.0000 9999 4200 0 0 0
2019/06/16 16:16:00 BASE 14.03 297 18.52 291 -0.6 100 -0.6 7 0 979.0 NA 0.0000 9999 4070 0 0 0
2019/06/16 16:17:00 BASE 13.69 298 18.52 291 -0.6 100 -0.6 7 0 979.0 NA 0.0000 9999 4040 0 0 0
2019/06/16 16:18:00 BASE 13.92 296 18.52 291 -0.6 100 -0.6 7 0 979.0 NA 0.0000 9999 4200 0 0 0
2019/06/16 16:19:00 BASE 13.02 294 18.52 291 -0.6 100 -0.6 8 0 979.1 NA 0.0000 9999 4230 0 0 0
2019/06/16 16:20:01 BASE 12.52 298 18.52 291 -0.6 100 -0.6 8 0 979.0 NA 0.0000 9999 4330 0 0 0
2019/06/16 16:21:01 BASE 13.03 302 18.52 291 -0.6 100 -0.6 8 0 979.0 NA 0.0000 9999 4270 0 0 0
2019/06/16 16:22:00 BASE 13.59 301 17.44 295 -0.6 100 -0.6 8 0 979.0 NA 0.0000 9999 4230 0 0 0
2019/06/16 16:23:00 BASE 13.65 300 17.18 291 -0.6 100 -0.6 7 0 979.1 NA 0.0000 9999 4040 0 0 0
2019/06/16 16:24:00 BASE 12.58 299 17.18 291 -0.6 100 -0.6 7 0 979.1 NA 0.0000 9999 3900 0 0 0
2019/06/16 16:25:00 BASE 12.85 296 17.18 291 -0.6 100 -0.6 8 0 979.1 NA 0.0000 9999 3810 0 0 0
2019/06/16 16:26:00 BASE 14.06 295 18.98 291 -0.6 100 -0.6 8 0 979.1 NA 0.0000 9999 3970 0 0 0
2019/06/16 16:27:01 BASE 14.38 296 18.98 291 -0.6 100 -0.6 9 0 979.1 NA 0.0000 9999 4230 0 0 0
2019/06/16 16:28:00 BASE 14.18 297 18.98 291 -0.6 100 -0.6 9 0 979.1 NA 0.0000 9999 4270 0 0 0
2019/06/16 16:29:00 BASE 14.60 297 18.98 291 -0.6 100 -0.6 9 0 979.2 NA 0.0000 9999 4300 0 0 0
2019/06/16 16:30:00 BASE 14.97 297 18.98 291 -0.6 100 -0.6 9 0 979.2 NA 0.0000 9999 4170 0 0 0
2019/06/16 16:31:00 BASE 15.43 297 18.98 291 -0.6 100 -0.6 9 0 979.2 NA 0.0000 9999 4040 0 0 0
2019/06/16 16:32:00 BASE 14.89 296 18.98 291 -0.6 100 -0.6 9 0 979.2 NA 0.0000 9999 4170 0 0 0
2019/06/16 16:33:00 BASE 14.59 300 18.98 291 -0.6 100 -0.6 9 0 979.2 NA 0.0000 9999 4300 0 0 0
2019/06/16 16:34:01 BASE 15.11 301 18.98 291 -0.6 100 -0.6 9 0 979.2 NA 0.0000 9999 4300 0 0 0
2019/06/16 16:35:00 BASE 14.68 299 18.98 291 -0.6 100 -0.6 9 0 979.3 NA 0.0000 9999 4460 0 0 0
2019/06/16 16:36:00 BASE 14.44 299 17.65 286 -0.6 100 -0.6 9 0 979.2 NA 0.0000 9999 4530 0 0 0
2019/06/16 16:37:00 BASE 14.45 298 17.44 293 -0.6 100 -0.6 9 0 979.3 NA 0.0000 9999 4490 0 0 0
2019/06/16 16:38:00 BASE 14.15 298 17.44 293 -0.6 100 -0.6 9 0 979.3 NA 0.0000 9999 4590 0 0 0
2019/06/16 16:39:00 BASE 14.16 297 17.44 293 -0.6 100 -0.6 9 0 979.3 NA 0.0000 9999 4660 0 0 0
2019/06/16 16:40:01 BASE 14.62 297 17.54 296 -0.6 100 -0.6 9 0 979.3 NA 0.0000 9999 4690 0 0 0
2019/06/16 16:41:00 BASE 14.72 301 17.54 296 -0.6 100 -0.6 10 0 979.4 NA 0.0000 9999 4720 0 0 0
2019/06/16 16:42:00 BASE 14.54 303 17.54 296 -0.6 100 -0.6 10 0 979.4 NA 0.0000 9999 4790 0 0 0
2019/06/16 16:43:00 BASE 14.42 303 17.54 296 -0.6 100 -0.6 10 0 979.3 NA 0.0000 9999 4820 0 0 0
2019/06/16 16:44:00 BASE 14.18 301 17.54 296 -0.6 100 -0.6 10 0 979.4 NA 0.0000 9999 4890 0 0 0
2019/06/16 16:45:01 BASE 14.20 301 17.54 296 -0.6 100 -0.6 10 0 979.4 NA 0.0000 9999 4890 0 0 0
2019/06/16 16:46:00 BASE 14.64 300 17.75 303 -0.6 100 -0.6 9 0 979.4 NA 0.0000 9999 4950 0 0 0
2019/06/16 16:47:00 BASE 15.02 299 17.75 303 -0.6 100 -0.6 9 0 979.4 NA 0.0000 9999 4950 0 0 0
2019/06/16 16:48:01 BASE 14.77 299 17.75 303 -0.6 100 -0.6 9 0 979.4 NA 0.0000 9999 4990 0 0 0
2019/06/16 16:49:00 BASE 14.14 301 17.75 303 -0.6 100 -0.6 8 0 979.5 NA 0.0000 9999 4990 0 0 0
2019/06/16 16:50:00 BASE 14.37 303 17.75 303 -0.6 100 -0.6 8 0 979.4 NA 0.0000 9999 5050 0 0 0
2019/06/16 16:51:00 BASE 14.99 299 18.62 281 -0.6 100 -0.6 7 0 979.5 NA 0.0000 9999 5050 0 0 0
2019/06/16 16:52:00 BASE 14.71 298 18.62 281 -0.6 100 -0.6 8 0 979.5 NA 0.0000 9999 5120 0 0 0
2019/06/16 16:53:00 BASE 13.94 300 18.62 281 -0.6 100 -0.6 8 0 979.6 NA 0.0000 9999 5120 0 0 0
2019/06/16 16:54:00 BASE 14.88 300 18.62 281 -0.6 100 -0.6 8 0 979.5 NA 0.0000 9999 5120 0 0 0
2019/06/16 16:55:01 BASE 15.83 297 18.62 281 -0.6 100 -0.6 9 0 979.5 NA 0.0000 9999 5150 0 0 0
2019/06/16 16:56:00 BASE 14.92 297 18.62 281 -0.6 100 -0.6 9 0 979.6 NA 0.0000 9999 5150 0 0 0
2019/06/16 16:57:00 BASE 15.26 298 18.62 281 -0.6 100 -0.6 9 0 979.6 NA 0.0000 9999 5150 0 0 0
2019/06/16 16:58:00 BASE 15.51 297 18.62 281 -0.6 100 -0.6 9 0 979.6 NA 0.0000 9999 5180 0 0 0
2019/06/16 16:59:00 BASE 14.85 296 18.62 281 -0.6 100 -0.6 9 0 979.6 NA 0.0000 9999 5180 0 0 0
2019/06/16 17:00:00 BASE 14.49 297 18.62 281 -0.6 100 -0.6 9 0 979.7 NA 0.0000 9999 5180 0 0 0
2019/06/16 17:01:00 BASE 14.80 299 18.26 293 -0.6 100 -0.6 9 0 979.6 NA 0.0000 9999 5180 0 0 0
2019/06/16 17:02:00 BASE 14.61 299 18.26 293 -0.6 100 -0.6 10 0 979.7 NA 0.0000 9999 5180 0 0 0
2019/06/16 17:03:00 BASE 13.35 301 18.26 293 -0.6 100 -0.6 10 0 979.7 NA 0.0000 9999 5220 0 0 0
2019/06/16 17:04:00 BASE 13.42 302 17.44 310 -0.6 100 -0.6 10 0 979.6 NA 0.0000 9999 5250 0 0 0
2019/06/16 17:05:01 BASE 12.85 301 17.44 310 -0.6 100 -0.6 9 0 979.7 NA 0.0000 9999 5280 0 0 0
2019/06/16 17:06:00 BASE 12.54 302 17.44 310 -0.6 100 -0.6 9 0 979.6 NA 0.0000 9999 5280 0 0 0
2019/06/16 17:07:00 BASE 12.90 303 17.08 290 -0.6 100 -0.6 10 0 979.7 NA 0.0000 9999 5250 0 0 0
2019/06/16 17:08:00 BASE 13.25 304 17.08 290 -0.6 100 -0.6 10 0 979.6 NA 0.0000 9999 5220 0 0 0
2019/06/16 17:09:00 BASE 13.80 307 17.08 290 -0.6 100 -0.6 10 0 979.6 NA 0.0000 9999 5280 0 0 0
2019/06/16 17:10:00 BASE 14.17 307 17.08 290 -0.6 100 -0.6 11 0 979.6 NA 0.0000 9999 5350 0 0 0
2019/06/16 17:11:00 BASE 14.06 306 16.20 306 -0.6 100 -0.6 12 0 979.7 NA 0.0000 9999 5320 0 0 0
2019/06/16 17:12:00 BASE 13.31 306 16.20 306 -0.6 100 -0.6 11 0 979.7 NA 0.0000 9999 5350 0 0 0
2019/06/16 17:13:00 BASE 13.57 306 16.20 306 -0.6 100 -0.6 11 0 979.8 NA 0.0000 9999 5280 0 0 0
2019/06/16 17:14:00 BASE 13.98 304 16.20 306 -0.6 100 -0.6 11 0 979.8 NA 0.0000 9999 5320 0 0 0
2019/06/16 17:15:00 BASE 13.84 301 16.20 306 -0.6 100 -0.6 11 0 979.8 NA 0.0000 9999 0 0 0 1210
2019/06/16 17:16:00 BASE 13.21 299 16.20 306 -0.7 100 -0.7 11 0 979.8 NA 0.0000 9999 5280 0 0 0
2019/06/16 17:17:00 BASE 13.20 301 16.20 306 -0.7 100 -0.7 10 0 979.8 NA 0.0000 9999 5280 0 0 0
2019/06/16 17:18:00 BASE 14.68 304 16.82 303 -0.7 100 -0.7 10 0 979.8 NA 0.0000 9999 5320 0 0 0
2019/06/16 17:19:00 BASE 15.04 305 16.82 303 -0.7 100 -0.7 10 0 979.8 NA 0.0000 9999 5320 0 0 0
2019/06/16 17:20:00 BASE 14.40 304 16.82 303 -0.7 100 -0.7 10 0 979.8 NA 0.0000 9999 5320 0 0 0
2019/06/16 17:21:00 BASE 15.05 302 17.23 301 -0.7 100 -0.7 10 0 979.8 NA 0.0000 9999 5320 0 0 0
2019/06/16 17:22:00 BASE 15.45 300 17.23 301 -0.7 100 -0.7 10 0 979.8 NA 0.0000 9999 5350 0 0 0
2019/06/16 17:23:00 BASE 15.22 300 17.75 291 -0.7 100 -0.7 9 0 979.8 NA 0.0000 9999 5350 0 0 0
2019/06/16 17:24:00 BASE 14.81 299 17.75 291 -0.7 100 -0.7 9 0 979.8 NA 0.0000 9999 5320 0 0 0
2019/06/16 17:25:00 BASE 14.90 301 17.75 291 -0.7 100 -0.7 9 0 979.8 NA 0.0000 9999 5350 0 0 0
2019/06/16 17:26:00 BASE 15.04 302 17.75 291 -0.7 100 -0.7 10 0 979.8 NA 0.0000 9999 5350 0 0 0
2019/06/16 17:27:00 BASE 14.38 297 17.75 291 -0.7 100 -0.8 10 0 979.8 NA 0.0000 9999 5350 0 0 0
2019/06/16 17:28:00 BASE 14.29 297 17.75 291 -0.7 99 -0.8 11 0 979.8 NA 0.0000 9999 5320 0 0 0
2019/06/16 17:29:00 BASE 14.01 300 17.75 291 -0.7 99 -0.8 12 0 979.8 NA 0.0000 9999 5320 0 0 0
2019/06/16 17:30:00 BASE 14.17 298 17.75 291 -0.7 99 -0.8 14 0 979.8 NA 0.0000 9999 5280 0 0 0
2019/06/16 17:31:00 BASE 14.27 298 17.75 291 -0.7 99 -0.9 15 0 979.8 NA 0.0000 9999 5510 0 0 0
2019/06/16 17:32:00 BASE 13.50 301 17.75 291 -0.7 98 -0.9 15 0 979.9 NA 0.0000 9999 5410 0 0 0
2019/06/16 17:33:00 BASE 13.91 299 16.93 306 -0.7 98 -0.9 16 0 979.9 NA 0.0000 9999 5380 0 0 0
2019/06/16 17:34:00 BASE 14.41 298 16.93 306 -0.7 98 -0.9 17 0 979.9 NA 0.0000 9999 5540 0 0 0
2019/06/16 17:35:00 BASE 14.23 298 18.31 289 -0.7 98 -0.9 17 0 979.9 NA 0.0000 9999 5870 0 0 0
2019/06/16 17:36:00 BASE 14.64 296 18.31 289 -0.7 99 -0.9 18 0 979.9 NA 0.0000 9999 5870 0 0 0
2019/06/16 17:37:00 BASE 14.95 296 18.31 289 -0.7 99 -0.9 18 0 979.9 NA 0.0000 9999 5840 0 0 0
2019/06/16 17:38:00 BASE 13.76 298 18.31 289 -0.7 99 -0.8 18 0 979.9 NA 0.0000 9999 5740 0 0 0
2019/06/16 17:39:00 BASE 13.19 298 18.31 289 -0.7 99 -0.8 18 0 979.9 NA 0.0000 9999 5680 0 0 0
2019/06/16 17:40:00 BASE 14.35 297 18.31 289 -0.7 99 -0.8 17 0 979.9 NA 0.0000 9999 5640 0 0 0
2019/06/16 17:41:00 BASE 14.53 298 18.31 289 -0.7 99 -0.8 16 0 979.9 NA 0.0000 9999 5640 0 0 0
2019/06/16 17:42:00 BASE 13.95 298 18.31 289 -0.7 99 -0.8 15 0 979.9 NA 0.0000 9999 5610 0 0 0
2019/06/16 17:43:00 BASE 13.75 296 18.31 289 -0.7 99 -0.8 14 0 979.9 NA 0.0000 9999 5540 0 0 0
2019/06/16 17:44:00 BASE 14.39 298 18.31 289 -0.7 99 -0.8 14 0 979.9 NA 0.0000 9999 5480 0 0 0
2019/06/16 17:45:00 BASE 15.16 299 17.75 294 -0.7 99 -0.8 13 0 979.9 NA 0.0000 9999 5410 0 0 0
2019/06/16 17:46:00 BASE 15.01 299 16.67 301 -0.7 99 -0.8 13 0 979.9 NA 0.0000 9999 5350 0 0 0
2019/06/16 17:47:00 BASE 15.19 300 17.18 304 -0.7 99 -0.8 13 0 979.9 NA 0.0000 9999 5280 0 0 0
2019/06/16 17:48:00 BASE 15.68 302 17.18 300 -0.7 99 -0.8 13 0 979.9 NA 0.0000 9999 5150 0 0 0
2019/06/16 17:49:00 BASE 16.40 301 19.60 301 -0.7 99 -0.8 13 0 979.9 NA 0.0000 9999 4990 0 0 0
2019/06/16 17:50:00 BASE 16.54 297 19.60 301 -0.7 99 -0.8 13 0 979.9 NA 0.0000 9999 4760 0 0 0
2019/06/16 17:51:00 BASE 15.66 298 19.60 301 -0.7 99 -0.8 12 0 980.0 NA 0.0000 9999 4490 0 0 0
2019/06/16 17:52:00 BASE 16.04 297 19.60 301 -0.7 99 -0.8 12 0 979.9 NA 0.0000 9999 4530 0 0 0
2019/06/16 17:53:00 BASE 16.10 297 19.60 301 -0.7 99 -0.8 11 0 980.0 NA 0.0000 9999 2130 4130 0 0
2019/06/16 17:54:00 BASE 15.09 299 19.60 301 -0.7 99 -0.8 10 0 980.0 NA 0.0000 9999 2070 4200 0 0
2019/06/16 17:55:00 BASE 14.73 298 19.60 301 -0.7 99 -0.8 10 0 980.0 NA 0.0000 9999 2530 0 0 0
2019/06/16 17:56:00 BASE 15.04 297 19.60 301 -0.7 99 -0.8 11 0 980.0 NA 0.0000 9999 2760 0 0 0
2019/06/16 17:57:00 BASE 15.38 299 19.60 301 -0.7 100 -0.8 11 0 980.0 NA 0.0000 9999 2360 0 0 0
2019/06/16 17:58:00 BASE 15.12 299 19.60 301 -0.7 100 -0.7 10 0 980.0 NA 0.0000 9999 2950 3610 0 0
2019/06/16 17:59:00 BASE 14.59 298 18.26 294 -0.7 100 -0.7 10 0 980.0 NA 0.0000 9999 2200 3250 0 0
2019/06/16 18:00:00 BASE 15.73 296 19.60 293 -0.7 100 -0.7 11 0 979.9 NA 0.0000 9999 2330 3380 0 0
2019/06/16 18:01:00 BASE 17.75 296 20.22 305 -0.7 100 -0.7 12 0 979.9 NA 0.0000 9999 3350 0 0 0
2019/06/16 18:02:00 BASE 18.26 297 20.27 287 -0.7 100 -0.7 12 0 979.9 NA 0.0000 9999 3150 0 0 0
2019/06/16 18:03:00 BASE 18.29 295 21.50 291 -0.7 100 -0.7 12 0 979.9 NA 0.0000 9999 2430 3280 0 0
2019/06/16 18:04:00 BASE 18.13 293 21.50 291 -0.7 100 -0.7 12 0 980.0 NA 0.0000 9999 3380 0 0 0
2019/06/16 18:05:00 BASE 17.56 292 21.50 291 -0.8 100 -0.8 11 0 980.0 NA 0.0000 9999 3510 0 0 0
2019/06/16 18:06:00 BASE 16.62 293 21.50 291 -0.8 100 -0.8 10 0 980.1 NA 0.0000 9999 2070 3610 0 0
2019/06/16 18:07:00 BASE 17.21 297 21.50 291 -0.8 100 -0.8 9 0 979.9 NA 0.0000 9999 3710 0 0 0
2019/06/16 18:08:00 BASE 18.35 295 21.50 291 -0.8 100 -0.8 8 0 979.9 NA 0.0000 9999 4040 0 0 0
2019/06/16 18:09:00 BASE 18.08 292 21.50 291 -0.8 100 -0.8 8 0 980.0 NA 0.0000 9999 2100 4300 0 0
2019/06/16 18:10:00 BASE 17.20 293 21.50 291 -0.8 100 -0.8 7 0 980.0 NA 0.0000 9999 1940 4660 0 0
2019/06/16 18:11:00 BASE 17.61 292 21.50 291 -0.8 100 -0.8 7 0 980.0 NA 0.0000 9999 1710 4760 0 0
2019/06/16 18:12:00 BASE 18.05 293 21.50 291 -0.8 100 -0.8 6 0 980.0 NA 0.0000 9999 5150 0 0 0
2019/06/16 18:13:00 BASE 16.54 296 21.14 287 -0.8 100 -0.8 6 0 980.1 NA 0.0000 9999 1900 5350 0 0
2019/06/16 18:14:00 BASE 16.61 297 21.14 287 -0.8 100 -0.8 6 0 980.1 NA 0.0000 9999 2000 6070 0 0
2019/06/16 18:15:00 BASE 17.85 296 21.14 287 -0.8 100 -0.8 6 0 980.1 NA 0.0000 9999 2070 0 0 0
2019/06/16 18:16:00 BASE 17.18 295 21.14 287 -0.8 100 -0.8 6 0 980.2 NA 0.0000 9999 1710 4660 0 0
2019/06/16 18:17:00 BASE 16.01 296 21.14 287 -0.8 100 -0.8 6 0 980.1 NA 0.0000 9999 1710 2760 0 0
2019/06/16 18:18:00 BASE 15.71 298 21.14 287 -0.8 100 -0.8 6 0 980.2 NA 0.0000 9999 1840 2460 0 0
2019/06/16 18:19:00 BASE 16.97 297 20.27 302 -0.8 100 -0.8 6 0 980.1 NA 0.0000 9999 2030 0 0 0
2019/06/16 18:20:00 BASE 18.32 294 20.47 294 -0.9 100 -0.9 7 0 980.1 NA 0.0000 9999 1840 5250 0 0
2019/06/16 18:21:00 BASE 17.33 297 20.47 294 -0.9 100 -0.9 7 0 980.2 NA 0.0000 9999 2000 0 0 0
2019/06/16 18:22:00 BASE 16.60 299 20.47 294 -0.9 100 -0.9 7 0 980.2 NA 0.0000 9999 2760 6200 0 0
2019/06/16 18:23:00 BASE 16.06 301 20.47 294 -0.9 100 -0.9 6 0 980.2 NA 0.0000 9999 2330 0 0 0
2019/06/16 18:24:00 BASE 16.85 303 20.94 303 -0.9 100 -0.9 5 0 980.1 NA 0.0000 9999 1770 0 0 0
2019/06/16 18:25:00 BASE 17.70 302 20.94 303 -0.9 100 -0.9 5 0 980.1 NA 0.0000 9999 1800 0 0 0
2019/06/16 18:26:00 BASE 17.50 302 20.94 303 -0.9 100 -0.9 4 0 980.1 NA 0.0000 9999 1610 0 0 0
2019/06/16 18:27:00 BASE 16.71 303 20.94 303 -0.9 100 -0.9 4 0 980.2 NA 0.0000 9999 1640 2260 0 0
2019/06/16 18:28:00 BASE 16.05 303 20.94 303 -0.9 100 -0.9 3 0 980.2 NA 0.0000 9999 1570 0 0 0
2019/06/16 18:29:00 BASE 17.80 302 20.94 303 -0.9 100 -0.9 3 0 980.1 NA 0.0000 9999 2130 6230 0 0
2019/06/16 18:30:00 BASE 18.09 302 20.94 303 -0.9 100 -0.9 3 0 980.2 NA 0.0000 9999 1940 0 0 0
2019/06/16 18:31:00 BASE 16.97 303 20.94 303 -1.0 100 -1.0 2 0 980.2 NA 0.0000 9999 2070 6000 0 0
2019/06/16 18:32:00 BASE 17.17 304 20.94 303 -1.0 100 -1.0 2 0 980.2 NA 0.0000 9999 6000 0 0 0
2019/06/16 18:33:00 BASE 17.03 303 20.94 303 -1.0 100 -1.0 2 0 980.2 NA 0.0000 9999 6000 0 0 0
2019/06/16 18:34:00 BASE 16.19 303 20.01 304 -1.0 100 -1.0 1 0 980.2 NA 0.0000 9999 6140 0 0 0
2019/06/16 18:35:00 BASE 16.39 306 20.01 304 -1.0 100 -1.0 1 0 980.2 NA 0.0000 9999 2100 6100 0 0
2019/06/16 18:36:00 BASE 16.35 306 20.01 304 -1.0 100 -1.0 1 0 980.2 NA 0.0000 9999 1900 0 0 0
2019/06/16 18:37:00 BASE 15.68 304 20.01 304 -1.0 100 -1.0 1 0 980.2 NA 0.0000 9999 2850 6040 0 0
2019/06/16 18:38:00 BASE 15.28 303 20.01 304 -1.0 100 -1.0 1 0 980.3 NA 0.0000 9999 2330 6040 0 0
2019/06/16 18:39:00 BASE 14.79 304 19.81 307 -1.0 100 -1.0 1 0 980.3 NA 0.0000 9999 2660 0 0 0
2019/06/16 18:40:00 BASE 14.69 304 19.81 307 -1.0 100 -1.0 1 0 980.3 NA 0.0000 9999 1970 0 0 0
2019/06/16 18:41:00 BASE 14.86 305 19.81 307 -1.0 100 -1.0 1 0 980.3 NA 0.0000 9999 1740 5970 0 0
2019/06/16 18:42:00 BASE 14.20 303 18.47 313 -1.0 100 -1.0 1 0 980.3 NA 0.0000 9999 5910 0 0 0
2019/06/16 18:43:00 BASE 13.38 301 18.47 313 -1.0 100 -1.0 1 0 980.4 NA 0.0000 9999 5810 0 0 0
2019/06/16 18:44:00 BASE 13.43 300 18.47 313 -1.1 100 -1.1 1 0 980.4 NA 0.0000 9999 1970 5840 0 0
2019/06/16 18:45:00 BASE 14.02 301 17.85 299 -1.1 100 -1.1 0 0 980.3 NA 0.0000 9999 5740 0 0 0
2019/06/16 18:46:00 BASE 14.11 304 17.18 304 -1.1 100 -1.1 1 0 980.3 NA 0.0000 9999 5840 0 0 0
2019/06/16 18:47:00 BASE 14.84 303 17.18 299 -1.1 100 -1.1 0 0 980.3 NA 0.0000 9999 5810 6270 0 0
2019/06/16 18:48:00 BASE 15.78 303 17.18 299 -1.1 100 -1.1 0 0 980.3 NA 0.0000 9999 5910 0 0 0
2019/06/16 18:49:00 BASE 14.56 300 17.18 299 -1.1 100 -1.1 0 0 980.4 NA 0.0000 9999 5840 0 0 0
2019/06/16 18:50:00 BASE 13.88 298 17.18 299 -1.1 100 -1.1 0 0 980.4 NA 0.0000 9999 5740 0 0 0
2019/06/16 18:51:00 BASE 13.73 299 17.18 299 -1.1 100 -1.1 0 0 980.4 NA 0.0000 9999 5740 0 0 0
2019/06/16 18:52:00 BASE 13.88 299 17.18 299 -1.1 100 -1.1 0 0 980.4 NA 0.0000 9999 1900 5870 0 0
2019/06/16 18:53:00 BASE 14.36 299 17.18 299 -1.1 100 -1.1 0 0 980.4 NA 0.0000 9999 5710 0 0 0
2019/06/16 18:54:00 BASE 14.23 302 17.18 299 -1.1 100 -1.1 0 0 980.4 NA 0.0000 9999 5770 0 0 0
2019/06/16 18:55:00 BASE 14.66 303 17.18 299 -1.1 100 -1.1 0 0 980.4 NA 0.0000 9999 6140 0 0 0
2019/06/16 18:56:00 BASE 14.59 303 17.18 299 -1.1 100 -1.1 0 0 980.4 NA 0.0000 9999 6370 0 0 0
2019/06/16 18:57:00 BASE 13.79 304 16.67 300 -1.1 100 -1.1 0 0 980.4 NA 0.0000 9999 6430 0 0 0
2019/06/16 18:58:00 BASE 13.31 304 16.31 302 -1.0 100 -1.0 0 0 980.4 NA 0.0000 9999 6400 0 0 0
2019/06/16 18:59:00 BASE 13.88 302 16.77 300 -1.1 100 -1.1 0 0 980.4 NA 0.0000 9999 6300 0 0 0
2019/06/16 19:00:00 BASE 14.83 301 16.77 300 -1.1 100 -1.1 0 0 980.4 NA 0.0000 9999 6230 0 0 0
2019/06/16 19:01:00 BASE 15.34 299 16.77 294 -1.1 100 -1.1 0 0 980.5 NA 0.0000 9999 2000 6370 0 0
2019/06/16 19:02:00 BASE 15.65 300 16.93 312 -1.1 100 -1.1 0 0 980.5 NA 0.0000 9999 1840 6460 0 0
2019/06/16 19:03:00 BASE 15.75 299 17.75 292 -1.1 100 -1.1 0 0 980.5 NA 0.0000 9999 1870 0 0 0
2019/06/16 19:04:00 BASE 15.20 297 17.75 292 -1.1 100 -1.1 0 0 980.6 NA 0.0000 9999 1840 6270 0 0
2019/06/16 19:05:00 BASE 15.03 296 19.14 297 -1.1 100 -1.1 0 0 980.6 NA 0.0000 9999 1900 3770 0 0
2019/06/16 19:06:00 BASE 15.20 295 19.14 297 -1.1 100 -1.1 0 0 980.6 NA 0.0000 9999 1900 0 0 0
2019/06/16 19:07:00 BASE 14.99 298 19.14 297 -1.1 100 -1.1 0 0 980.6 NA 0.0000 9999 1970 5380 0 0
2019/06/16 19:08:00 BASE 15.16 296 19.14 297 -1.1 100 -1.1 0 0 980.6 NA 0.0000 9999 2030 0 0 0
2019/06/16 19:09:00 BASE 16.58 292 19.14 286 -1.1 100 -1.1 0 0 980.6 NA 0.0000 9999 1740 0 0 0
2019/06/16 19:10:00 BASE 16.99 290 19.14 286 -1.1 100 -1.1 0 0 980.6 NA 0.0000 9999 1870 0 0 0
2019/06/16 19:11:00 BASE 15.42 286 19.14 286 -1.1 100 -1.1 0 0 980.7 NA 0.0000 9999 1870 0 0 0
2019/06/16 19:12:00 BASE 15.69 284 19.45 291 -1.1 100 -1.1 0 0 980.7 NA 0.0000 9999 1870 0 0 0
2019/06/16 19:13:00 BASE 15.78 287 19.45 291 -1.1 100 -1.1 0 0 980.7 NA 0.0000 9999 2130 0 0 0
2019/06/16 19:14:00 BASE 15.37 287 19.65 277 -1.1 100 -1.1 0 0 980.7 NA 0.0000 9999 2200 0 0 0
2019/06/16 19:15:00 BASE 17.39 287 22.12 284 -1.1 100 -1.1 0 0 980.7 NA 0.0000 9999 1800 2430 0 0
2019/06/16 19:16:00 BASE 16.98 289 22.12 284 -1.1 100 -1.1 0 0 980.8 NA 0.0000 9999 2430 0 0 0
2019/06/16 19:17:00 BASE 14.68 287 22.12 284 -1.1 100 -1.1 0 0 980.8 NA 0.0000 9999 2620 0 0 0
2019/06/16 19:18:00 BASE 15.04 286 22.12 284 -1.1 100 -1.1 0 0 980.8 NA 0.0000 9999 2360 0 0 0
2019/06/16 19:19:00 BASE 15.72 280 22.12 284 -1.1 100 -1.1 0 0 980.8 NA 0.0000 9999 1970 2530 0 0
2019/06/16 19:20:00 BASE 15.72 275 22.12 284 -1.1 100 -1.1 0 0 980.8 NA 0.0000 9999 1840 0 0 0
2019/06/16 19:21:00 BASE 15.73 276 22.12 284 -1.1 100 -1.1 0 0 980.8 NA 0.0000 9999 1740 0 0 0
2019/06/16 19:22:00 BASE 14.90 278 22.12 284 -1.1 100 -1.1 0 0 980.8 NA 0.0000 9999 1870 0 0 0
2019/06/16 19:23:00 BASE 14.02 279 22.12 284 -1.1 100 -1.1 0 0 980.9 NA 0.0000 9999 1840 0 0 0
2019/06/16 19:24:00 BASE 13.52 275 22.12 284 -1.0 100 -1.0 0 0 980.9 NA 0.0000 9999 1710 0 0 0
2019/06/16 19:25:01 BASE 13.52 274 19.81 282 -1.0 100 -1.0 0 0 980.8 NA 0.0000 9999 1800 0 0 0
2019/06/16 19:26:00 BASE 14.21 278 19.81 282 -1.0 100 -1.0 0 0 980.9 NA 0.0000 9999 1710 3080 0 0
2019/06/16 19:27:00 BASE 14.79 278 19.81 282 -1.0 100 -1.0 0 0 980.8 NA 0.0000 9999 1670 2490 0 0
2019/06/16 19:28:00 BASE 15.79 276 18.93 277 -1.0 100 -1.0 0 0 980.8 NA 0.0000 9999 1610 2660 0 0
2019/06/16 19:29:00 BASE 15.93 280 18.93 277 -1.0 100 -1.0 0 0 980.8 NA 0.0000 9999 1770 0 0 0
2019/06/16 19:30:00 BASE 15.12 282 18.93 277 -1.0 100 -1.0 0 0 980.9 NA 0.0000 UP 9999 1570 0 0 0
2019/06/16 19:31:00 BASE 14.82 280 20.01 282 -1.0 100 -1.0 0 0 980.9 NA 0.0000 UP 9999 3280 0 0 0
2019/06/16 19:32:00 BASE 15.66 278 20.01 282 -1.1 100 -1.1 0 0 980.9 NA 0.0000 UP 9999 1540 3450 0 0
2019/06/16 19:33:00 BASE 16.35 277 20.01 282 -1.1 100 -1.1 0 0 980.9 NA 0.0000 UP 9999 1740 3380 0 0
2019/06/16 19:34:00 BASE 16.18 276 20.01 282 -1.1 100 -1.1 0 0 980.9 NA 0.0000 UP 9999 1380 3610 0 0
2019/06/16 19:35:00 BASE 16.02 277 20.01 282 -1.1 100 -1.1 0 0 980.9 NA 0.0000 UP 9999 2530 3710 0 0
2019/06/16 19:36:00 BASE 16.67 279 20.32 268 -1.1 100 -1.1 0 0 980.9 NA 0.0000 UP 9999 2490 0 0 0
2019/06/16 19:37:00 BASE 15.88 281 20.32 268 -1.2 100 -1.2 0 0 981.0 NA 0.0000 UP 9999 2200 0 0 0
2019/06/16 19:38:00 BASE 14.32 283 20.32 268 -1.2 100 -1.2 0 0 981.0 NA 0.0000 UP 9999 1970 0 0 0
2019/06/16 19:39:00 BASE 14.17 283 20.32 268 -1.2 100 -1.2 0 0 981.0 NA 0.0000 UP 9999 1900 0 0 0
2019/06/16 19:40:00 BASE 13.70 284 20.32 268 -1.2 100 -1.2 0 0 981.0 NA 0.0000 UP 9999 0 0 0 3180
2019/06/16 19:41:00 BASE 13.83 285 20.32 268 -1.2 100 -1.2 0 0 981.0 NA 0.0000 9999 0 0 0 2360
2019/06/16 19:42:00 BASE 14.06 285 20.32 268 -1.2 100 -1.2 0 0 981.0 NA 0.0000 8000 0 0 0 2460
2019/06/16 19:43:00 BASE 13.98 284 20.32 268 -1.2 100 -1.2 0 0 981.0 NA 0.0000 UP 6000 360 0 0 0
2019/06/16 19:44:00 BASE 14.33 283 20.32 268 -1.2 100 -1.2 0 0 981.0 NA 0.0000 UP 5000 300 1670 0 0
2019/06/16 19:45:00 BASE 13.52 284 20.32 268 -1.2 100 -1.2 0 0 981.0 NA 0.0000 UP BR 4800 0 0 0 2200
2019/06/16 19:46:00 BASE 11.92 285 17.29 272 -1.3 100 -1.3 0 0 981.0 NA 0.0000 UP BR 5000 330 0 0 0
2019/06/16 19:47:00 BASE 12.95 287 17.75 281 -1.3 100 -1.3 0 0 981.0 NA 0.0000 UP BR 4900 0 0 0 2990
2019/06/16 19:48:00 BASE 14.98 286 17.75 281 -1.3 100 -1.3 0 0 980.9 NA 0.0000 UP BR 3400 0 0 0 1740
2019/06/16 19:49:00 BASE 15.07 287 17.75 281 -1.3 100 -1.3 0 0 980.9 NA 0.0000 UP BR 3500 0 0 0 1740
2019/06/16 19:50:00 BASE 16.71 290 21.09 294 -1.3 100 -1.3 0 0 980.9 NA 0.0000 UP BR 3500 0 0 0 1640
2019/06/16 19:51:00 BASE 18.44 289 21.25 286 -1.3 100 -1.3 0 0 980.9 NA 0.0000 UP BR 3000 0 0 0 1670
2019/06/16 19:52:00 BASE 18.34 290 21.25 286 -1.4 100 -1.4 0 0 981.0 NA 0.0000 UP BR 3900 0 0 0 2000
2019/06/16 19:53:00 BASE 18.55 289 22.12 282 -1.4 100 -1.4 0 0 981.0 NA 0.0000 UP BR 4100 390 0 0 0
2019/06/16 19:54:00 BASE 19.64 286 22.38 292 -1.4 100 -1.4 0 0 981.0 NA 0.0000 UP BR 4100 0 0 0 3120
2019/06/16 19:55:00 BASE 19.80 289 22.38 292 -1.5 100 -1.5 0 0 981.0 NA 0.0000 UP BR 5000 1250 0 0 0
2019/06/16 19:56:00 BASE 20.44 290 25.88 294 -1.5 100 -1.5 0 0 980.9 NA 0.0000 UP BR 9999 1280 0 0 0
2019/06/16 19:57:00 BASE 22.01 286 25.88 294 -1.5 100 -1.5 0 0 981.0 NA 0.0000 UP BR 9999 0 0 0 5870
2019/06/16 19:58:00 BASE 22.24 283 25.88 294 -1.6 100 -1.6 0 0 981.1 NA 0.0000 UP BR 9000 0 0 0 5970
2019/06/16 19:59:00 BASE 20.33 284 25.88 294 -1.6 100 -1.6 0 0 981.2 NA 0.0000 UP BR 9000 0 0 0 5540
2019/06/16 20:00:00 BASE 17.67 288 25.88 294 -1.6 100 -1.6 0 0 981.2 NA 0.0000 UP BR 9000 0 0 0 5510
2019/06/16 20:01:00 BASE 18.24 286 25.88 294 -1.7 100 -1.7 0 0 981.2 NA 0.0000 UP BR 9999 0 0 0 5250
2019/06/16 20:02:00 BASE 18.29 285 25.88 294 -1.7 100 -1.7 0 0 981.3 NA 0.0000 BR 9999 0 0 0 5180
2019/06/16 20:03:00 BASE 17.71 284 25.88 294 -1.7 100 -1.7 0 0 981.2 NA 0.0000 BR 9999 0 0 0 5680
2019/06/16 20:04:00 BASE 18.37 282 25.88 294 -1.7 100 -1.7 0 0 981.3 NA 0.0000 9999 0 0 0 6140
2019/06/16 20:05:00 BASE 19.93 282 25.88 294 -1.7 100 -1.7 0 0 981.2 NA 0.0000 9999 1250 0 0 0
2019/06/16 20:06:00 BASE 21.24 282 25.00 289 -1.7 100 -1.7 0 0 981.2 NA 0.0000 9999 0 0 0 5050
2019/06/16 20:07:00 BASE 21.03 281 24.64 287 -1.7 100 -1.7 0 0 981.2 NA 0.0000 9999 0 0 0 5280
2019/06/16 20:08:00 BASE 20.09 280 24.54 274 -1.7 100 -1.7 0 0 981.3 NA 0.0000 9999 0 0 0 5380
2019/06/16 20:09:00 BASE 19.07 281 24.54 274 -1.7 100 -1.7 0 0 981.3 NA 0.0000 9999 1210 0 0 0
2019/06/16 20:10:00 BASE 18.45 284 24.54 274 -1.7 100 -1.7 0 0 981.3 NA 0.0000 9999 1480 0 0 0
2019/06/16 20:11:00 BASE 18.58 285 24.54 274 -1.7 100 -1.7 0 0 981.4 NA 0.0000 9999 1410 0 0 0
2019/06/16 20:12:00 BASE 19.58 285 24.54 274 -1.6 100 -1.6 0 0 981.3 NA 0.0000 9999 1150 0 0 0
2019/06/16 20:13:00 BASE 19.98 283 24.54 274 -1.6 100 -1.6 0 0 981.4 NA 0.0000 9999 1800 0 0 0
2019/06/16 20:14:00 BASE 20.45 278 24.54 274 -1.6 100 -1.6 0 0 981.3 NA 0.0000 9999 0 0 0 2790
2019/06/16 20:15:00 BASE 19.54 278 24.54 274 -1.6 100 -1.6 0 0 981.5 NA 0.0000 9999 0 0 0 6000
2019/06/16 20:16:00 BASE 19.56 281 24.54 274 -1.6 100 -1.6 0 0 981.5 NA 0.0000 9999 1120 0 0 0
2019/06/16 20:17:00 BASE 19.01 279 23.87 280 -1.7 100 -1.7 0 0 981.6 NA 0.0000 9999 1120 0 0 0
2019/06/16 20:18:00 BASE 16.89 274 23.87 280 -1.7 100 -1.7 0 0 981.6 NA 0.0000 9999 1380 3350 0 0
2019/06/16 20:19:00 BASE 16.34 272 23.87 280 -1.7 100 -1.7 0 0 981.6 NA 0.0000 9999 2690 3410 0 0
2019/06/16 20:20:00 BASE 15.77 276 23.87 280 -1.7 100 -1.7 0 0 981.7 NA 0.0000 9999 2760 0 0 0
2019/06/16 20:21:00 BASE 15.69 278 23.87 280 -1.7 100 -1.7 0 0 981.7 NA 0.0000 9999 2660 0 0 0
2019/06/16 20:22:00 BASE 14.32 276 23.87 280 -1.7 100 -1.7 0 0 981.7 NA 0.0000 9999 2820 3970 0 0
2019/06/16 20:23:00 BASE 13.67 275 23.51 286 -1.7 100 -1.7 0 0 981.7 NA 0.0000 9999 2920 0 0 0
2019/06/16 20:24:00 BASE 14.23 275 23.51 286 -1.7 100 -1.7 0 0 981.7 NA 0.0000 9999 3050 0 0 0
2019/06/16 20:25:00 BASE 15.53 276 23.51 286 -1.7 100 -1.7 0 0 981.7 NA 0.0000 9999 3080 4490 0 0
2019/06/16 20:26:00 BASE 17.39 275 21.30 277 -1.7 100 -1.7 0 0 981.7 NA 0.0000 9999 1410 3280 0 0
2019/06/16 20:27:00 BASE 17.56 273 20.89 272 -1.7 100 -1.7 0 0 981.7 NA 0.0000 9999 3280 4460 0 0
2019/06/16 20:28:00 BASE 16.49 272 20.89 272 -1.7 100 -1.7 0 0 981.8 NA 0.0000 9999 1970 4170 6690 0
2019/06/16 20:29:00 BASE 16.62 273 20.89 272 -1.7 100 -1.7 0 0 981.8 NA 0.0000 9999 1440 0 0 0
2019/06/16 20:30:00 BASE 18.28 273 21.61 273 -1.7 100 -1.7 0 0 981.7 NA 0.0000 9999 1570 0 0 0
2019/06/16 20:31:00 BASE 18.89 272 21.61 273 -1.7 100 -1.7 0 0 981.8 NA 0.0000 9999 3580 7050 0 0
2019/06/16 20:32:00 BASE 17.41 271 21.61 273 -1.7 100 -1.7 0 0 981.8 NA 0.0000 9999 7150 0 0 0
2019/06/16 20:33:00 BASE 17.51 274 21.61 273 -1.7 100 -1.7 0 0 981.8 NA 0.0000 9999 3020 7190 0 0
2019/06/16 20:34:00 BASE 17.50 278 21.61 273 -1.7 100 -1.7 0 0 981.8 NA 0.0000 9999 2990 7220 0 0
2019/06/16 20:35:00 BASE 16.27 275 21.61 273 -1.7 100 -1.7 0 0 981.8 NA 0.0000 9999 3120 7220 0 0
2019/06/16 20:36:00 BASE 16.62 274 21.61 273 -1.7 100 -1.7 0 0 981.8 NA 0.0000 9999 7190 0 0 0
2019/06/16 20:37:00 BASE 15.38 279 21.61 273 -1.7 100 -1.7 0 0 981.9 NA 0.0000 9999 7150 0 0 0
2019/06/16 20:38:00 BASE 13.55 275 21.61 273 -1.7 100 -1.7 0 0 981.9 NA 0.0000 9999 7190 0 0 0
2019/06/16 20:39:00 BASE 14.00 273 21.61 273 -1.7 100 -1.7 0 0 981.9 NA 0.0000 9999 7220 0 0 0
2019/06/16 20:40:00 BASE 15.23 276 21.20 274 -1.7 100 -1.7 0 0 981.8 NA 0.0000 9999 2000 6560 0 0
2019/06/16 20:41:00 BASE 14.57 275 20.94 273 -1.6 100 -1.6 0 0 981.9 NA 0.0000 9999 1970 2790 0 0
2019/06/16 20:42:00 BASE 13.64 276 20.94 273 -1.6 100 -1.6 0 0 981.9 NA 0.0000 9999 1870 0 0 0
2019/06/16 20:43:00 BASE 14.47 276 19.60 285 -1.6 100 -1.6 0 0 981.9 NA 0.0000 9999 1840 0 0 0
2019/06/16 20:44:00 BASE 14.25 279 19.60 285 -1.6 100 -1.6 0 0 981.9 NA 0.0000 9999 1970 7550 0 0
2019/06/16 20:45:00 BASE 14.30 280 18.67 274 -1.6 100 -1.6 0 0 981.9 NA 0.0000 9999 2530 7480 0 0
2019/06/16 20:46:00 BASE 15.33 278 18.21 282 -1.5 100 -1.5 0 0 981.9 NA 0.0000 9999 2260 0 0 0
2019/06/16 20:47:00 BASE 14.65 278 18.21 282 -1.5 100 -1.5 0 0 981.9 NA 0.0000 9999 2360 0 0 0
2019/06/16 20:48:00 BASE 14.12 281 18.21 282 -1.5 100 -1.5 0 0 981.9 NA 0.0000 9999 2360 0 0 0
2019/06/16 20:49:00 BASE 14.18 286 18.21 282 -1.5 100 -1.5 0 0 981.8 NA 0.0000 9999 1670 0 0 0
2019/06/16 20:50:01 BASE 14.82 290 17.95 295 -1.5 100 -1.5 0 0 981.8 NA 0.0000 9999 1440 0 0 0
2019/06/16 20:51:00 BASE 15.19 287 17.95 295 -1.4 100 -1.4 0 0 981.9 NA 0.0000 9999 1610 0 0 0
2019/06/16 20:52:00 BASE 14.65 286 17.95 295 -1.4 100 -1.4 0 0 981.9 NA 0.0000 9999 1710 7450 0 0
2019/06/16 20:53:00 BASE 13.62 290 17.95 295 -1.4 100 -1.4 0 0 981.9 NA 0.0000 9999 1610 0 0 0
2019/06/16 20:54:00 BASE 12.64 293 17.95 295 -1.4 100 -1.4 0 0 982.0 NA 0.0000 9999 7250 0 0 0
2019/06/16 20:55:00 BASE 13.42 295 17.95 295 -1.4 100 -1.4 0 0 981.9 NA 0.0000 9999 7350 0 0 0
2019/06/16 20:56:00 BASE 14.34 294 17.95 295 -1.4 100 -1.4 0 0 981.9 NA 0.0000 9999 1970 0 0 0
2019/06/16 20:57:00 BASE 13.76 294 17.95 295 -1.4 100 -1.4 0 0 982.0 NA 0.0000 9999 1670 0 0 0
2019/06/16 20:58:00 BASE 13.30 296 17.95 295 -1.4 100 -1.4 0 0 982.0 NA 0.0000 9999 1510 2070 0 0
2019/06/16 20:59:00 BASE 13.23 296 17.54 284 -1.4 100 -1.4 0 0 982.0 NA 0.0000 9999 1570 0 0 0
2019/06/16 21:00:00 BASE 13.78 297 17.34 289 -1.4 100 -1.4 0 0 982.0 NA 0.0000 9999 1480 2170 0 0
2019/06/16 21:01:00 BASE 14.36 298 17.34 289 -1.4 100 -1.4 0 0 982.0 NA 0.0000 9999 1610 0 0 0
2019/06/16 21:02:00 BASE 13.88 300 17.34 289 -1.3 100 -1.3 0 0 982.0 NA 0.0000 9999 1410 0 0 0
2019/06/16 21:03:00 BASE 13.33 299 17.34 289 -1.3 100 -1.3 0 0 982.1 NA 0.0000 9999 1410 0 0 0
2019/06/16 21:04:00 BASE 13.43 298 17.34 289 -1.3 100 -1.3 0 0 982.1 NA 0.0000 9999 1350 0 0 0
2019/06/16 21:05:00 BASE 13.52 300 17.18 290 -1.3 100 -1.3 0 0 982.1 NA 0.0000 9999 1900 0 0 0
2019/06/16 21:06:00 BASE 15.15 302 18.67 297 -1.2 100 -1.2 0 0 982.0 NA 0.0000 9999 1670 0 0 0
2019/06/16 21:07:00 BASE 16.91 302 19.29 299 -1.2 100 -1.2 0 0 982.1 NA 0.0000 9999 1770 0 0 0
2019/06/16 21:08:00 BASE 14.91 300 19.29 299 -1.2 100 -1.2 0 0 982.2 NA 0.0000 9999 1770 2560 0 0
2019/06/16 21:09:00 BASE 14.50 299 19.29 299 -1.2 100 -1.2 0 0 982.1 NA 0.0000 9999 2230 0 0 0
2019/06/16 21:10:00 BASE 16.06 297 19.29 299 -1.2 100 -1.2 0 0 982.1 NA 0.0000 9999 1940 0 0 0
2019/06/16 21:11:00 BASE 15.55 295 19.29 299 -1.3 100 -1.3 0 0 982.1 NA 0.0000 9999 1740 2330 0 0
2019/06/16 21:12:00 BASE 15.44 295 19.81 292 -1.3 100 -1.3 0 0 982.1 NA 0.0000 9999 2070 0 0 0
2019/06/16 21:13:00 BASE 17.52 293 24.08 291 -1.3 100 -1.3 0 0 982.0 NA 0.0000 9999 1480 0 0 0
2019/06/16 21:14:00 BASE 19.84 291 24.33 292 -1.3 100 -1.3 0 0 982.1 NA 0.0000 3400 950 0 0 0
2019/06/16 21:15:00 BASE 21.47 290 27.47 287 -1.3 100 -1.3 0 0 982.1 NA 0.0000 BR 1900 0 0 0 1510
2019/06/16 21:16:00 BASE 20.37 287 27.47 287 -1.4 100 -1.4 0 0 982.2 NA 0.0000 UP BR 2200 0 0 0 2300
2019/06/16 21:17:00 BASE 18.29 286 27.47 287 -1.5 100 -1.5 0 0 982.4 NA 0.0000 UP BR 2400 0 0 0 3540
2019/06/16 21:18:00 BASE 18.50 288 27.47 287 -1.6 100 -1.6 0 0 982.3 NA 0.0000 UP BR 3400 2760 0 0 0
2019/06/16 21:19:00 BASE 18.75 287 27.47 287 -1.8 100 -1.8 0 0 982.4 NA 0.0000 UP BR 5000 1740 0 0 0
2019/06/16 21:20:00 BASE 18.65 286 27.47 287 -1.9 100 -1.9 0 0 982.4 NA 0.0000 UP BR 9999 2030 3510 0 0
2019/06/16 21:21:00 BASE 18.95 286 27.47 287 -2.0 100 -2.0 0 0 982.3 NA 0.0000 UP BR 9999 5410 0 0 0
2019/06/16 21:22:00 BASE 19.99 284 27.47 287 -2.1 100 -2.1 0 0 982.3 NA 0.0000 UP BR 9999 5090 0 0 0
2019/06/16 21:23:00 BASE 20.64 281 27.47 287 -2.2 100 -2.2 0 0 982.4 NA 0.0000 UP BR 3900 0 0 0 1150
2019/06/16 21:24:00 BASE 20.23 282 27.47 287 -2.2 100 -2.2 0 0 982.3 NA 0.0000 UP BR 1900 0 0 0 1050
2019/06/16 21:25:00 BASE 19.35 289 24.08 287 -2.3 100 -2.3 0 0 982.3 NA 0.0000 UP BR 2100 0 0 0 1120
2019/06/16 21:26:00 BASE 18.88 289 24.08 287 -2.4 100 -2.4 0 0 982.3 NA 0.0000 -SN BR 4400 2560 0 0 0
2019/06/16 21:27:00 BASE 18.75 287 24.08 287 -2.4 100 -2.4 0 0 982.3 NA 0.0000 -SN BR 7000 0 0 0 1540
2019/06/16 21:28:00 BASE 18.01 289 24.08 287 -2.4 100 -2.4 0 0 982.3 NA 0.0000 -SN BR 5000 0 0 0 720
2019/06/16 21:29:00 BASE 16.77 288 24.08 287 -2.3 100 -2.3 0 0 982.4 NA 0.0000 -SN BR 5000 0 0 0 690
2019/06/16 21:30:00 BASE 15.26 287 24.08 287 -2.2 100 -2.2 0 0 982.4 NA 0.0000 -SN BR 5000 5250 0 0 0
2019/06/16 21:31:00 BASE 14.89 287 24.08 287 -2.1 100 -2.1 0 0 982.5 NA 0.0000 -SN BR 7000 2820 0 0 0
2019/06/16 21:32:00 BASE 15.41 289 22.84 280 -2.1 100 -2.1 0 0 982.5 NA 0.0000 -SN BR 9999 4990 5940 0 0
2019/06/16 21:33:00 BASE 15.46 290 22.53 287 -2.0 100 -2.0 0 0 982.5 NA 0.0000 -SN BR 9999 6040 6960 0 0
2019/06/16 21:34:00 BASE 14.60 291 21.56 284 -1.9 100 -1.9 0 0 982.6 NA 0.0000 -SN BR 9999 8430 0 0 0
2019/06/16 21:35:00 BASE 14.44 293 21.56 284 -1.9 100 -1.9 0 0 982.6 NA 0.0000 -SN BR 9999 8430 0 0 0
2019/06/16 21:36:00 BASE 14.60 292 21.56 284 -1.8 100 -1.8 0 0 982.6 NA 0.0000 -SN BR 9999 8460 0 0 0
2019/06/16 21:37:00 BASE 14.29 294 19.14 285 -1.8 100 -1.8 0 0 982.6 NA 0.0000 -SN BR 9999 8460 0 0 0
2019/06/16 21:38:00 BASE 14.32 295 18.31 281 -1.7 100 -1.7 0 0 982.7 NA 0.0000 9999 8530 0 0 0
2019/06/16 21:39:00 BASE 14.01 294 18.01 289 -1.7 100 -1.7 0 0 982.7 NA 0.0000 9999 8600 0 0 0
2019/06/16 21:40:00 BASE 14.69 294 18.01 289 -1.7 100 -1.7 0 0 982.7 NA 0.0000 9999 8630 0 0 0
2019/06/16 21:41:00 BASE 14.80 295 18.01 289 -1.7 100 -1.7 0 0 982.8 NA 0.0000 9999 8630 0 0 0
2019/06/16 21:42:00 BASE 13.93 295 17.44 295 -1.7 100 -1.7 0 0 982.8 NA 0.0000 9999 6460 8690 0 0
2019/06/16 21:43:00 BASE 14.02 296 17.44 295 -1.7 100 -1.7 0 0 982.8 NA 0.0000 9999 6500 0 0 0
2019/06/16 21:44:00 BASE 13.81 297 17.44 295 -1.7 100 -1.7 0 0 982.9 NA 0.0000 9999 6590 0 0 0
2019/06/16 21:45:00 BASE 13.29 297 17.44 295 -1.7 100 -1.7 0 0 982.9 NA 0.0000 9999 3940 6660 0 0
2019/06/16 21:46:00 BASE 13.46 299 16.77 291 -1.7 100 -1.7 0 0 982.9 NA 0.0000 9999 3970 6730 0 0
2019/06/16 21:47:00 BASE 14.32 298 17.18 298 -1.6 100 -1.6 0 0 982.9 NA 0.0000 9999 4000 0 0 0
2019/06/16 21:48:00 BASE 13.73 299 17.18 298 -1.6 100 -1.6 0 0 983.0 NA 0.0000 9999 4170 6820 0 0
2019/06/16 21:49:00 BASE 12.54 300 17.18 298 -1.6 100 -1.6 0 0 983.0 NA 0.0000 9999 6790 0 0 0
2019/06/16 21:50:00 BASE 13.11 301 17.18 298 -1.6 100 -1.6 0 0 983.0 NA 0.0000 9999 4790 6790 0 0
2019/06/16 21:51:00 BASE 13.33 299 17.18 298 -1.6 100 -1.6 0 0 983.0 NA 0.0000 9999 3250 0 0 0
2019/06/16 21:52:00 BASE 12.73 297 17.18 298 -1.6 100 -1.6 0 0 983.1 NA 0.0000 9999 2950 0 0 0
2019/06/16 21:53:00 BASE 13.09 300 17.18 298 -1.6 100 -1.6 0 0 983.1 NA 0.0000 9999 1870 2820 0 0
2019/06/16 21:54:00 BASE 13.40 302 17.18 298 -1.6 100 -1.6 0 0 983.1 NA 0.0000 9999 2850 0 0 0
2019/06/16 21:55:00 BASE 13.03 301 17.18 298 -1.5 100 -1.5 0 0 983.1 NA 0.0000 9999 2820 0 0 0
2019/06/16 21:56:00 BASE 13.76 299 17.18 298 -1.5 100 -1.5 0 0 983.1 NA 0.0000 9999 2990 0 0 0
2019/06/16 21:57:00 BASE 13.87 298 16.10 303 -1.5 100 -1.5 0 0 983.1 NA 0.0000 9999 6530 0 0 0
2019/06/16 21:58:00 BASE 14.12 294 16.98 289 -1.5 100 -1.5 0 0 983.1 NA 0.0000 9999 6530 0 0 0
2019/06/16 21:59:00 BASE 14.83 294 16.98 289 -1.5 100 -1.5 0 0 983.1 NA 0.0000 9999 4300 6560 0 0
2019/06/16 22:00:00 BASE 14.14 296 16.98 289 -1.5 100 -1.5 0 0 983.2 NA 0.0000 9999 6460 0 0 0
2019/06/16 22:01:00 BASE 13.54 294 16.98 289 -1.5 100 -1.5 0 0 983.2 NA 0.0000 9999 1570 6460 0 0
2019/06/16 22:02:00 BASE 13.58 294 16.98 289 -1.5 100 -1.5 0 0 983.2 NA 0.0000 9999 6370 0 0 0
2019/06/16 22:03:00 BASE 13.44 295 16.98 289 -1.5 100 -1.5 0 0 983.2 NA 0.0000 9999 4040 6430 0 0
2019/06/16 22:04:00 BASE 14.30 294 18.57 292 -1.5 100 -1.5 0 0 983.1 NA 0.0000 9999 6430 0 0 0
2019/06/16 22:05:00 BASE 14.63 292 18.57 292 -1.5 100 -1.5 0 0 983.2 NA 0.0000 9999 1610 4070 0 0
2019/06/16 22:06:00 BASE 13.67 289 18.57 292 -1.5 100 -1.5 0 0 983.3 NA 0.0000 9999 6500 0 0 0
2019/06/16 22:07:00 BASE 13.59 291 18.57 292 -1.5 100 -1.5 0 0 983.2 NA 0.0000 9999 6460 0 0 0
2019/06/16 22:08:00 BASE 14.30 296 18.57 292 -1.5 100 -1.5 0 0 983.3 NA 0.0000 9999 6500 0 0 0
2019/06/16 22:09:00 BASE 14.71 296 18.57 292 -1.5 100 -1.5 0 0 983.3 NA 0.0000 9999 6560 0 0 0
2019/06/16 22:10:00 BASE 14.79 294 18.57 292 -1.5 100 -1.5 0 0 983.3 NA 0.0000 9999 3540 0 0 0
2019/06/16 22:11:00 BASE 15.56 291 18.57 292 -1.5 100 -1.5 0 0 983.3 NA 0.0000 9999 3810 6690 0 0
2019/06/16 22:12:00 BASE 15.25 289 18.57 292 -1.5 100 -1.5 0 0 983.4 NA 0.0000 9999 6330 0 0 0
2019/06/16 22:13:00 BASE 15.36 293 18.57 292 -1.5 100 -1.5 0 0 983.4 NA 0.0000 9999 3120 0 0 0
2019/06/16 22:14:00 BASE 15.59 295 18.06 297 -1.5 100 -1.5 0 0 983.4 NA 0.0000 9999 2000 3180 0 0
2019/06/16 22:15:00 BASE 14.54 296 18.06 297 -1.4 100 -1.4 0 0 983.5 NA 0.0000 9999 3310 0 0 0
2019/06/16 22:16:00 BASE 13.84 297 18.06 297 -1.4 100 -1.4 0 0 983.5 NA 0.0000 9999 6300 0 0 0
2019/06/16 22:17:00 BASE 12.68 298 18.06 297 -1.4 100 -1.4 0 0 983.5 NA 0.0000 9999 6230 0 0 0
2019/06/16 22:18:00 BASE 12.62 299 18.06 297 -1.4 100 -1.4 0 0 983.5 NA 0.0000 9999 6040 0 0 0
2019/06/16 22:19:00 BASE 13.21 298 18.06 297 -1.4 100 -1.4 0 0 983.5 NA 0.0000 9999 1770 0 0 0
2019/06/16 22:20:00 BASE 13.28 299 18.06 297 -1.4 100 -1.4 0 0 983.6 NA 0.0000 9999 2070 6330 0 0
2019/06/16 22:21:00 BASE 13.04 299 16.98 281 -1.4 100 -1.4 0 0 983.6 NA 0.0000 9999 1840 0 0 0
2019/06/16 22:22:00 BASE 12.77 299 16.98 281 -1.4 100 -1.4 0 0 983.6 NA 0.0000 9999 3280 0 0 0
2019/06/16 22:23:00 BASE 13.17 298 16.20 292 -1.4 100 -1.4 0 0 983.6 NA 0.0000 9999 2170 3380 0 0
2019/06/16 22:24:00 BASE 13.05 299 15.07 294 -1.4 100 -1.4 0 0 983.6 NA 0.0000 9999 1940 3310 0 0
2019/06/16 22:25:00 BASE 13.66 298 16.93 291 -1.4 100 -1.4 0 0 983.6 NA 0.0000 9999 3220 0 0 0
2019/06/16 22:26:00 BASE 14.82 295 16.93 291 -1.4 100 -1.4 0 0 983.6 NA 0.0000 9999 1870 3280 0 0
2019/06/16 22:27:00 BASE 14.17 296 16.93 291 -1.4 100 -1.4 0 0 983.6 NA 0.0000 9999 2070 3120 0 0
2019/06/16 22:28:00 BASE 12.63 298 16.93 291 -1.4 100 -1.4 0 0 983.7 NA 0.0000 9999 3280 0 0 0
2019/06/16 22:29:00 BASE 12.25 297 16.93 291 -1.4 100 -1.4 0 0 983.7 NA 0.0000 9999 3280 0 0 0
2019/06/16 22:30:00 BASE 12.87 298 16.93 291 -1.4 100 -1.4 0 0 983.6 NA 0.0000 9999 3180 3940 0 0
2019/06/16 22:31:00 BASE 12.67 298 16.93 291 -1.4 100 -1.4 0 0 983.7 NA 0.0000 9999 3120 0 0 0
2019/06/16 22:32:00 BASE 11.54 299 16.93 291 -1.4 100 -1.4 0 0 983.7 NA 0.0000 9999 2000 3080 0 0
2019/06/16 22:33:00 BASE 11.54 301 16.93 291 -1.3 100 -1.3 0 0 983.7 NA 0.0000 9999 1900 3080 0 0
2019/06/16 22:34:00 BASE 12.40 301 16.93 291 -1.4 100 -1.4 0 0 983.7 NA 0.0000 9999 1670 2170 0 0
2019/06/16 22:35:00 BASE 12.38 300 16.72 289 -1.3 100 -1.3 0 0 983.7 NA 0.0000 9999 1770 0 0 0
2019/06/16 22:36:00 BASE 12.06 299 16.05 302 -1.3 100 -1.3 0 0 983.7 NA 0.0000 9999 3310 0 0 0
2019/06/16 22:37:00 BASE 11.91 298 15.28 296 -1.3 100 -1.3 0 0 983.7 NA 0.0000 9999 1670 3380 0 0
2019/06/16 22:38:00 BASE 12.17 302 15.28 296 -1.3 100 -1.3 0 0 983.7 NA 0.0000 9999 1770 0 0 0
2019/06/16 22:39:00 BASE 12.81 306 15.28 296 -1.3 100 -1.3 0 0 983.6 NA 0.0000 9000 390 0 0 0
2019/06/16 22:40:01 BASE 14.94 307 18.57 307 -1.3 100 -1.3 0 0 983.5 NA 0.0000 8000 1380 0 0 0
2019/06/16 22:41:00 BASE 16.22 306 18.57 307 -1.3 100 -1.3 0 0 983.6 NA 0.0000 -SN 9999 1740 0 0 0
2019/06/16 22:42:00 BASE 15.05 307 18.57 307 -1.3 100 -1.3 0 0 983.7 NA 0.0000 -SN 9999 1480 0 0 0
2019/06/16 22:43:00 BASE 14.66 306 18.57 307 -1.3 100 -1.3 0 0 983.7 NA 0.0000 -SN 9999 1540 0 0 0
2019/06/16 22:44:00 BASE 15.10 306 18.57 307 -1.3 100 -1.3 0 0 983.7 NA 0.0000 -SN 9999 1440 0 0 0
2019/06/16 22:45:00 BASE 15.11 309 18.57 307 -1.3 100 -1.3 0 0 983.7 NA 0.0000 -SN 9999 1710 2720 0 0
2019/06/16 22:46:00 BASE 14.56 310 18.57 307 -1.3 100 -1.3 0 0 983.7 NA 0.0000 -SN 9999 1570 2130 0 0
2019/06/16 22:47:00 BASE 14.07 310 18.57 307 -1.3 100 -1.3 0 0 983.7 NA 0.0000 -SN 9999 1410 0 0 0
2019/06/16 22:48:00 BASE 13.27 311 18.57 307 -1.3 100 -1.3 0 0 983.7 NA 0.0000 -SN 9999 1380 0 0 0
2019/06/16 22:49:00 BASE 14.17 309 18.57 307 -1.3 100 -1.3 0 0 983.7 NA 0.0000 -SN 9999 1480 0 0 0
2019/06/16 22:50:00 BASE 15.22 306 16.98 305 -1.3 100 -1.3 0 0 983.7 NA 0.0000 9999 1440 0 0 0
2019/06/16 22:51:00 BASE 14.70 307 16.77 302 -1.2 100 -1.2 0 0 983.7 NA 0.0000 9999 1380 0 0 0
2019/06/16 22:52:00 BASE 14.99 308 16.77 302 -1.2 100 -1.2 0 0 983.7 NA 0.0000 9999 1350 0 0 0
2019/06/16 22:53:00 BASE 16.22 310 18.52 307 -1.2 100 -1.2 0 0 983.7 NA 0.0000 9999 1380 2100 0 0
2019/06/16 22:54:00 BASE 17.91 311 20.68 305 -1.2 100 -1.2 0 0 983.6 NA 0.0000 9999 1250 0 0 0
2019/06/16 22:55:00 BASE 17.75 310 20.68 305 -1.2 100 -1.2 0 0 983.7 NA 0.0000 9999 1410 0 0 0
2019/06/16 22:56:00 BASE 16.65 307 20.68 305 -1.2 100 -1.2 0 0 983.7 NA 0.0000 9999 1350 2890 0 0
2019/06/16 22:57:00 BASE 16.47 304 20.68 305 -1.2 100 -1.2 0 0 983.8 NA 0.0000 9999 4860 0 0 0
2019/06/16 22:58:00 BASE 16.34 304 20.68 305 -1.3 100 -1.3 0 0 983.8 NA 0.0000 9999 4400 0 0 0
2019/06/16 22:59:00 BASE 16.63 305 20.68 305 -1.3 100 -1.3 0 0 983.8 NA 0.0000 9999 1570 0 0 0
2019/06/16 23:00:00 BASE 17.03 303 20.68 305 -1.3 100 -1.3 0 0 983.8 NA 0.0000 9999 0 0 0 4990
2019/06/16 23:01:00 BASE 16.78 302 20.68 305 -1.3 100 -1.3 0 0 983.8 NA 0.0000 9999 1440 0 0 0
2019/06/16 23:02:00 BASE 16.27 300 20.68 305 -1.3 100 -1.3 0 0 983.9 NA 0.0000 9999 0 0 0 4660
2019/06/16 23:03:00 BASE 16.01 299 20.68 305 -1.4 100 -1.4 0 0 983.9 NA 0.0000 9000 0 0 0 4790
2019/06/16 23:04:00 BASE 15.35 299 18.83 304 -1.4 100 -1.4 0 0 984.0 NA 0.0000 -SN 8000 0 0 0 4070
2019/06/16 23:05:00 BASE 14.82 298 18.52 302 -1.4 100 -1.4 0 0 984.0 NA 0.0000 -SN 7000 2030 0 0 0
2019/06/16 23:06:00 BASE 15.76 297 18.73 293 -1.4 100 -1.4 0 0 984.0 NA 0.0000 -SN 6000 0 0 0 3450
2019/06/16 23:07:00 BASE 16.83 299 19.34 301 -1.4 100 -1.4 0 0 984.0 NA 0.0000 -SN BR 5000 300 0 0 0
2019/06/16 23:08:00 BASE 16.99 303 19.60 306 -1.4 100 -1.4 0 0 984.0 NA 0.0000 -SN BR 7000 430 0 0 0
2019/06/16 23:09:00 BASE 17.18 303 19.91 303 -1.4 100 -1.4 0 0 984.0 NA 0.0000 -SN BR 9999 0 0 0 3150
2019/06/16 23:10:00 BASE 17.16 302 19.91 303 -1.5 100 -1.5 0 0 984.1 NA 0.0000 -SN BR 9999 2330 0 0 0
2019/06/16 23:11:00 BASE 17.31 301 19.91 303 -1.5 100 -1.5 0 0 984.0 NA 0.0000 -SN BR 9999 1900 0 0 0
2019/06/16 23:12:00 BASE 16.87 299 19.91 303 -1.5 100 -1.5 0 0 984.1 NA 0.0000 -SN BR 9999 1970 0 0 0
2019/06/16 23:13:00 BASE 15.82 299 19.91 303 -1.5 100 -1.5 0 0 984.1 NA 0.0000 -SN BR 9999 1940 0 0 0
2019/06/16 23:14:00 BASE 15.08 300 19.91 303 -1.5 100 -1.5 0 0 984.1 NA 0.0000 -SN BR 9999 1840 4360 0 0
2019/06/16 23:15:00 BASE 14.76 302 19.91 303 -1.4 100 -1.4 0 0 984.1 NA 0.0000 -SN 9999 1570 0 0 0
2019/06/16 23:16:00 BASE 14.02 302 19.91 303 -1.4 100 -1.4 0 0 984.2 NA 0.0000 -SN 9999 2260 0 0 0
2019/06/16 23:17:00 BASE 13.42 300 19.91 303 -1.4 100 -1.4 0 0 984.2 NA 0.0000 -SN 9999 1870 2990 0 0
2019/06/16 23:18:00 BASE 14.69 299 19.91 303 -1.4 100 -1.4 0 0 984.1 NA 0.0000 -SN 9999 3050 5020 0 0
2019/06/16 23:19:00 BASE 15.25 301 19.60 295 -1.4 100 -1.4 0 0 984.1 NA 0.0000 9999 1610 0 0 0
2019/06/16 23:20:00 BASE 15.32 302 19.60 295 -1.4 100 -1.4 0 0 984.1 NA 0.0000 9999 1510 2070 0 0
2019/06/16 23:21:00 BASE 15.10 298 18.31 303 -1.4 100 -1.4 0 0 984.2 NA 0.0000 9999 1570 0 0 0
2019/06/16 23:22:00 BASE 15.09 297 18.31 303 -1.5 100 -1.5 0 0 984.2 NA 0.0000 9999 1900 0 0 0
2019/06/16 23:23:00 BASE 15.67 297 18.31 303 -1.5 100 -1.5 0 0 984.2 NA 0.0000 9999 1670 0 0 0
2019/06/16 23:24:00 BASE 15.55 296 18.42 290 -1.5 100 -1.5 0 0 984.3 NA 0.0000 9999 2170 0 0 0
2019/06/16 23:25:00 BASE 14.98 297 18.42 290 -1.5 100 -1.5 0 0 984.3 NA 0.0000 9999 1800 2560 0 0
2019/06/16 23:26:00 BASE 14.27 297 18.42 290 -1.5 100 -1.5 0 0 984.3 NA 0.0000 9999 1710 0 0 0
2019/06/16 23:27:00 BASE 13.90 297 18.42 290 -1.5 100 -1.5 0 0 984.3 NA 0.0000 9999 1640 0 0 0
2019/06/16 23:28:00 BASE 14.44 295 18.93 290 -1.4 100 -1.4 0 0 984.3 NA 0.0000 9999 2170 0 0 0
2019/06/16 23:29:00 BASE 15.30 294 18.93 290 -1.4 100 -1.4 0 0 984.3 NA 0.0000 9999 1840 2360 0 0
2019/06/16 23:30:00 BASE 15.05 295 18.93 290 -1.4 100 -1.4 0 0 984.3 NA 0.0000 9999 1640 0 0 0
2019/06/16 23:31:00 BASE 13.97 293 18.93 290 -1.4 100 -1.4 0 0 984.3 NA 0.0000 9999 1710 0 0 0
2019/06/16 23:32:00 BASE 12.88 292 18.93 290 -1.4 100 -1.4 0 0 984.3 NA 0.0000 9999 1640 2590 0 0
2019/06/16 23:33:00 BASE 12.14 295 18.93 290 -1.4 100 -1.4 0 0 984.3 NA 0.0000 9999 1670 0 0 0
2019/06/16 23:34:00 BASE 12.14 296 18.93 290 -1.4 100 -1.4 0 0 984.3 NA 0.0000 9999 1640 0 0 0
2019/06/16 23:35:00 BASE 12.94 293 18.93 290 -1.3 100 -1.3 0 0 984.3 NA 0.0000 9999 1840 0 0 0
2019/06/16 23:36:00 BASE 13.07 296 18.93 290 -1.3 100 -1.3 0 0 984.3 NA 0.0000 9999 1940 0 0 0
2019/06/16 23:37:00 BASE 13.64 296 18.93 290 -1.3 100 -1.3 0 0 984.3 NA 0.0000 9999 1770 0 0 0
2019/06/16 23:38:00 BASE 13.75 294 17.29 289 -1.3 100 -1.3 0 0 984.3 NA 0.0000 9999 1770 5480 0 0
2019/06/16 23:39:00 BASE 13.28 298 17.29 289 -1.3 100 -1.3 0 0 984.3 NA 0.0000 9999 5480 0 0 0
2019/06/16 23:40:00 BASE 13.93 299 17.29 289 -1.4 100 -1.4 0 0 984.3 NA 0.0000 9999 1770 5450 0 0
2019/06/16 23:41:00 BASE 14.10 299 17.29 289 -1.4 100 -1.4 0 0 984.3 NA 0.0000 9999 5380 0 0 0
2019/06/16 23:42:00 BASE 14.33 298 17.29 289 -1.4 100 -1.4 0 0 984.3 NA 0.0000 9999 5450 0 0 0
2019/06/16 23:43:00 BASE 13.65 297 17.29 289 -1.4 100 -1.4 0 0 984.4 NA 0.0000 9999 2890 0 0 0
2019/06/16 23:44:00 BASE 12.94 299 17.29 289 -1.3 100 -1.3 0 0 984.4 NA 0.0000 9999 3120 5380 0 0
2019/06/16 23:45:00 BASE 13.55 298 17.29 289 -1.3 100 -1.3 0 0 984.4 NA 0.0000 9999 4990 0 0 0
2019/06/16 23:46:00 BASE 13.44 297 17.29 289 -1.3 100 -1.3 0 0 984.4 NA 0.0000 9999 2760 5350 0 0
2019/06/16 23:47:00 BASE 13.32 299 16.72 294 -1.3 100 -1.3 0 0 984.4 NA 0.0000 9999 2820 0 0 0
2019/06/16 23:48:00 BASE 13.26 301 16.72 294 -1.3 100 -1.3 0 0 984.4 NA 0.0000 9999 3020 5450 0 0
2019/06/16 23:49:00 BASE 12.97 301 16.72 294 -1.3 100 -1.3 0 0 984.4 NA 0.0000 9999 3180 5450 0 0
2019/06/16 23:50:00 BASE 12.85 301 16.72 294 -1.3 100 -1.3 0 0 984.5 NA 0.0000 9999 3120 0 0 0
2019/06/16 23:51:00 BASE 12.67 301 16.72 294 -1.3 100 -1.3 0 0 984.5 NA 0.0000 9999 3310 0 0 0
2019/06/16 23:52:00 BASE 12.94 303 16.10 293 -1.3 100 -1.3 0 0 984.5 NA 0.0000 9999 3450 0 0 0
2019/06/16 23:53:00 BASE 13.32 304 16.10 293 -1.3 100 -1.3 0 0 984.5 NA 0.0000 9999 5380 0 0 0
2019/06/16 23:54:00 BASE 13.18 304 16.10 293 -1.3 100 -1.3 0 0 984.6 NA 0.0000 9999 3020 5380 0 0
2019/06/16 23:55:00 BASE 13.09 303 15.74 299 -1.3 100 -1.3 0 0 984.5 NA 0.0000 9999 3540 0 0 0
2019/06/16 23:56:00 BASE 12.91 304 15.33 301 -1.3 100 -1.3 0 0 984.6 NA 0.0000 9999 3250 5450 0 0
2019/06/16 23:57:00 BASE 12.17 305 15.33 301 -1.3 100 -1.3 0 0 984.6 NA 0.0000 9999 3250 5410 0 0
2019/06/16 23:58:00 BASE 11.90 305 15.33 301 -1.3 100 -1.3 0 0 984.6 NA 0.0000 9999 3220 0 0 0
2019/06/16 23:59:00 BASE 11.81 306 15.33 301 -1.3 100 -1.3 0 0 984.6 NA 0.0000 9999 3150 5480 0 0